Provisional Data: North Branch Muddy Creek near Muddy Creek Forks, PA


Please select a monitoring station.
Please select start date.
Please select start date.

Toggle Unit: C/F Toggle Unit: C/F
Sample Time Temperature (C) Temperature (F) Specific Conductivity (mS/cm) pH   Turbidity (NTU+) DO (mg/L)
5/17/2022 12:00:00 AM 16.42 61.556 0.159 7.02 292.4 8.88
5/17/2022 12:15:00 AM 16.34 61.412 0.159 7.02 339.1 8.89
5/17/2022 12:30:00 AM 16.25 61.25 0.159 7.02 320.1 8.9
5/17/2022 12:45:00 AM 16.16 61.088 0.159 7.01 309.1 8.94
5/17/2022 1:00:00 AM 16.07 60.926 0.159 7.02 299.5 8.94
5/17/2022 1:15:00 AM 15.99 60.782 0.159 7.01 300.3 8.96
5/17/2022 1:30:00 AM 15.91 60.638 0.159 6.99 257.7 8.96
5/17/2022 1:45:00 AM 15.83 60.494 0.159 7.01 252.2 9.02
5/17/2022 2:00:00 AM 15.75 60.35 0.159 7.01 307.1 9.03
5/17/2022 2:15:00 AM 15.66 60.188 0.159 7.01 317 9.05
5/17/2022 2:30:00 AM 15.58 60.044 0.159 7.01 323.9 9.09
5/17/2022 2:45:00 AM 15.49 59.882 0.159 7.02 324.2 9.11
5/17/2022 3:00:00 AM 15.4 59.72 0.16 7.02 298.3 9.1
5/17/2022 3:15:00 AM 15.31 59.558 0.16 7.02 326.3 9.14
5/17/2022 3:30:00 AM 15.22 59.396 0.16 7.01 330.3 9.17
5/17/2022 3:45:00 AM 15.12 59.216 0.16 7.01 297.6 9.2
5/17/2022 4:00:00 AM 15.03 59.054 0.16 7.02 282.3 9.21
5/17/2022 4:15:00 AM 14.93 58.874 0.16 7.02 312.8 9.26
5/17/2022 4:30:00 AM 14.83 58.694 0.16 7.03 299.2 9.3
5/17/2022 4:45:00 AM 14.74 58.532 0.16 7.03 304 9.3
5/17/2022 5:00:00 AM 14.65 58.37 0.16 7.02 324.1 9.33
5/17/2022 5:15:00 AM 14.55 58.19 0.16 7.03 347.6 9.36
5/17/2022 5:30:00 AM 14.45 58.01 0.161 7.03 358 9.38
5/17/2022 5:45:00 AM 14.36 57.848 0.16 7.02 382.7 9.41
5/17/2022 6:00:00 AM 14.27 57.686 0.16 7.02 245.2 9.35
5/17/2022 6:15:00 AM 14.18 57.524 0.16 7.02 257.4 9.47
5/17/2022 6:30:00 AM 14.08 57.344 0.16 7.02 275.7 9.52
5/17/2022 6:45:00 AM 14 57.2 0.16 7.02 268.7 9.55
5/17/2022 7:00:00 AM 13.91 57.038 0.16 7.03 225.9 9.63
5/17/2022 7:15:00 AM 13.83 56.894 0.16 7.03 311.5 9.69
5/17/2022 7:30:00 AM 13.76 56.768 0.16 7.03 298.5 9.76
5/17/2022 7:45:00 AM 13.69 56.642 0.16 7.04 282 9.81
5/17/2022 8:00:00 AM 13.64 56.552 0.16 7.04 319.3 9.83
5/17/2022 8:15:00 AM 13.61 56.498 0.16 7.05 283.8 9.94
5/17/2022 8:30:00 AM 13.59 56.462 0.16 7.05 210.5 10.01
5/17/2022 8:45:00 AM 13.6 56.48 0.157 7.2 8.6 10.3
5/17/2022 9:00:00 AM 13.61 56.498 0.157 7.22 8.62 10.31
5/17/2022 9:15:00 AM 13.65 56.57 0.157 7.25 6.12 10.4
5/17/2022 9:30:00 AM 13.7 56.66 0.156 7.29 6.61 10.52
5/17/2022 9:45:00 AM 13.78 56.804 0.156 7.32 6.16 10.62
5/17/2022 10:00:00 AM 13.89 57.002 0.156 7.37 6.37 10.74
5/17/2022 10:15:00 AM 14.03 57.254 0.156 7.42 7.47 10.85
5/17/2022 10:30:00 AM 14.21 57.578 0.155 7.48 6.13 10.95
5/17/2022 10:45:00 AM 14.39 57.902 0.155 7.53 6.17 11.03
5/17/2022 11:00:00 AM 14.61 58.298 0.155 7.59 6.24 11.1
5/17/2022 11:15:00 AM 14.85 58.73 0.155 7.64 4.99 11.14
5/17/2022 11:30:00 AM 15.11 59.198 0.155 7.69 6.11 11.17
5/17/2022 11:45:00 AM 15.41 59.738 0.155 7.75 5.26 11.2
5/17/2022 12:00:00 PM 15.71 60.278 0.155 7.8 5.91 11.21
5/17/2022 12:15:00 PM 16.02 60.836 0.155 7.87 7.37 11.21
5/17/2022 12:30:00 PM 16.33 61.394 0.155 7.91 5.34 11.2
5/17/2022 12:45:00 PM 16.64 61.952 0.155 7.95 5.57 11.18
5/17/2022 1:00:00 PM 16.96 62.528 0.155 8 5.95 11.2
5/17/2022 1:15:00 PM 17.25 63.05 0.155 8.04 5.36 11.17
5/17/2022 1:30:00 PM 17.5 63.5 0.155 8.09 4.98 11.14
5/17/2022 1:45:00 PM 17.69 63.842 0.155 8.1 5.96 11.06
5/17/2022 2:00:00 PM 17.8 64.04 0.155 8.1 5.24 11
5/17/2022 2:15:00 PM 18.01 64.418 0.155 8.11 6.73 10.97
5/17/2022 2:30:00 PM 18.14 64.652 0.155 8.14 6.8 10.95
5/17/2022 2:45:00 PM 18.21 64.778 0.155 8.15 7.75 10.87
5/17/2022 3:00:00 PM 18.31 64.958 0.155 8.15 8.93 10.81
5/17/2022 3:15:00 PM 18.43 65.174 0.155 8.16 10.91 10.8
5/17/2022 3:30:00 PM 18.25 64.85 0.156 8.14 9.24 10.7
5/17/2022 3:45:00 PM 18.36 65.048 0.155 8.12 9.45 10.64
5/17/2022 4:00:00 PM 18.44 65.192 0.155 8.12 10.44 10.63
5/17/2022 4:15:00 PM 18.45 65.21 0.155 8.12 8.63 10.57
5/17/2022 4:30:00 PM 18.4 65.12 0.156 8.1 9.97 10.53
5/17/2022 4:45:00 PM 18.37 65.066 0.156 8.07 7.57 10.42
5/17/2022 5:00:00 PM 18.42 65.156 0.156 8.07 4.81 10.43
5/17/2022 5:15:00 PM 18.37 65.066 0.156 8.06 16.51 10.38
5/17/2022 5:30:00 PM 18.34 65.012 0.156 8.03 4.56 10.33
5/17/2022 5:45:00 PM 18.31 64.958 0.156 7.98 6.57 10.24
5/17/2022 6:00:00 PM 18.27 64.886 0.156 7.92 5.64 10.14
5/17/2022 6:15:00 PM 18.18 64.724 0.156 7.83 4.71 10.02
5/17/2022 6:30:00 PM 18.11 64.598 0.156 7.76 6.7 9.9
5/17/2022 6:45:00 PM 18.04 64.472 0.156 7.68 4.94 9.8
5/17/2022 7:00:00 PM 17.95 64.31 0.156 7.6 5.94 9.68
5/17/2022 7:15:00 PM 17.89 64.202 0.156 7.53 4.45 9.56
5/17/2022 7:30:00 PM 17.81 64.058 0.156 7.49 7.06 9.45
5/17/2022 7:45:00 PM 17.73 63.914 0.156 7.42 5.52 9.34
5/17/2022 8:00:00 PM 17.65 63.77 0.156 7.37 6.08 9.25
5/17/2022 8:15:00 PM 17.57 63.626 0.157 7.32 6.04 9.18
5/17/2022 8:30:00 PM 17.51 63.518 0.157 7.29 7.33 9.1
5/17/2022 8:45:00 PM 17.44 63.392 0.157 7.26 5.69 9.03
5/17/2022 9:00:00 PM 17.37 63.266 0.157 7.23 5.93 8.98
5/17/2022 9:15:00 PM 17.29 63.122 0.157 7.21 8.57 8.95
5/17/2022 9:30:00 PM 17.2 62.96 0.157 7.19 8.98 8.92
5/17/2022 9:45:00 PM 17.12 62.816 0.157 7.18 5.35 8.89
5/17/2022 10:00:00 PM 17.03 62.654 0.157 7.16 6.05 8.89
5/17/2022 10:15:00 PM 16.94 62.492 0.157 7.16 5.55 8.88
5/17/2022 10:30:00 PM 16.85 62.33 0.157 7.15 7.02 8.88
5/17/2022 10:45:00 PM 16.77 62.186 0.157 7.14 7.48 8.88
5/17/2022 11:00:00 PM 16.68 62.024 0.157 7.13 16.8 8.87
5/17/2022 11:15:00 PM 16.59 61.862 0.157 7.13 6.69 8.89
5/17/2022 11:30:00 PM 16.5 61.7 0.157 7.12 8.32 8.9
5/17/2022 11:45:00 PM 16.41 61.538 0.157 7.12 7.29 8.92
5/18/2022 12:00:00 AM 16.33 61.394 0.157 7.12 5.94 8.95
5/18/2022 12:15:00 AM 16.25 61.25 0.157 7.11 5.5 8.96
5/18/2022 12:30:00 AM 16.16 61.088 0.157 7.11 9.16 8.98
5/18/2022 12:45:00 AM 16.08 60.944 0.157 7.12 7.49 9
5/18/2022 1:00:00 AM 16 60.8 0.157 7.11 7.05 9.01
5/18/2022 1:15:00 AM 15.91 60.638 0.157 7.11 7.4 9.04
5/18/2022 1:30:00 AM 15.83 60.494 0.157 7.12 7.8 9.07
5/18/2022 1:45:00 AM 15.74 60.332 0.157 7.13 7.57 9.08
5/18/2022 2:00:00 AM 15.65 60.17 0.157 7.12 9.23 9.11
5/18/2022 2:15:00 AM 15.56 60.008 0.158 7.11 8.63 9.12
5/18/2022 2:30:00 AM 15.46 59.828 0.158 7.12 8.42 9.16
5/18/2022 2:45:00 AM 15.36 59.648 0.158 7.12 10.7 9.19
5/18/2022 3:00:00 AM 15.25 59.45 0.158 7.12 8.19 9.22
5/18/2022 3:15:00 AM 15.15 59.27 0.158 7.12 7.49 9.24
5/18/2022 3:30:00 AM 15.05 59.09 0.158 7.12 8.31 9.27
5/18/2022 3:45:00 AM 14.94 58.892 0.158 7.12 9.29 9.3
5/18/2022 4:00:00 AM 14.83 58.694 0.158 7.12 8.01 9.33
5/18/2022 4:15:00 AM 14.72 58.496 0.158 7.12 8.93 9.38
5/18/2022 4:30:00 AM 14.62 58.316 0.158 7.13 11.43 9.39
5/18/2022 4:45:00 AM 14.51 58.118 0.158 7.13 8.52 9.41
5/18/2022 5:00:00 AM 14.4 57.92 0.158 7.13 8.71 9.43
5/18/2022 5:15:00 AM 14.29 57.722 0.158 7.13 11.28 9.48
5/18/2022 5:30:00 AM 14.18 57.524 0.158 7.13 7.88 9.52
5/18/2022 5:45:00 AM 14.08 57.344 0.158 7.14 6.8 9.55
5/18/2022 6:00:00 AM 13.97 57.146 0.158 7.14 11.32 9.58
5/18/2022 6:15:00 AM 13.87 56.966 0.158 7.15 6.24 9.63
5/18/2022 6:30:00 AM 13.77 56.786 0.158 7.15 6.67 9.68
5/18/2022 6:45:00 AM 13.67 56.606 0.158 7.16 8.66 9.74
5/18/2022 7:00:00 AM 13.58 56.444 0.158 7.16 9.26 9.81
5/18/2022 7:15:00 AM 13.49 56.282 0.158 7.18 5.73 9.87
5/18/2022 7:30:00 AM 13.41 56.138 0.158 7.19 8.47 9.94
5/18/2022 7:45:00 AM 13.33 55.994 0.158 7.2 8.79 10
5/18/2022 8:00:00 AM 13.28 55.904 0.158 7.21 11.7 10.07
5/18/2022 8:15:00 AM 13.24 55.832 0.158 7.24 7.03 10.14
5/18/2022 8:30:00 AM 13.22 55.796 0.158 7.24 6.84 10.22
5/18/2022 8:45:00 AM 13.2 55.76 0.158 7.26 9.44 10.3
5/18/2022 9:00:00 AM 13.19 55.742 0.158 7.28 7.05 10.4
5/18/2022 9:15:00 AM 13.2 55.76 0.158 7.31 6.81 10.5
5/18/2022 9:30:00 AM 13.24 55.832 0.158 7.35 7.74 10.62
5/18/2022 9:45:00 AM 13.29 55.922 0.158 7.39 5.14 10.76
5/18/2022 10:00:00 AM 13.39 56.102 0.157 7.44 4.59 10.89
5/18/2022 10:15:00 AM 13.52 56.336 0.157 7.5 8.47 11.04
5/18/2022 10:30:00 AM 13.66 56.588 0.157 7.55 5.54 11.15
5/18/2022 10:45:00 AM 13.83 56.894 0.157 7.62 4.71 11.26
5/18/2022 11:00:00 AM 14.02 57.236 0.157 7.69 4.27 11.34
5/18/2022 11:15:00 AM 14.23 57.614 0.157 7.75 4.51 11.41
5/18/2022 11:30:00 AM 14.43 57.974 0.157 7.82 6.46 11.46
5/18/2022 11:45:00 AM 14.67 58.406 0.157 7.88 8.34 11.5
5/18/2022 12:00:00 PM 14.92 58.856 0.157 7.95 6.06 11.52
5/18/2022 12:15:00 PM 15.19 59.342 0.156 8 4.41 11.53
5/18/2022 12:30:00 PM 15.46 59.828 0.156 8.06 3.85 11.54
5/18/2022 12:45:00 PM 15.72 60.296 0.156 8.11 7.35 11.53
5/18/2022 1:00:00 PM 15.98 60.764 0.156 8.14 4.21 11.51
5/18/2022 1:15:00 PM 16.29 61.322 0.157 8.17 4.83 11.48
5/18/2022 1:30:00 PM 16.6 61.88 0.157 8.2 4.54 11.43
5/18/2022 1:45:00 PM 16.88 62.384 0.157 8.23 4.55 11.41
5/18/2022 2:00:00 PM 17.11 62.798 0.157 8.24 6.08 11.37
5/18/2022 2:15:00 PM 17.35 63.23 0.157 8.26 8.63 11.29
5/18/2022 2:30:00 PM 17.57 63.626 0.157 8.28 27.5 11.22
5/18/2022 2:45:00 PM 17.76 63.968 0.157 8.29 4.9 11.25
5/18/2022 3:00:00 PM 17.88 64.184 0.157 8.31 5.24 11.21
5/18/2022 3:15:00 PM 17.99 64.382 0.157 8.32 4.42 11.15
5/18/2022 3:30:00 PM 18.04 64.472 0.157 8.33 4.52 11.09
5/18/2022 3:45:00 PM 18.08 64.544 0.157 8.31 7.25 11.02
5/18/2022 4:00:00 PM 18.04 64.472 0.157 8.32 5.64 10.99
5/18/2022 4:15:00 PM 17.91 64.238 0.157 8.3 3.91 10.87
5/18/2022 4:30:00 PM 17.78 64.004 0.157 8.24 8.47 10.71
5/18/2022 4:45:00 PM 17.7 63.86 0.157 8.17 3.23 10.59
5/18/2022 5:00:00 PM 17.6 63.68 0.157 8.08 4.55 10.43
5/18/2022 5:15:00 PM 17.51 63.518 0.157 7.98 4.55 10.29
5/18/2022 5:30:00 PM 17.43 63.374 0.157 7.89 4.36 10.17
5/18/2022 5:45:00 PM 17.35 63.23 0.158 7.79 4.12 10.04
5/18/2022 6:00:00 PM 17.26 63.068 0.158 7.7 4.3 9.93
5/18/2022 6:15:00 PM 17.2 62.96 0.158 7.65 5.16 9.88
5/18/2022 6:30:00 PM 17.14 62.852 0.158 7.61 7.66 9.84
5/18/2022 6:45:00 PM 17.11 62.798 0.158 7.55 6.51 9.73
5/18/2022 7:00:00 PM 17.09 62.762 0.158 7.51 5.34 9.65
5/18/2022 7:15:00 PM 17.07 62.726 0.158 7.48 6.22 9.6
5/18/2022 7:30:00 PM 17.03 62.654 0.158 7.46 5.21 9.59
5/18/2022 7:45:00 PM 16.97 62.546 0.158 7.44 6.21 9.53
5/18/2022 8:00:00 PM 16.91 62.438 0.158 7.38 3.61 9.42
5/18/2022 8:15:00 PM 16.84 62.312 0.158 7.34 4.47 9.34
5/18/2022 8:30:00 PM 16.76 62.168 0.158 7.31 3.77 9.26
5/18/2022 8:45:00 PM 16.69 62.042 0.158 7.28 4.66 9.21
5/18/2022 9:00:00 PM 16.63 61.934 0.158 7.25 5.22 9.15
5/18/2022 9:15:00 PM 16.57 61.826 0.158 7.23 7.24 9.1
5/18/2022 9:30:00 PM 16.53 61.754 0.158 7.22 5.26 9.06
5/18/2022 9:45:00 PM 16.48 61.664 0.158 7.21 4.26 9.06
5/18/2022 10:00:00 PM 16.44 61.592 0.158 7.19 5.71 9.04
5/18/2022 10:15:00 PM 16.41 61.538 0.158 7.18 7.43 9.02
5/18/2022 10:30:00 PM 16.38 61.484 0.158 7.18 4.55 9.01
5/18/2022 10:45:00 PM 16.35 61.43 0.158 7.17 6.97 9
5/18/2022 11:00:00 PM 16.33 61.394 0.158 7.16 6.54 8.98
5/18/2022 11:15:00 PM 16.3 61.34 0.158 7.16 7.97 8.97
5/18/2022 11:30:00 PM 16.27 61.286 0.158 7.15 6.92 8.96
5/18/2022 11:45:00 PM 16.24 61.232 0.158 7.15 7.39 8.98
5/19/2022 12:00:00 AM 16.21 61.178 0.158 7.14 8.04 8.98
5/19/2022 12:15:00 AM 16.17 61.106 0.158 7.14 8.19 8.97
5/19/2022 12:30:00 AM 16.13 61.034 0.158 7.14 9.74 8.98
5/19/2022 12:45:00 AM 16.09 60.962 0.158 7.14 5.96 8.99
5/19/2022 1:00:00 AM 16.04 60.872 0.158 7.14 7.06 9
5/19/2022 1:15:00 AM 15.99 60.782 0.157 7.13 5.87 9.02
5/19/2022 1:30:00 AM 15.94 60.692 0.157 7.14 6.18 9.01
5/19/2022 1:45:00 AM 15.88 60.584 0.156 7.13 10.18 9.03
5/19/2022 2:00:00 AM 15.82 60.476 0.156 7.13 6.34 9.05
5/19/2022 2:15:00 AM 15.77 60.386 0.155 7.12 6.81 9.08
5/19/2022 2:30:00 AM 15.72 60.296 0.155 7.14 12.39 9.08
5/19/2022 2:45:00 AM 15.67 60.206 0.155 7.13 10.14 9.1
5/19/2022 3:00:00 AM 15.61 60.098 0.154 7.12 13.1 9.1
5/19/2022 3:15:00 AM 15.56 60.008 0.154 7.12 9.91 9.11
5/19/2022 3:30:00 AM 15.5 59.9 0.154 7.11 12.75 9.12
5/19/2022 3:45:00 AM 15.45 59.81 0.154 7.13 10.26 9.14
5/19/2022 4:00:00 AM 15.39 59.702 0.153 7.11 9.56 9.13
5/19/2022 4:15:00 AM 15.33 59.594 0.153 7.11 13.79 9.17
5/19/2022 4:30:00 AM 15.27 59.486 0.153 7.12 13.49 9.19
5/19/2022 4:45:00 AM 15.2 59.36 0.152 7.11 16.28 9.22
5/19/2022 5:00:00 AM 15.12 59.216 0.152 7.12 17.06 9.22
5/19/2022 5:15:00 AM 15.05 59.09 0.152 7.12 20.67 9.25
5/19/2022 5:30:00 AM 14.98 58.964 0.151 7.13 21.2 9.29
5/19/2022 5:45:00 AM 14.92 58.856 0.151 7.13 22.64 9.3
5/19/2022 6:00:00 AM 14.85 58.73 0.151 7.12 20.11 9.31
5/19/2022 6:15:00 AM 14.79 58.622 0.151 7.13 23.95 9.36
5/19/2022 6:30:00 AM 14.72 58.496 0.151 7.14 31.84 9.39
5/19/2022 6:45:00 AM 14.66 58.388 0.151 7.14 29.28 9.43
5/19/2022 7:00:00 AM 14.6 58.28 0.151 7.16 39.77 9.46
5/19/2022 7:15:00 AM 14.53 58.154 0.151 7.17 42.75 9.5
5/19/2022 7:30:00 AM 14.47 58.046 0.151 7.17 53.07 9.53
5/19/2022 7:45:00 AM 14.41 57.938 0.151 7.18 45.56 9.58
5/19/2022 8:00:00 AM 14.37 57.866 0.15 7.19 43.39 9.63
5/19/2022 8:15:00 AM 14.35 57.83 0.15 7.19 50.18 9.64
5/19/2022 8:30:00 AM 14.32 57.776 0.15 7.2 49.43 9.69
5/19/2022 8:45:00 AM 14.3 57.74 0.15 7.2 58.25 9.69
5/19/2022 9:00:00 AM 14.3 57.74 0.151 7.22 54.83 9.72
5/19/2022 9:15:00 AM 14.3 57.74 0.151 7.22 52.89 9.72
5/19/2022 9:30:00 AM 14.31 57.758 0.151 7.23 61.89 9.75
5/19/2022 9:45:00 AM 14.34 57.812 0.152 7.24 59.55 9.77
5/19/2022 10:00:00 AM 14.38 57.884 0.152 7.25 50.56 9.79
5/19/2022 10:15:00 AM 14.45 58.01 0.152 7.25 56.48 9.83
5/19/2022 10:30:00 AM 14.54 58.172 0.153 7.27 85.62 9.87
5/19/2022 10:45:00 AM 14.6 58.28 0.153 7.28 61.89 9.87
5/19/2022 11:00:00 AM 14.72 58.496 0.153 7.29 60 9.92
5/19/2022 11:15:00 AM 14.85 58.73 0.154 7.31 48.93 9.98
5/19/2022 11:30:00 AM 14.98 58.964 0.154 7.32 40.46 10.03
5/19/2022 11:45:00 AM 15.09 59.162 0.154 7.34 36.92 10.05
5/19/2022 12:00:00 PM 15.23 59.414 0.154 7.37 29.56 10.09
5/19/2022 12:15:00 PM 15.44 59.792 0.153 7.39 35.44 10.16
5/19/2022 12:30:00 PM 15.7 60.26 0.152 7.42 39.72 10.24
5/19/2022 12:45:00 PM 15.99 60.782 0.151 7.45 29.42 10.3
5/19/2022 1:00:00 PM 16.25 61.25 0.15 7.48 46.48 10.32
5/19/2022 1:15:00 PM 16.43 61.574 0.149 7.5 33.22 10.34
5/19/2022 1:30:00 PM 16.72 62.096 0.148 7.53 29.75 10.36
5/19/2022 1:45:00 PM 17.1 62.78 0.147 7.58 35.18 10.44
5/19/2022 2:00:00 PM 17.38 63.284 0.147 7.61 20.05 10.46
5/19/2022 2:15:00 PM 17.55 63.59 0.147 7.66 29.53 10.46
5/19/2022 2:30:00 PM 17.75 63.95 0.147 7.66 25.7 10.42
5/19/2022 2:45:00 PM 17.97 64.346 0.146 7.7 25.73 10.46
5/19/2022 3:00:00 PM 18.14 64.652 0.146 7.72 26.92 10.44
5/19/2022 3:15:00 PM 18.23 64.814 0.147 7.74 23.67 10.42
5/19/2022 3:30:00 PM 18.39 65.102 0.147 7.77 20.14 10.4
5/19/2022 3:45:00 PM 18.38 65.084 0.147 7.76 16.12 10.34
5/19/2022 4:00:00 PM 18.44 65.192 0.147 7.74 18.22 10.22
5/19/2022 4:15:00 PM 18.58 65.444 0.147 7.75 10.84 10.19
5/19/2022 4:30:00 PM 18.58 65.444 0.147 7.74 17.44 10.15
5/19/2022 4:45:00 PM 18.53 65.354 0.148 7.7 17.1 9.96
5/19/2022 5:00:00 PM 18.56 65.408 0.148 7.65 13.33 9.84
5/19/2022 5:15:00 PM 18.63 65.534 0.148 7.64 12.94 9.84
5/19/2022 5:30:00 PM 18.65 65.57 0.148 7.64 10.93 9.79
5/19/2022 5:45:00 PM 18.65 65.57 0.149 7.62 11.61 9.71
5/19/2022 6:00:00 PM 18.64 65.552 0.149 7.59 14.07 9.62
5/19/2022 6:15:00 PM 18.57 65.426 0.149 7.57 9.81 9.5
5/19/2022 6:30:00 PM 18.49 65.282 0.15 7.53 8.97 9.38
5/19/2022 6:45:00 PM 18.45 65.21 0.15 7.49 9.68 9.3
5/19/2022 7:00:00 PM 18.43 65.174 0.15 7.45 11.5 9.2
5/19/2022 7:15:00 PM 18.4 65.12 0.15 7.42 10.42 9.14
5/19/2022 7:30:00 PM 18.34 65.012 0.15 7.39 10.63 9.05
5/19/2022 7:45:00 PM 18.28 64.904 0.151 7.36 8.3 8.99
5/19/2022 8:00:00 PM 18.21 64.778 0.151 7.34 13.51 8.92
5/19/2022 8:15:00 PM 18.15 64.67 0.151 7.32 12.98 8.85
5/19/2022 8:30:00 PM 18.09 64.562 0.151 7.29 13.27 8.81
5/19/2022 8:45:00 PM 18.03 64.454 0.152 7.28 15.64 8.73
5/19/2022 9:00:00 PM 17.98 64.364 0.152 7.25 7.31 8.73
5/19/2022 9:15:00 PM 17.92 64.256 0.152 7.24 7.87 8.69
5/19/2022 9:30:00 PM 17.87 64.166 0.152 7.24 8.55 8.66
5/19/2022 9:45:00 PM 17.82 64.076 0.152 7.22 9.57 8.65
5/19/2022 10:00:00 PM 17.76 63.968 0.153 7.21 10.63 8.65
5/19/2022 10:15:00 PM 17.7 63.86 0.153 7.2 6.67 8.64
5/19/2022 10:30:00 PM 17.64 63.752 0.153 7.2 10.02 8.64
5/19/2022 10:45:00 PM 17.58 63.644 0.153 7.2 12.65 8.65
5/19/2022 11:00:00 PM 17.52 63.536 0.154 7.19 7.16 8.64
5/19/2022 11:15:00 PM 17.45 63.41 0.154 7.18 7.87 8.64
5/19/2022 11:30:00 PM 17.38 63.284 0.154 7.18 8.93 8.66
5/19/2022 11:45:00 PM 17.32 63.176 0.154 7.18 7.05 8.67
5/20/2022 12:00:00 AM 17.26 63.068 0.154 7.17 7.12 8.7
5/20/2022 12:15:00 AM 17.19 62.942 0.155 7.17 9.67 8.71
5/20/2022 12:30:00 AM 17.12 62.816 0.155 7.16 8.09 8.71
5/20/2022 12:45:00 AM 17.06 62.708 0.155 7.16 8.87 8.74
5/20/2022 1:00:00 AM 16.99 62.582 0.155 7.16 6.81 8.75
5/20/2022 1:15:00 AM 16.92 62.456 0.155 7.16 9.52 8.77
5/20/2022 1:30:00 AM 16.85 62.33 0.155 7.16 7.27 8.79
5/20/2022 1:45:00 AM 16.78 62.204 0.155 7.17 6.89 8.81
5/20/2022 2:00:00 AM 16.71 62.078 0.156 7.16 9.47 8.82
5/20/2022 2:15:00 AM 16.63 61.934 0.156 7.16 7.68 8.85
5/20/2022 2:30:00 AM 16.55 61.79 0.156 7.16 8.57 8.87
5/20/2022 2:45:00 AM 16.48 61.664 0.156 7.16 7.38 8.87
5/20/2022 3:00:00 AM 16.39 61.502 0.156 7.15 10.22 8.92
5/20/2022 3:15:00 AM 16.31 61.358 0.157 7.16 9.49 8.93
5/20/2022 3:30:00 AM 16.23 61.214 0.157 7.16 9.47 8.97
5/20/2022 3:45:00 AM 16.15 61.07 0.157 7.16 7.88 8.98
5/20/2022 4:00:00 AM 16.07 60.926 0.157 7.16 11.63 9.01
5/20/2022 4:15:00 AM 15.98 60.764 0.157 7.15 8.46 9.02
5/20/2022 4:30:00 AM 15.9 60.62 0.157 7.15 9.99 9.05
5/20/2022 4:45:00 AM 15.82 60.476 0.157 7.15 8.75 9.07
5/20/2022 5:00:00 AM 15.74 60.332 0.157 7.16 11.14 9.09
5/20/2022 5:15:00 AM 15.66 60.188 0.158 7.15 8.94 9.1
5/20/2022 5:30:00 AM 15.58 60.044 0.158 7.16 7.16 9.15
5/20/2022 5:45:00 AM 15.5 59.9 0.158 7.15 6.42 9.16
5/20/2022 6:00:00 AM 15.42 59.756 0.158 7.16 8.35 9.16
5/20/2022 6:15:00 AM 15.35 59.63 0.158 7.15 8.43 9.22
5/20/2022 6:30:00 AM 15.28 59.504 0.158 7.15 7.78 9.26
5/20/2022 6:45:00 AM 15.22 59.396 0.158 7.16 10.91 9.31
5/20/2022 7:00:00 AM 15.16 59.288 0.158 7.16 6.77 9.35
5/20/2022 7:15:00 AM 15.11 59.198 0.159 7.17 7.62 9.42
5/20/2022 7:30:00 AM 15.07 59.126 0.158 7.18 5.92 9.46
5/20/2022 7:45:00 AM 15.04 59.072 0.158 7.19 8.19 9.57
5/20/2022 8:00:00 AM 15 59 0.158 7.2 6.73 9.62
5/20/2022 8:15:00 AM 14.97 58.946 0.158 7.21 5.07 9.65
5/20/2022 8:30:00 AM 14.95 58.91 0.158 7.22 5.66 9.69
5/20/2022 8:45:00 AM 14.94 58.892 0.158 7.24 7.5 9.77
5/20/2022 9:00:00 AM 14.96 58.928 0.158 7.26 6.88 9.92
5/20/2022 9:15:00 AM 14.97 58.946 0.158 7.28 6.23 10.03
5/20/2022 9:30:00 AM 15.01 59.018 0.158 7.31 6.7 10.14
5/20/2022 9:45:00 AM 15.06 59.108 0.158 7.34 5.67 10.25
5/20/2022 10:00:00 AM 15.11 59.198 0.158 7.37 5.45 10.33
5/20/2022 10:15:00 AM 15.21 59.378 0.158 7.41 5.55 10.46
5/20/2022 10:30:00 AM 15.36 59.648 0.158 7.45 5.31 10.58
5/20/2022 10:45:00 AM 15.52 59.936 0.158 7.5 5.62 10.65
5/20/2022 11:00:00 AM 15.71 60.278 0.158 7.55 5.92 10.74
5/20/2022 11:15:00 AM 15.87 60.566 0.158 7.58 5.08 10.82
5/20/2022 11:30:00 AM 16.04 60.872 0.158 7.63 5.37 10.81
5/20/2022 11:45:00 AM 16.25 61.25 0.158 7.68 6 10.88
5/20/2022 12:00:00 PM 16.5 61.7 0.158 7.72 4.7 10.88
5/20/2022 12:15:00 PM 16.76 62.168 0.158 7.75 4.97 10.89
5/20/2022 12:30:00 PM 17.04 62.672 0.158 7.79 4.99 10.87
5/20/2022 12:45:00 PM 17.36 63.248 0.158 7.83 5.76 10.89
5/20/2022 1:00:00 PM 17.61 63.698 0.158 7.88 4.59 10.88
5/20/2022 1:15:00 PM 17.69 63.842 0.158 7.91 5.87 10.81
5/20/2022 1:30:00 PM 17.75 63.95 0.158 7.9 27.7 10.59
5/20/2022 1:45:00 PM 17.81 64.058 0.158 7.86 6.71 10.57
5/20/2022 2:00:00 PM 17.96 64.328 0.158 7.85 6.53 10.49
5/20/2022 2:15:00 PM 18.27 64.886 0.158 7.9 5.44 10.55
5/20/2022 2:30:00 PM 18.49 65.282 0.158 7.94 11.4 10.61
5/20/2022 2:45:00 PM 18.46 65.228 0.158 7.94 4.61 10.57
5/20/2022 3:00:00 PM 18.36 65.048 0.158 7.91 5.72 10.39
5/20/2022 3:15:00 PM 18.36 65.048 0.158 7.89 5.78 10.34
5/20/2022 3:30:00 PM 18.42 65.156 0.158 7.92 5.17 10.38
5/20/2022 3:45:00 PM 18.48 65.264 0.158 7.93 5.34 10.39
5/20/2022 4:00:00 PM 18.53 65.354 0.158 7.94 5.42 10.37
5/20/2022 4:15:00 PM 18.55 65.39 0.158 7.94 5.37 10.33
5/20/2022 4:30:00 PM 18.49 65.282 0.158 7.93 4.52 10.24
5/20/2022 4:45:00 PM 18.48 65.264 0.158 7.87 8.19 10.14
5/20/2022 5:00:00 PM 18.46 65.228 0.158 7.83 5.36 10.06
5/20/2022 5:15:00 PM 18.49 65.282 0.158 7.81 5.7 10
5/20/2022 5:30:00 PM 18.55 65.39 0.158 7.8 4.48 10.01
5/20/2022 5:45:00 PM 18.55 65.39 0.158 7.78 5.12 9.95
5/20/2022 6:00:00 PM 18.55 65.39 0.158 7.76 5.17 9.87
5/20/2022 6:15:00 PM 18.53 65.354 0.158 7.7 6.33 9.78
5/20/2022 6:30:00 PM 18.53 65.354 0.158 7.67 8.4 9.69
5/20/2022 6:45:00 PM 18.53 65.354 0.158 7.63 5.91 9.62
5/20/2022 7:00:00 PM 18.54 65.372 0.158 7.58 6.07 9.52
5/20/2022 7:15:00 PM 18.53 65.354 0.158 7.53 5 9.41
5/20/2022 7:30:00 PM 18.5 65.3 0.158 7.49 5.58 9.31
5/20/2022 7:45:00 PM 18.47 65.246 0.159 7.44 6.75 9.23
5/20/2022 8:00:00 PM 18.43 65.174 0.159 7.39 5.4 9.15
5/20/2022 8:15:00 PM 18.38 65.084 0.159 7.35 8.53 9.05
5/20/2022 8:30:00 PM 18.33 64.994 0.159 7.31 5.31 8.93
5/20/2022 8:45:00 PM 18.3 64.94 0.159 7.27 7.65 8.88
5/20/2022 9:00:00 PM 18.25 64.85 0.159 7.25 7.6 8.81
5/20/2022 9:15:00 PM 18.21 64.778 0.159 7.23 6.96 8.74
5/20/2022 9:30:00 PM 18.17 64.706 0.159 7.2 7.22 8.71
5/20/2022 9:45:00 PM 18.13 64.634 0.159 7.18 6.37 8.69
5/20/2022 10:00:00 PM 18.1 64.58 0.159 7.16 4.77 8.65
5/20/2022 10:15:00 PM 18.07 64.526 0.159 7.14 5.32 8.62
5/20/2022 10:30:00 PM 18.04 64.472 0.159 7.13 5.06 8.6
5/20/2022 10:45:00 PM 18.01 64.418 0.159 7.11 6.91 8.6
5/20/2022 11:00:00 PM 17.98 64.364 0.159 7.11 7.28 8.59
5/20/2022 11:15:00 PM 17.95 64.31 0.159 7.09 7.49 8.59
5/20/2022 11:30:00 PM 17.92 64.256 0.159 7.08 5.51 8.59
5/20/2022 11:45:00 PM 17.89 64.202 0.159 7.08 5.97 8.59
5/21/2022 12:00:00 AM 17.85 64.13 0.159 7.07 6.91 8.58
5/21/2022 12:15:00 AM 17.82 64.076 0.159 7.04 8.04 8.59
5/21/2022 12:30:00 AM 17.79 64.022 0.16 7.04 6.05 8.58
5/21/2022 12:45:00 AM 17.76 63.968 0.16 7.04 6.79 8.6
5/21/2022 1:00:00 AM 17.72 63.896 0.16 7.03 7.14 8.59
5/21/2022 1:15:00 AM 17.68 63.824 0.16 7.02 7.77 8.61
5/21/2022 1:30:00 AM 17.65 63.77 0.16 7.02 7.44 8.62
5/21/2022 1:45:00 AM 17.61 63.698 0.16 7.02 9.15 8.63
5/21/2022 2:00:00 AM 17.57 63.626 0.16 7.01 7.63 8.64
5/21/2022 2:15:00 AM 17.53 63.554 0.16 7 6.94 8.65
5/21/2022 2:30:00 AM 17.48 63.464 0.16 7.01 6.96 8.65
5/21/2022 2:45:00 AM 17.44 63.392 0.16 7.01 5.3 8.67
5/21/2022 3:00:00 AM 17.4 63.32 0.16 7 8.8 8.69
5/21/2022 3:15:00 AM 17.36 63.248 0.16 6.99 9.55 8.7
5/21/2022 3:30:00 AM 17.31 63.158 0.16 7 5.94 8.72
5/21/2022 3:45:00 AM 17.27 63.086 0.16 7 6.48 8.73
5/21/2022 4:00:00 AM 17.22 62.996 0.161 6.99 7.42 8.73
5/21/2022 4:15:00 AM 17.17 62.906 0.161 6.99 9.05 8.75
5/21/2022 4:30:00 AM 17.12 62.816 0.161 7 4.35 8.75
5/21/2022 4:45:00 AM 17.06 62.708 0.161 6.99 8.69 8.77
5/21/2022 5:00:00 AM 17.01 62.618 0.161 6.99 9.23 8.8
5/21/2022 5:15:00 AM 16.95 62.51 0.161 7 6.04 8.81
5/21/2022 5:30:00 AM 16.9 62.42 0.161 6.99 7.96 8.84
5/21/2022 5:45:00 AM 16.84 62.312 0.161 6.99 6.72 8.84
5/21/2022 6:00:00 AM 16.8 62.24 0.161 7 8.76 8.85
5/21/2022 6:15:00 AM 16.75 62.15 0.161 7.01 7.35 8.89
5/21/2022 6:30:00 AM 16.69 62.042 0.162 7.01 7.52 8.92
5/21/2022 6:45:00 AM 16.64 61.952 0.162 7.02 8.42 8.98
5/21/2022 7:00:00 AM 16.59 61.862 0.162 7.03 7.3 9.02
5/21/2022 7:15:00 AM 16.55 61.79 0.162 7.03 5.54 9.07
5/21/2022 7:30:00 AM 16.51 61.718 0.162 7.04 7.02 9.13
5/21/2022 7:45:00 AM 16.47 61.646 0.162 7.05 6.31 9.19
5/21/2022 8:00:00 AM 16.44 61.592 0.162 7.06 6.37 9.26
5/21/2022 8:15:00 AM 16.42 61.556 0.163 7.07 5.36 9.32
5/21/2022 8:30:00 AM 16.41 61.538 0.163 7.09 7.23 9.41
5/21/2022 8:45:00 AM 16.42 61.556 0.163 7.09 6.49 9.48
5/21/2022 9:00:00 AM 16.43 61.574 0.163 7.12 5.43 9.54
5/21/2022 9:15:00 AM 16.46 61.628 0.163 7.14 7 9.61
5/21/2022 9:30:00 AM 16.51 61.718 0.162 7.17 11.2 9.72
5/21/2022 9:45:00 AM 16.59 61.862 0.162 7.2 8.06 9.8
5/21/2022 10:00:00 AM 16.7 62.06 0.162 7.23 6.09 9.9
5/21/2022 10:15:00 AM 16.84 62.312 0.162 7.27 5.86 10
5/21/2022 10:30:00 AM 17.01 62.618 0.162 7.32 5.5 10.12
5/21/2022 10:45:00 AM 17.2 62.96 0.161 7.37 6.94 10.21
5/21/2022 11:00:00 AM 17.42 63.356 0.161 7.42 4.74 10.29
5/21/2022 11:15:00 AM 17.66 63.788 0.161 7.45 6.6 10.33
5/21/2022 11:30:00 AM 17.94 64.292 0.161 7.51 4.91 10.39
5/21/2022 11:45:00 AM 18.23 64.814 0.161 7.55 5.41 10.44
5/21/2022 12:00:00 PM 18.55 65.39 0.161 7.6 5.74 10.47
5/21/2022 12:15:00 PM 18.88 65.984 0.161 7.65 4.75 10.49
5/21/2022 12:30:00 PM 19.2 66.56 0.161 7.71 6.45 10.5
5/21/2022 12:45:00 PM 19.52 67.136 0.161 7.76 5.39 10.51
5/21/2022 1:00:00 PM 19.82 67.676 0.16 7.79 4.89 10.5
5/21/2022 1:15:00 PM 20.14 68.252 0.16 7.83 5.68 10.48
5/21/2022 1:30:00 PM 20.47 68.846 0.16 7.88 5.35 10.46
5/21/2022 1:45:00 PM 20.75 69.35 0.16 7.9 5.19 10.42
5/21/2022 2:00:00 PM 21 69.8 0.16 7.93 5.64 10.41
5/21/2022 2:15:00 PM 21.24 70.232 0.16 7.96 3.74 10.39
5/21/2022 2:30:00 PM 21.42 70.556 0.16 7.98 7.6 10.34
5/21/2022 2:45:00 PM 21.63 70.934 0.16 8 6.2 10.28
5/21/2022 3:00:00 PM 21.64 70.952 0.16 8 5.75 10.23
5/21/2022 3:15:00 PM 21.67 71.006 0.16 8 9.26 10.12
5/21/2022 3:30:00 PM 21.79 71.222 0.16 7.99 6.39 10.06
5/21/2022 3:45:00 PM 21.93 71.474 0.16 7.99 4.43 10.02
5/21/2022 4:00:00 PM 21.96 71.528 0.16 7.99 5.92 9.98
5/21/2022 4:15:00 PM 21.85 71.33 0.161 7.97 8.07 9.82
5/21/2022 4:30:00 PM 21.9 71.42 0.161 7.96 6.79 9.75
5/21/2022 4:45:00 PM 21.92 71.456 0.161 7.94 5.98 9.73
5/21/2022 5:00:00 PM 21.88 71.384 0.161 7.9 4.75 9.65
5/21/2022 5:15:00 PM 21.83 71.294 0.161 7.86 5.41 9.53
5/21/2022 5:30:00 PM 21.84 71.312 0.161 7.82 7.71 9.44
5/21/2022 5:45:00 PM 21.8 71.24 0.161 7.77 5.21 9.38
5/21/2022 6:00:00 PM 21.71 71.078 0.161 7.73 6.08 9.28
5/21/2022 6:15:00 PM 21.61 70.898 0.161 7.67 4.84 9.13
5/21/2022 6:30:00 PM 21.52 70.736 0.161 7.61 5.4 9.03
5/21/2022 6:45:00 PM 21.45 70.61 0.161 7.56 5.55 8.91
5/21/2022 7:00:00 PM 21.38 70.484 0.161 7.51 6.02 8.83
5/21/2022 7:15:00 PM 21.32 70.376 0.161 7.47 5.83 8.71
5/21/2022 7:30:00 PM 21.27 70.286 0.161 7.43 5.84 8.61
5/21/2022 7:45:00 PM 21.23 70.214 0.161 7.38 6.09 8.52
5/21/2022 8:00:00 PM 21.18 70.124 0.161 7.34 5.73 8.44
5/21/2022 8:15:00 PM 21.14 70.052 0.161 7.3 7.57 8.36
5/21/2022 8:30:00 PM 21.09 69.962 0.161 7.27 5.37 8.28
5/21/2022 8:45:00 PM 21.04 69.872 0.162 7.25 6.62 8.21
5/21/2022 9:00:00 PM 20.99 69.782 0.162 7.22 9.44 8.14
5/21/2022 9:15:00 PM 20.93 69.674 0.162 7.2 10.99 8.11
5/21/2022 9:30:00 PM 20.87 69.566 0.162 7.17 8.44 8.07
5/21/2022 9:45:00 PM 20.81 69.458 0.162 7.16 10.49 8.04
5/21/2022 10:00:00 PM 20.74 69.332 0.162 7.14 8.28 8.04
5/21/2022 10:15:00 PM 20.68 69.224 0.162 7.13 9.21 8.02
5/21/2022 10:30:00 PM 20.62 69.116 0.162 7.13 6.36 8.01
5/21/2022 10:45:00 PM 20.55 68.99 0.162 7.11 9.07 7.99
5/21/2022 11:00:00 PM 20.49 68.882 0.162 7.11 6.49 8.01
5/21/2022 11:15:00 PM 20.43 68.774 0.162 7.11 6.79 8.03
5/21/2022 11:30:00 PM 20.37 68.666 0.162 7.1 6.78 8.02
5/21/2022 11:45:00 PM 20.31 68.558 0.162 7.1 8.19 8.02
5/22/2022 12:00:00 AM 20.25 68.45 0.162 7.09 6.38 8.02
5/22/2022 12:15:00 AM 20.19 68.342 0.162 7.09 8.95 8.05
5/22/2022 12:30:00 AM 20.14 68.252 0.162 7.09 9.65 8.07
5/22/2022 12:45:00 AM 20.08 68.144 0.162 7.09 7.01 8.08
5/22/2022 1:00:00 AM 20.03 68.054 0.162 7.08 8.08 8.09
5/22/2022 1:15:00 AM 19.98 67.964 0.162 7.08 7.03 8.09
5/22/2022 1:30:00 AM 19.93 67.874 0.162 7.08 9.04 8.1
5/22/2022 1:45:00 AM 19.88 67.784 0.162 7.08 8.27 8.13
5/22/2022 2:00:00 AM 19.82 67.676 0.162 7.08 9.25 8.12
5/22/2022 2:15:00 AM 19.77 67.586 0.162 7.09 8.31 8.15
5/22/2022 2:30:00 AM 19.71 67.478 0.162 7.08 6.48 8.17
5/22/2022 2:45:00 AM 19.65 67.37 0.162 7.08 9.13 8.18
5/22/2022 3:00:00 AM 19.59 67.262 0.162 7.07 10.3 8.19
5/22/2022 3:15:00 AM 19.53 67.154 0.162 7.08 8.36 8.21
5/22/2022 3:30:00 AM 19.47 67.046 0.162 7.08 7.53 8.23
5/22/2022 3:45:00 AM 19.41 66.938 0.162 7.08 8.22 8.23
5/22/2022 4:00:00 AM 19.34 66.812 0.162 7.08 6.25 8.25
5/22/2022 4:15:00 AM 19.28 66.704 0.162 7.08 7.84 8.26
5/22/2022 4:30:00 AM 19.22 66.596 0.163 7.07 9.24 8.27
5/22/2022 4:45:00 AM 19.15 66.47 0.162 7.08 8.02 8.3
5/22/2022 5:00:00 AM 19.09 66.362 0.162 7.08 9.04 8.32
5/22/2022 5:15:00 AM 19.03 66.254 0.162 7.08 8.96 8.32
5/22/2022 5:30:00 AM 18.97 66.146 0.163 7.08 9.27 8.36
5/22/2022 5:45:00 AM 18.91 66.038 0.163 7.08 9.81 8.37
5/22/2022 6:00:00 AM 18.84 65.912 0.163 7.07 10.2 8.37
5/22/2022 6:15:00 AM 18.78 65.804 0.163 7.08 8.25 8.39
5/22/2022 6:30:00 AM 18.72 65.696 0.163 7.08 9.06 8.41
5/22/2022 6:45:00 AM 18.67 65.606 0.163 7.08 8.66 8.46
5/22/2022 7:00:00 AM 18.61 65.498 0.163 7.07 7.88 8.5
5/22/2022 7:15:00 AM 18.56 65.408 0.163 7.08 8.56 8.55
5/22/2022 7:30:00 AM 18.52 65.336 0.163 7.09 7.96 8.61
5/22/2022 7:45:00 AM 18.48 65.264 0.163 7.1 9.39 8.68
5/22/2022 8:00:00 AM 18.44 65.192 0.163 7.11 11.16 8.75
5/22/2022 8:15:00 AM 18.4 65.12 0.163 7.12 8 8.82
5/22/2022 8:30:00 AM 18.37 65.066 0.163 7.13 9.16 8.88
5/22/2022 8:45:00 AM 18.34 65.012 0.163 7.14 8.59 8.93
5/22/2022 9:00:00 AM 18.3 64.94 0.163 7.14 13.76 8.96
5/22/2022 9:15:00 AM 18.28 64.904 0.163 7.14 9.73 8.97
5/22/2022 9:30:00 AM 18.3 64.94 0.163 7.17 7.85 9.11
5/22/2022 9:45:00 AM 18.36 65.048 0.163 7.21 8.72 9.26
5/22/2022 10:00:00 AM 18.4 65.12 0.163 7.25 8.71 9.42
5/22/2022 10:15:00 AM 18.46 65.228 0.162 7.29 6.48 9.53
5/22/2022 10:30:00 AM 18.51 65.318 0.162 7.32 7.29 9.59
5/22/2022 10:45:00 AM 18.63 65.534 0.162 7.36 7.51 9.66
5/22/2022 11:00:00 AM 18.78 65.804 0.162 7.4 8.22 9.74
5/22/2022 11:15:00 AM 18.96 66.128 0.162 7.44 4.89 9.83
5/22/2022 11:30:00 AM 19.17 66.506 0.162 7.48 5.04 9.88
5/22/2022 11:45:00 AM 19.39 66.902 0.162 7.52 7.43 9.93
5/22/2022 12:00:00 PM 19.65 67.37 0.162 7.57 5.42 10
5/22/2022 12:15:00 PM 19.93 67.874 0.162 7.62 5.27 10.02
5/22/2022 12:30:00 PM 20.26 68.468 0.162 7.66 5.88 10.06
5/22/2022 12:45:00 PM 20.57 69.026 0.162 7.7 6.46 10.06
5/22/2022 1:00:00 PM 20.92 69.656 0.162 7.75 5.8 10.07
5/22/2022 1:15:00 PM 21.26 70.268 0.162 7.79 5.99 10.07
5/22/2022 1:30:00 PM 21.56 70.808 0.162 7.84 4.93 10.05
5/22/2022 1:45:00 PM 21.8 71.24 0.162 7.86 4.65 10
5/22/2022 2:00:00 PM 21.94 71.492 0.162 7.88 5.31 9.93
5/22/2022 2:15:00 PM 22.04 71.672 0.162 7.88 4.89 9.86
5/22/2022 2:30:00 PM 22.1 71.78 0.162 7.88 6.96 9.77
5/22/2022 2:45:00 PM 22.3 72.14 0.162 7.88 5.47 9.71
5/22/2022 3:00:00 PM 22.36 72.248 0.162 7.88 5.31 9.7
5/22/2022 3:15:00 PM 22.39 72.302 0.163 7.87 5.43 9.58
5/22/2022 3:30:00 PM 22.33 72.194 0.163 7.84 5.85 9.49
5/22/2022 3:45:00 PM 22.44 72.392 0.163 7.82 4.25 9.44
5/22/2022 4:00:00 PM 22.53 72.554 0.163 7.83 4.51 9.46
5/22/2022 4:15:00 PM 22.51 72.518 0.163 7.85 5.19 9.47
5/22/2022 4:30:00 PM 22.46 72.42799 0.163 7.85 6.21 9.45
5/22/2022 4:45:00 PM 22.34 72.212 0.163 7.81 6.25 9.32
5/22/2022 5:00:00 PM 22.23 72.014 0.163 7.71 5.21 9.06
5/22/2022 5:15:00 PM 22.11 71.798 0.163 7.61 6.76 8.8
5/22/2022 5:30:00 PM 21.99 71.582 0.163 7.54 5.33 8.69
5/22/2022 5:45:00 PM 21.98 71.564 0.163 7.53 5.14 8.73
5/22/2022 6:00:00 PM 21.9 71.42 0.163 7.54 5.25 8.79
5/22/2022 6:15:00 PM 21.77 71.186 0.163 7.52 5.96 8.7
5/22/2022 6:30:00 PM 21.69 71.042 0.163 7.46 5.66 8.59
5/22/2022 6:45:00 PM 21.6 70.88 0.163 7.43 7.86 8.55
5/22/2022 7:00:00 PM 21.48 70.664 0.163 7.42 5.09 8.54
5/22/2022 7:15:00 PM 21.38 70.484 0.162 7.37 5.94 8.41
5/22/2022 7:30:00 PM 21.27 70.286 0.154 7.33 30.54 8.34
5/22/2022 7:45:00 PM 21.07 69.926 0.144 7.28 26.5 8.3
5/22/2022 8:00:00 PM 20.97 69.746 0.138 7.23 19.39 8.27
5/22/2022 8:15:00 PM 20.85 69.53 0.138 7.17 32.15 8.24
5/22/2022 8:30:00 PM 20.75 69.35 0.139 7.12 83.47 8.15
5/22/2022 8:45:00 PM 20.61 69.098 0.14 7.14 120.9 8.12
5/22/2022 9:00:00 PM 20.49 68.882 0.136 7.11 181.8 8.18
5/22/2022 9:15:00 PM 20.14 68.252 0.137 6.84 4392 8.05
5/22/2022 9:30:00 PM 20.04 68.07201 0.145 6.69 4580 7.9
5/22/2022 9:45:00 PM 20.12 68.216 0.139 7.03 3000 8.05
5/22/2022 10:00:00 PM 20.12 68.216 0.139 7.07 1865 8.03
5/22/2022 10:15:00 PM 20.03 68.054 0.135 7.1 1731 8
5/22/2022 10:30:00 PM 19.85 67.73 0.127 7.1 2273 8.05
5/22/2022 10:45:00 PM 19.82 67.676 0.123 7.06 2401 8.14
5/22/2022 11:00:00 PM 19.83 67.694 0.122 7.02 2293 8.21
5/22/2022 11:15:00 PM 19.8 67.64 0.118 7.02 1646 8.31
5/22/2022 11:30:00 PM 19.73 67.514 0.118 7.06 1090 8.37
5/22/2022 11:45:00 PM 19.64 67.352 0.122 7.09 885.6 8.39
5/23/2022 12:00:00 AM 19.56 67.208 0.128 7.12 813.1 8.41
5/23/2022 12:15:00 AM 19.49 67.082 0.132 7.15 722.5 8.42
5/23/2022 12:30:00 AM 19.45 67.01 0.132 7.16 677.9 8.41
5/23/2022 12:45:00 AM 19.39 66.902 0.132 7.15 644.7 8.4
5/23/2022 1:00:00 AM 19.3 66.74 0.134 7.15 619.2 8.37
5/23/2022 1:15:00 AM 19.21 66.578 0.135 7.17 661.5 8.37
5/23/2022 1:30:00 AM 19.11 66.398 0.134 7.16 663.2 8.35
5/23/2022 1:45:00 AM 19.02 66.236 0.133 7.15 682.8 8.38
5/23/2022 2:00:00 AM 18.92 66.056 0.132 7.12 631.2 8.39
5/23/2022 2:15:00 AM 18.83 65.894 0.132 7.11 648.9 8.42
5/23/2022 2:30:00 AM 18.75 65.75 0.133 7.1 607 8.45
5/23/2022 2:45:00 AM 18.68 65.624 0.134 7.09 561.1 8.46
5/23/2022 3:00:00 AM 18.61 65.498 0.134 7.09 543.2 8.46
5/23/2022 3:15:00 AM 18.53 65.354 0.136 7.1 475.1 8.48
5/23/2022 3:30:00 AM 18.46 65.228 0.136 7.08 481.4 8.52
5/23/2022 3:45:00 AM 18.39 65.102 0.136 7.09 468.8 8.51
5/23/2022 4:00:00 AM 18.32 64.976 0.136 7.08 417 8.55
5/23/2022 4:15:00 AM 18.24 64.832 0.135 7.08 400 8.57
5/23/2022 4:30:00 AM 18.15 64.67 0.135 7.08 420.3 8.59
5/23/2022 4:45:00 AM 18.07 64.526 0.135 7.09 414.2 8.62
5/23/2022 5:00:00 AM 17.99 64.382 0.135 7.1 364.3 8.64
5/23/2022 5:15:00 AM 17.89 64.202 0.135 7.1 329.6 8.66
5/23/2022 5:30:00 AM 17.8 64.04 0.135 7.09 341.9 8.69
5/23/2022 5:45:00 AM 17.71 63.878 0.136 7.1 300.7 8.72
5/23/2022 6:00:00 AM 17.61 63.698 0.136 7.1 248.3 8.75
5/23/2022 6:15:00 AM 17.51 63.518 0.136 7.11 233.2 8.78
5/23/2022 6:30:00 AM 17.41 63.338 0.137 7.11 208.9 8.81
5/23/2022 6:45:00 AM 17.32 63.176 0.137 7.11 191.9 8.84
5/23/2022 7:00:00 AM 17.23 63.014 0.138 7.11 207.6 8.86
5/23/2022 7:15:00 AM 17.15 62.87 0.138 7.11 154.7 8.9
5/23/2022 7:30:00 AM 17.07 62.726 0.139 7.12 105.2 8.94
5/23/2022 7:45:00 AM 16.99 62.582 0.139 7.12 124.5 8.96
5/23/2022 8:00:00 AM 16.92 62.456 0.139 7.13 122.6 8.98
5/23/2022 8:15:00 AM 16.84 62.312 0.14 7.13 109.1 9.01
5/23/2022 8:30:00 AM 16.78 62.204 0.14 7.13 103.4 9.06
5/23/2022 8:45:00 AM 16.72 62.096 0.14 7.14 100.8 9.08
5/23/2022 9:00:00 AM 16.68 62.024 0.14 7.14 79.18 9.1
5/23/2022 9:15:00 AM 16.65 61.97 0.141 7.14 76.36 9.14
5/23/2022 9:30:00 AM 16.64 61.952 0.141 7.16 84.72 9.18
5/23/2022 9:45:00 AM 16.65 61.97 0.142 7.16 74.52 9.21
5/23/2022 10:00:00 AM 16.67 62.006 0.142 7.15 65.15 9.24
5/23/2022 10:15:00 AM 16.72 62.096 0.142 7.16 78.21 9.28
5/23/2022 10:30:00 AM 16.78 62.204 0.142 7.15 57.13 9.31
5/23/2022 10:45:00 AM 16.87 62.366 0.143 7.16 69.08 9.35
5/23/2022 11:00:00 AM 16.97 62.546 0.143 7.17 64.63 9.38
5/23/2022 11:15:00 AM 17.1 62.78 0.143 7.18 57.2 9.39
5/23/2022 11:30:00 AM 17.23 63.014 0.143 7.19 51.9 9.43
5/23/2022 11:45:00 AM 17.38 63.284 0.143 7.19 54.57 9.44
5/23/2022 12:00:00 PM 17.52 63.536 0.144 7.2 59.09 9.47
5/23/2022 12:15:00 PM 17.66 63.788 0.144 7.21 58.81 9.49
5/23/2022 12:30:00 PM 17.85 64.13 0.144 7.21 53.6 9.51
5/23/2022 12:45:00 PM 18.05 64.49 0.144 7.23 60.35 9.52
5/23/2022 1:00:00 PM 18.21 64.778 0.144 7.23 59.22 9.5
5/23/2022 1:15:00 PM 18.4 65.12 0.145 7.23 68.44 9.51
5/23/2022 1:30:00 PM 18.56 65.408 0.145 7.25 42.31 9.52
5/23/2022 1:45:00 PM 18.65 65.57 0.145 7.25 47.61 9.51
5/23/2022 2:00:00 PM 18.8 65.84 0.145 7.25 41.88 9.5
5/23/2022 2:15:00 PM 18.93 66.074 0.145 7.25 46.45 9.51
5/23/2022 2:30:00 PM 19.04 66.272 0.146 7.26 44.05 9.49
5/23/2022 2:45:00 PM 19.11 66.398 0.146 7.25 45.04 9.47
5/23/2022 3:00:00 PM 19.19 66.542 0.146 7.26 38.04 9.43
5/23/2022 3:15:00 PM 19.22 66.596 0.146 7.26 37.18 9.42
5/23/2022 3:30:00 PM 19.2 66.56 0.146 7.28 40.87 9.4
5/23/2022 3:45:00 PM 19.14 66.452 0.147 7.26 43.01 9.38
5/23/2022 4:00:00 PM 19.08 66.344 0.147 7.26 43.68 9.33
5/23/2022 4:15:00 PM 19.02 66.236 0.147 7.26 47.39 9.29
5/23/2022 4:30:00 PM 18.97 66.146 0.147 7.26 45.1 9.25
5/23/2022 4:45:00 PM 18.91 66.038 0.147 7.25 41.2 9.2
5/23/2022 5:00:00 PM 18.83 65.894 0.147 7.25 44.89 9.16
5/23/2022 5:15:00 PM 18.75 65.75 0.147 7.24 42.01 9.15
5/23/2022 5:30:00 PM 18.68 65.624 0.148 7.23 37.73 9.09
5/23/2022 5:45:00 PM 18.61 65.498 0.148 7.23 41.41 9.07
5/23/2022 6:00:00 PM 18.55 65.39 0.148 7.23 37.61 9.05
5/23/2022 6:15:00 PM 18.5 65.3 0.148 7.22 41.87 9.03
5/23/2022 6:30:00 PM 18.43 65.174 0.148 7.21 37.27 9
5/23/2022 6:45:00 PM 18.36 65.048 0.148 7.21 36.61 8.99
5/23/2022 7:00:00 PM 18.28 64.904 0.149 7.2 40.55 8.97
5/23/2022 7:15:00 PM 18.21 64.778 0.149 7.2 38.15 8.97
5/23/2022 7:30:00 PM 18.13 64.634 0.149 7.19 40.09 8.97
5/23/2022 7:45:00 PM 18.07 64.526 0.149 7.19 39.98 8.97
5/23/2022 8:00:00 PM 17.99 64.382 0.149 7.19 42.43 8.94
5/23/2022 8:15:00 PM 17.93 64.274 0.149 7.18 39.25 8.94
5/23/2022 8:30:00 PM 17.86 64.148 0.148 7.18 39.48 8.93
5/23/2022 8:45:00 PM 17.81 64.058 0.149 7.18 41.75 8.93
5/23/2022 9:00:00 PM 17.75 63.95 0.149 7.17 40.38 8.94
5/23/2022 9:15:00 PM 17.71 63.878 0.149 7.17 41.52 8.95
5/23/2022 9:30:00 PM 17.65 63.77 0.149 7.17 37.04 8.94
5/23/2022 9:45:00 PM 17.59 63.662 0.149 7.16 39.69 8.92
5/23/2022 10:00:00 PM 17.54 63.572 0.15 7.16 43.73 8.95
5/23/2022 10:15:00 PM 17.48 63.464 0.15 7.15 43.43 8.95
5/23/2022 10:30:00 PM 17.41 63.338 0.15 7.15 42.27 8.97
5/23/2022 10:45:00 PM 17.34 63.212 0.15 7.16 46.11 8.98
5/23/2022 11:00:00 PM 17.28 63.104 0.15 7.15 39.1 8.98
5/23/2022 11:15:00 PM 17.2 62.96 0.15 7.15 37.79 8.97
5/23/2022 11:30:00 PM 17.13 62.834 0.15 7.15 31.79 9.02
5/23/2022 11:45:00 PM 17.07 62.726 0.15 7.16 32.11 9.04
5/24/2022 12:00:00 AM 17 62.6 0.15 7.14 35.39 9.05
5/24/2022 12:15:00 AM 16.94 62.492 0.15 7.15 28.3 9.07
5/24/2022 12:30:00 AM 16.87 62.366 0.15 7.16 27.93 9.09
5/24/2022 12:45:00 AM 16.81 62.258 0.15 7.15 31.12 9.1
5/24/2022 1:00:00 AM 16.75 62.15 0.151 7.16 29.32 9.1
5/24/2022 1:15:00 AM 16.69 62.042 0.151 7.15 30.26 9.11
5/24/2022 1:30:00 AM 16.63 61.934 0.151 7.15 32.28 9.13
5/24/2022 1:45:00 AM 16.56 61.808 0.152 7.15 23.99 9.15
5/24/2022 2:00:00 AM 16.5 61.7 0.152 7.16 24.3 9.17
5/24/2022 2:15:00 AM 16.44 61.592 0.153 7.15 27.56 9.17
5/24/2022 2:30:00 AM 16.37 61.466 0.154 7.15 27.63 9.19
5/24/2022 2:45:00 AM 16.3 61.34 0.154 7.15 28.56 9.22
5/24/2022 3:00:00 AM 16.24 61.232 0.155 7.16 35.62 9.22
5/24/2022 3:15:00 AM 16.18 61.124 0.155 7.16 31.88 9.23
5/24/2022 3:30:00 AM 16.11 60.998 0.156 7.16 23.93 9.25
5/24/2022 3:45:00 AM 16.05 60.89 0.156 7.15 25.34 9.27
5/24/2022 4:00:00 AM 15.99 60.782 0.157 7.16 29.36 9.28
5/24/2022 4:15:00 AM 15.93 60.674 0.157 7.15 28.79 9.29
5/24/2022 4:30:00 AM 15.87 60.566 0.158 7.16 27.41 9.32
5/24/2022 4:45:00 AM 15.81 60.458 0.158 7.17 31.05 9.34
5/24/2022 5:00:00 AM 15.75 60.35 0.158 7.16 28.69 9.34
5/24/2022 5:15:00 AM 15.69 60.242 0.158 7.17 30.93 9.36
5/24/2022 5:30:00 AM 15.64 60.152 0.158 7.16 26.89 9.37
5/24/2022 5:45:00 AM 15.58 60.044 0.158 7.16 29.08 9.4
5/24/2022 6:00:00 AM 15.53 59.954 0.158 7.16 28.61 9.4
5/24/2022 6:15:00 AM 15.47 59.846 0.157 7.16 102.8 9.37
5/24/2022 6:30:00 AM 15.42 59.756 0.157 7.17 28.02 9.34
5/24/2022 6:45:00 AM 15.38 59.684 0.156 7.16 30.25 9.36
5/24/2022 7:00:00 AM 15.35 59.63 0.156 7.16 27.3 9.45
5/24/2022 7:15:00 AM 15.32 59.576 0.156 7.17 23.79 9.48
5/24/2022 7:30:00 AM 15.29 59.522 0.156 7.17 31.19 9.51
5/24/2022 7:45:00 AM 15.28 59.504 0.155 7.17 32.75 9.55
5/24/2022 8:00:00 AM 15.26 59.468 0.155 7.18 28.09 9.56
5/24/2022 8:15:00 AM 15.25 59.45 0.155 7.19 28.73 9.59
5/24/2022 8:30:00 AM 15.24 59.432 0.154 7.2 32.52 9.62
5/24/2022 8:45:00 AM 15.24 59.432 0.154 7.2 40.26 9.64
5/24/2022 9:00:00 AM 15.25 59.45 0.154 7.2 28.29 9.71
5/24/2022 9:15:00 AM 15.26 59.468 0.154 7.21 28.68 9.75
5/24/2022 9:30:00 AM 15.28 59.504 0.154 7.21 26.4 9.79
5/24/2022 9:45:00 AM 15.3 59.54 0.154 7.22 26.25 9.81
5/24/2022 10:00:00 AM 15.32 59.576 0.153 7.22 24.74 9.85
5/24/2022 10:15:00 AM 15.34 59.612 0.153 7.23 22.73 9.86
5/24/2022 10:30:00 AM 15.35 59.63 0.153 7.24 24.58 9.87
5/24/2022 10:45:00 AM 15.37 59.666 0.153 7.24 24.67 9.88
5/24/2022 11:00:00 AM 15.37 59.666 0.153 7.24 21.16 9.85
5/24/2022 11:15:00 AM 15.38 59.684 0.153 7.23 24.64 9.89
5/24/2022 11:30:00 AM 15.41 59.738 0.153 7.24 24.68 9.85
5/24/2022 11:45:00 AM 15.45 59.81 0.153 7.26 21.36 9.93
5/24/2022 12:00:00 PM 15.44 59.792 0.153 7.26 20.96 9.92
5/24/2022 12:15:00 PM 15.43 59.774 0.153 7.25 21.07 9.85
5/24/2022 12:30:00 PM 15.43 59.774 0.153 7.26 24.08 9.88
5/24/2022 12:45:00 PM 15.43 59.774 0.153 7.26 23.69 9.89
5/24/2022 1:00:00 PM 15.42 59.756 0.152 7.26 23.37 9.89
5/24/2022 1:15:00 PM 15.41 59.738 0.152 7.25 18.74 9.87
5/24/2022 1:30:00 PM 15.43 59.774 0.152 7.26 20.38 9.89
5/24/2022 1:45:00 PM 15.42 59.756 0.152 7.27 22.09 9.92
5/24/2022 2:00:00 PM 15.47 59.846 0.152 7.27 22.54 9.94
5/24/2022 2:15:00 PM 15.52 59.936 0.152 7.28 23.31 9.96
5/24/2022 2:30:00 PM 15.6 60.08 0.152 7.3 26.56 9.98
5/24/2022 2:45:00 PM 15.65 60.17 0.152 7.29 22.91 10.01
5/24/2022 3:00:00 PM 15.7 60.26 0.152 7.3 34.27 10.01
5/24/2022 3:15:00 PM 15.8 60.44 0.152 7.31 28.22 10.02
5/24/2022 3:30:00 PM 15.88 60.584 0.152 7.31 25.48 10.02
5/24/2022 3:45:00 PM 15.9 60.62 0.152 7.31 25.49 10.02
5/24/2022 4:00:00 PM 15.93 60.674 0.152 7.31 23.42 9.99
5/24/2022 4:15:00 PM 15.97 60.746 0.152 7.31 23.92 9.98
5/24/2022 4:30:00 PM 16 60.8 0.152 7.31 27.43 9.96
5/24/2022 4:45:00 PM 16.02 60.836 0.152 7.31 24.12 9.96
5/24/2022 5:00:00 PM 16.03 60.854 0.152 7.31 72.37 9.92
5/24/2022 5:15:00 PM 16.03 60.854 0.152 7.31 20.29 9.89
5/24/2022 5:30:00 PM 16.04 60.872 0.152 7.3 25.33 9.87
5/24/2022 5:45:00 PM 16.03 60.854 0.152 7.29 21.84 9.84
5/24/2022 6:00:00 PM 16.01 60.818 0.152 7.29 21.26 9.8
5/24/2022 6:15:00 PM 16 60.8 0.152 7.28 19.96 9.78
5/24/2022 6:30:00 PM 15.98 60.764 0.152 7.29 22.45 9.77
5/24/2022 6:45:00 PM 15.96 60.728 0.152 7.28 22.75 9.74
5/24/2022 7:00:00 PM 15.94 60.692 0.152 7.27 25.52 9.7
5/24/2022 7:15:00 PM 15.93 60.674 0.152 7.27 23.75 9.67
5/24/2022 7:30:00 PM 15.9 60.62 0.152 7.26 22.37 9.68
5/24/2022 7:45:00 PM 15.87 60.566 0.152 7.26 19.87 9.64
5/24/2022 8:00:00 PM 15.85 60.53 0.152 7.25 23.34 9.63
5/24/2022 8:15:00 PM 15.81 60.458 0.153 7.24 22.52 9.59
5/24/2022 8:30:00 PM 15.77 60.386 0.153 7.22 23.23 9.6
5/24/2022 8:45:00 PM 15.74 60.332 0.153 7.23 21.5 9.57
5/24/2022 9:00:00 PM 15.7 60.26 0.152 7.23 19.92 9.56
5/24/2022 9:15:00 PM 15.67 60.206 0.153 7.21 23.67 9.53
5/24/2022 9:30:00 PM 15.63 60.134 0.152 7.21 54.72 9.52
5/24/2022 9:45:00 PM 15.6 60.08 0.153 7.21 24.44 9.52
5/24/2022 10:00:00 PM 15.57 60.026 0.153 7.21 26.96 9.51
5/24/2022 10:15:00 PM 15.54 59.972 0.153 7.2 21.01 9.5
5/24/2022 10:30:00 PM 15.5 59.9 0.152 7.2 25.74 9.5
5/24/2022 10:45:00 PM 15.47 59.846 0.153 7.19 23.69 9.5
5/24/2022 11:00:00 PM 15.44 59.792 0.153 7.19 24.68 9.49
5/24/2022 11:15:00 PM 15.42 59.756 0.153 7.19 41.49 9.5
5/24/2022 11:30:00 PM 15.38 59.684 0.153 7.19 29.32 9.5
5/24/2022 11:45:00 PM 15.35 59.63 0.153 7.17 26.29 9.49
5/25/2022 12:00:00 AM 15.32 59.576 0.153 7.18 26.44 9.51
5/25/2022 12:15:00 AM 15.28 59.504 0.153 7.18 28 9.52
5/25/2022 12:30:00 AM 15.24 59.432 0.152 7.18 23.57 9.52
5/25/2022 12:45:00 AM 15.21 59.378 0.153 7.17 22.97 9.52
5/25/2022 1:00:00 AM 15.17 59.306 0.153 7.17 23.56 9.55
5/25/2022 1:15:00 AM 15.14 59.252 0.153 7.17 27.26 9.53
5/25/2022 1:30:00 AM 15.1 59.18 0.153 7.18 29.37 9.55
5/25/2022 1:45:00 AM 15.06 59.108 0.153 7.17 25.55 9.56
5/25/2022 2:00:00 AM 15.02 59.036 0.153 7.17 23.48 9.57
5/25/2022 2:15:00 AM 14.97 58.946 0.153 7.18 23.88 9.56
5/25/2022 2:30:00 AM 14.92 58.856 0.153 7.17 27.6 9.59
5/25/2022 2:45:00 AM 14.87 58.766 0.153 7.16 22.1 9.59
5/25/2022 3:00:00 AM 14.82 58.676 0.153 7.16 24.08 9.61
5/25/2022 3:15:00 AM 14.77 58.586 0.153 7.17 26.52 9.64
5/25/2022 3:30:00 AM 14.71 58.478 0.153 7.17 21.43 9.64
5/25/2022 3:45:00 AM 14.65 58.37 0.153 7.17 21.33 9.66
5/25/2022 4:00:00 AM 14.6 58.28 0.153 7.16 23.25 9.68
5/25/2022 4:15:00 AM 14.54 58.172 0.153 7.17 23.04 9.69
5/25/2022 4:30:00 AM 14.48 58.064 0.153 7.16 20.61 9.71
5/25/2022 4:45:00 AM 14.42 57.956 0.153 7.16 24.56 9.73
5/25/2022 5:00:00 AM 14.36 57.848 0.153 7.16 35.2 9.74
5/25/2022 5:15:00 AM 14.3 57.74 0.153 7.16 21.76 9.75
5/25/2022 5:30:00 AM 14.24 57.632 0.153 7.17 25.2 9.78
5/25/2022 5:45:00 AM 14.18 57.524 0.153 7.16 24.54 9.77
5/25/2022 6:00:00 AM 14.12 57.416 0.154 7.17 28.51 9.77
5/25/2022 6:15:00 AM 14.07 57.326 0.153 7.17 24.38 9.78
5/25/2022 6:30:00 AM 14.02 57.236 0.153 7.17 29.57 9.83
5/25/2022 6:45:00 AM 13.98 57.164 0.153 7.17 30.57 9.84
5/25/2022 7:00:00 AM 13.94 57.092 0.153 7.16 32.8 9.86
5/25/2022 7:15:00 AM 13.9 57.02 0.153 7.17 33.25 9.88
5/25/2022 7:30:00 AM 13.86 56.948 0.153 7.16 33.84 9.9
5/25/2022 7:45:00 AM 13.83 56.894 0.153 7.18 26.28 9.84
5/25/2022 8:00:00 AM 13.81 56.858 0.154 7.17 24.92 9.95
5/25/2022 8:15:00 AM 13.81 56.858 0.154 7.18 21.74 9.97
5/25/2022 8:30:00 AM 13.82 56.876 0.154 7.19 22.93 10.02
5/25/2022 8:45:00 AM 13.85 56.93 0.153 7.19 25.1 10.05
5/25/2022 9:00:00 AM 13.9 57.02 0.154 7.21 24.57 10.14
5/25/2022 9:15:00 AM 13.95 57.11 0.153 7.21 22.92 10.2
5/25/2022 9:30:00 AM 14 57.2 0.153 7.23 25.94 10.26
5/25/2022 9:45:00 AM 14.08 57.344 0.152 7.23 25.59 10.27
5/25/2022 10:00:00 AM 14.16 57.488 0.152 7.23 26 10.29
5/25/2022 10:15:00 AM 14.24 57.632 0.152 7.25 32.23 10.3
5/25/2022 10:30:00 AM 14.34 57.812 0.152 7.26 28.51 10.32
5/25/2022 10:45:00 AM 14.46 58.028 0.152 7.26 23.83 10.36
5/25/2022 11:00:00 AM 14.61 58.298 0.152 7.26 24.02 10.37
5/25/2022 11:15:00 AM 14.76 58.568 0.152 7.28 22.55 10.36
5/25/2022 11:30:00 AM 14.94 58.892 0.152 7.28 21.35 10.33
5/25/2022 11:45:00 AM 15.16 59.288 0.152 7.28 24.05 10.34
5/25/2022 12:00:00 PM 15.41 59.738 0.153 7.3 21.27 10.36
5/25/2022 12:15:00 PM 15.62 60.116 0.153 7.31 21.4 10.35
5/25/2022 12:30:00 PM 15.85 60.53 0.153 7.31 21.35 10.35
5/25/2022 12:45:00 PM 16.1 60.98 0.153 7.32 23.39 10.31
5/25/2022 1:00:00 PM 16.39 61.502 0.153 7.31 28.39 10.29
5/25/2022 1:15:00 PM 16.57 61.826 0.153 7.32 21.03 10.27
5/25/2022 1:30:00 PM 16.69 62.042 0.153 7.32 22.39 10.23
5/25/2022 1:45:00 PM 16.85 62.33 0.153 7.33 19.48 10.19
5/25/2022 2:00:00 PM 17.06 62.708 0.153 7.34 22.06 10.19
5/25/2022 2:15:00 PM 17.23 63.014 0.153 7.33 21.13 10.17
5/25/2022 2:30:00 PM 17.37 63.266 0.153 7.34 19.95 10.13
5/25/2022 2:45:00 PM 17.51 63.518 0.154 7.34 21.04 10.14
5/25/2022 3:00:00 PM 17.56 63.608 0.153 7.35 18.96 10.09
5/25/2022 3:15:00 PM 17.6 63.68 0.153 7.35 21.23 10.05
5/25/2022 3:30:00 PM 17.7 63.86 0.154 7.35 22 10.01
5/25/2022 3:45:00 PM 17.74 63.932 0.154 7.35 24.46 9.97
5/25/2022 4:00:00 PM 17.76 63.968 0.154 7.35 20.43 9.95
5/25/2022 4:15:00 PM 17.76 63.968 0.154 7.34 22.62 9.92
5/25/2022 4:30:00 PM 17.77 63.986 0.154 7.34 23.29 9.88
5/25/2022 4:45:00 PM 17.76 63.968 0.154 7.34 22.46 9.85
5/25/2022 5:00:00 PM 17.74 63.932 0.154 7.34 19.2 9.8
5/25/2022 5:15:00 PM 17.71 63.878 0.154 7.33 20.82 9.79
5/25/2022 5:30:00 PM 17.69 63.842 0.154 7.33 19.02 9.71
5/25/2022 5:45:00 PM 17.67 63.806 0.154 7.33 20.03 9.7
5/25/2022 6:00:00 PM 17.67 63.806 0.154 7.32 22.2 9.68
5/25/2022 6:15:00 PM 17.65 63.77 0.154 7.31 23.45 9.64
5/25/2022 6:30:00 PM 17.6 63.68 0.154 7.31 21.55 9.6
5/25/2022 6:45:00 PM 17.56 63.608 0.154 7.29 20.42 9.55
5/25/2022 7:00:00 PM 17.5 63.5 0.154 7.28 18.6 9.49
5/25/2022 7:15:00 PM 17.44 63.392 0.154 7.28 22.97 9.47
5/25/2022 7:30:00 PM 17.38 63.284 0.154 7.27 17.11 9.44
5/25/2022 7:45:00 PM 17.32 63.176 0.154 7.26 21.29 9.39
5/25/2022 8:00:00 PM 17.27 63.086 0.154 7.25 16.91 9.36
5/25/2022 8:15:00 PM 17.21 62.978 0.154 7.25 19.04 9.3
5/25/2022 8:30:00 PM 17.14 62.852 0.154 7.23 19.92 9.29
5/25/2022 8:45:00 PM 17.08 62.744 0.154 7.23 21.05 9.26
5/25/2022 9:00:00 PM 17.02 62.636 0.154 7.22 19.48 9.22
5/25/2022 9:15:00 PM 16.96 62.528 0.154 7.22 21.5 9.22
5/25/2022 9:30:00 PM 16.91 62.438 0.155 7.21 22.63 9.2
5/25/2022 9:45:00 PM 16.84 62.312 0.155 7.21 17.27 9.2
5/25/2022 10:00:00 PM 16.78 62.204 0.155 7.2 18.43 9.19
5/25/2022 10:15:00 PM 16.72 62.096 0.155 7.19 21.13 9.19
5/25/2022 10:30:00 PM 16.67 62.006 0.155 7.19 21.94 9.19
5/25/2022 10:45:00 PM 16.61 61.898 0.155 7.19 24.4 9.19
5/25/2022 11:00:00 PM 16.56 61.808 0.155 7.19 21.45 9.21
5/25/2022 11:15:00 PM 16.51 61.718 0.155 7.18 22.03 9.19
5/25/2022 11:30:00 PM 16.45 61.61 0.155 7.18 23.13 9.21
5/25/2022 11:45:00 PM 16.4 61.52 0.155 7.18 22.6 9.21
5/26/2022 12:00:00 AM 16.33 61.394 0.155 7.17 19.14 9.21
5/26/2022 12:15:00 AM 16.27 61.286 0.155 7.17 22.88 9.22
5/26/2022 12:30:00 AM 16.22 61.196 0.155 7.17 20.5 9.23
5/26/2022 12:45:00 AM 16.17 61.106 0.155 7.17 25.08 9.26
5/26/2022 1:00:00 AM 16.12 61.016 0.155 7.17 21.26 9.27
5/26/2022 1:15:00 AM 16.07 60.926 0.155 7.17 21.73 9.29
5/26/2022 1:30:00 AM 16.03 60.854 0.155 7.17 23.24 9.3
5/26/2022 1:45:00 AM 15.97 60.746 0.155 7.17 24.07 9.31
5/26/2022 2:00:00 AM 15.92 60.656 0.155 7.16 19.48 9.31
5/26/2022 2:15:00 AM 15.86 60.548 0.155 7.17 24.65 9.33
5/26/2022 2:30:00 AM 15.8 60.44 0.155 7.17 22.82 9.34
5/26/2022 2:45:00 AM 15.75 60.35 0.155 7.17 20.91 9.36
5/26/2022 3:00:00 AM 15.69 60.242 0.155 7.16 24.91 9.38
5/26/2022 3:15:00 AM 15.63 60.134 0.155 7.17 24.59 9.38
5/26/2022 3:30:00 AM 15.58 60.044 0.155 7.16 27.31 9.39
5/26/2022 3:45:00 AM 15.53 59.954 0.155 7.17 20.88 9.38
5/26/2022 4:00:00 AM 15.47 59.846 0.155 7.17 23.17 9.41
5/26/2022 4:15:00 AM 15.42 59.756 0.155 7.17 23.23 9.43
5/26/2022 4:30:00 AM 15.37 59.666 0.155 7.17 18.93 9.46
5/26/2022 4:45:00 AM 15.31 59.558 0.155 7.17 25.05 9.47
5/26/2022 5:00:00 AM 15.24 59.432 0.155 7.17 25.6 9.5
5/26/2022 5:15:00 AM 15.17 59.306 0.155 7.17 22.73 9.5
5/26/2022 5:30:00 AM 15.1 59.18 0.155 7.17 27 9.51
5/26/2022 5:45:00 AM 15.05 59.09 0.155 7.17 22.85 9.51
5/26/2022 6:00:00 AM 14.99 58.982 0.155 7.17 22.98 9.54
5/26/2022 6:15:00 AM 14.94 58.892 0.156 7.17 27.55 9.54
5/26/2022 6:30:00 AM 14.89 58.802 0.155 7.17 25.79 9.5
5/26/2022 6:45:00 AM 14.85 58.73 0.155 7.17 25.25 9.61
5/26/2022 7:00:00 AM 14.81 58.658 0.155 7.17 22.5 9.67
5/26/2022 7:15:00 AM 14.78 58.604 0.155 7.18 24.87 9.69
5/26/2022 7:30:00 AM 14.75 58.55 0.155 7.17 23.93 9.73
5/26/2022 7:45:00 AM 14.73 58.514 0.155 7.2 28.7 9.79
5/26/2022 8:00:00 AM 14.71 58.478 0.155 7.21 28.23 9.82
5/26/2022 8:15:00 AM 14.71 58.478 0.155 7.21 29.65 9.86
5/26/2022 8:30:00 AM 14.71 58.478 0.155 7.22 28.64 9.89
5/26/2022 8:45:00 AM 14.72 58.496 0.155 7.24 27.73 9.96
5/26/2022 9:00:00 AM 14.74 58.532 0.155 7.24 25.45 10
5/26/2022 9:15:00 AM 14.77 58.586 0.155 7.25 28.38 10.04
5/26/2022 9:30:00 AM 14.8 58.64 0.155 7.26 27.66 10.09
5/26/2022 9:45:00 AM 14.84 58.712 0.155 7.27 27.17 10.14
5/26/2022 10:00:00 AM 14.88 58.784 0.155 7.28 25.64 10.17
5/26/2022 10:15:00 AM 14.93 58.874 0.155 7.29 25.76 10.18
5/26/2022 10:30:00 AM 14.98 58.964 0.155 7.3 27.79 10.23
5/26/2022 10:45:00 AM 15.03 59.054 0.155 7.31 22.84 10.23
5/26/2022 11:00:00 AM 15.08 59.144 0.155 7.32 23.83 10.24
5/26/2022 11:15:00 AM 15.15 59.27 0.155 7.32 30.13 10.26
5/26/2022 11:30:00 AM 15.24 59.432 0.155 7.34 27.02 10.29
5/26/2022 11:45:00 AM 15.32 59.576 0.155 7.34 25.59 10.28
5/26/2022 12:00:00 PM 15.37 59.666 0.155 7.34 25.18 10.27
5/26/2022 12:15:00 PM 15.41 59.738 0.155 7.35 26.8 10.24
5/26/2022 12:30:00 PM 15.48 59.864 0.155 7.35 24.26 10.27
5/26/2022 12:45:00 PM 15.55 59.99 0.155 7.36 25.76 10.27
5/26/2022 1:00:00 PM 15.62 60.116 0.155 7.36 25.4 10.27
5/26/2022 1:15:00 PM 15.68 60.224 0.155 7.37 26.75 10.26
5/26/2022 1:30:00 PM 15.74 60.332 0.155 7.37 25.94 10.25
5/26/2022 1:45:00 PM 15.79 60.422 0.155 7.37 25.86 10.24
5/26/2022 2:00:00 PM 15.83 60.494 0.155 7.37 25.09 10.22
5/26/2022 2:15:00 PM 15.85 60.53 0.155 7.37 24.29 10.17
5/26/2022 2:30:00 PM 15.9 60.62 0.155 7.37 29.75 10.12
5/26/2022 2:45:00 PM 15.95 60.71 0.155 7.37 27.09 10.1
5/26/2022 3:00:00 PM 16.03 60.854 0.155 7.37 22.9 10.13
5/26/2022 3:15:00 PM 16.06 60.908 0.155 7.37 26.23 10.12
5/26/2022 3:30:00 PM 16.08 60.944 0.154 7.37 25.63 10.09
5/26/2022 3:45:00 PM 16.1 60.98 0.155 7.37 23.61 10.05
5/26/2022 4:00:00 PM 16.13 61.034 0.154 7.37 25.82 10.05
5/26/2022 4:15:00 PM 16.16 61.088 0.154 7.36 25.51 10.03
5/26/2022 4:30:00 PM 16.18 61.124 0.155 7.36 31.17 9.97
5/26/2022 4:45:00 PM 16.18 61.124 0.154 7.36 26.07 9.96
5/26/2022 5:00:00 PM 16.2 61.16 0.155 7.36 24.94 9.91
5/26/2022 5:15:00 PM 16.2 61.16 0.155 7.35 26.53 9.88
5/26/2022 5:30:00 PM 16.23 61.214 0.155 7.34 25.73 9.85
5/26/2022 5:45:00 PM 16.25 61.25 0.155 7.35 25.47 9.86
5/26/2022 6:00:00 PM 16.28 61.304 0.155 7.34 28.58 9.83
5/26/2022 6:15:00 PM 16.3 61.34 0.155 7.33 26.73 9.79
5/26/2022 6:30:00 PM 16.31 61.358 0.155 7.33 26.07 9.72
5/26/2022 6:45:00 PM 16.31 61.358 0.155 7.32 26.97 9.66
5/26/2022 7:00:00 PM 16.31 61.358 0.155 7.31 28.56 9.63
5/26/2022 7:15:00 PM 16.32 61.376 0.155 7.3 26.76 9.6
5/26/2022 7:30:00 PM 16.32 61.376 0.155 7.29 26.96 9.56
5/26/2022 7:45:00 PM 16.31 61.358 0.155 7.28 27.99 9.53
5/26/2022 8:00:00 PM 16.29 61.322 0.155 7.28 24.91 9.49
5/26/2022 8:15:00 PM 16.27 61.286 0.155 7.26 26.86 9.44
5/26/2022 8:30:00 PM 16.26 61.268 0.155 7.25 28.96 9.42
5/26/2022 8:45:00 PM 16.24 61.232 0.155 7.25 30.81 9.38
5/26/2022 9:00:00 PM 16.22 61.196 0.155 7.24 29.1 9.36
5/26/2022 9:15:00 PM 16.21 61.178 0.155 7.23 29.24 9.33
5/26/2022 9:30:00 PM 16.19 61.142 0.155 7.22 29.21 9.32
5/26/2022 9:45:00 PM 16.18 61.124 0.155 7.21 31.35 9.32
5/26/2022 10:00:00 PM 16.17 61.106 0.155 7.21 29.36 9.32
5/26/2022 10:15:00 PM 16.16 61.088 0.155 7.21 29.61 9.3
5/26/2022 10:30:00 PM 16.15 61.07 0.155 7.19 32.83 9.28
5/26/2022 10:45:00 PM 16.14 61.052 0.155 7.2 31.58 9.28
5/26/2022 11:00:00 PM 16.14 61.052 0.155 7.2 32.4 9.26
5/26/2022 11:15:00 PM 16.14 61.052 0.155 7.2 30.63 9.27
5/26/2022 11:30:00 PM 16.14 61.052 0.155 7.2 31.43 9.25
5/26/2022 11:45:00 PM 16.14 61.052 0.155 7.19 36.55 9.25
5/27/2022 12:00:00 AM 16.15 61.07 0.155 7.19 35.82 9.24
5/27/2022 12:15:00 AM 16.15 61.07 0.155 7.19 33.4 9.25
5/27/2022 12:30:00 AM 16.15 61.07 0.155 7.19 35.36 9.24
5/27/2022 12:45:00 AM 16.14 61.052 0.155 7.19 31.45 9.24
5/27/2022 1:00:00 AM 16.14 61.052 0.155 7.19 32.89 9.24
5/27/2022 1:15:00 AM 16.14 61.052 0.155 7.19 32.3 9.22
5/27/2022 1:30:00 AM 16.12 61.016 0.156 7.18 31.09 9.23
5/27/2022 1:45:00 AM 16.12 61.016 0.156 7.16 35.13 9.24
5/27/2022 2:00:00 AM 16.11 60.998 0.156 7.18 37.83 9.23
5/27/2022 2:15:00 AM 16.1 60.98 0.156 7.18 45.42 9.24
5/27/2022 2:30:00 AM 16.09 60.962 0.156 7.17 38.25 9.23
5/27/2022 2:45:00 AM 16.07 60.926 0.156 7.17 36 9.23
5/27/2022 3:00:00 AM 16.06 60.908 0.156 7.16 37.14 9.24
5/27/2022 3:15:00 AM 16.04 60.872 0.156 7.17 35.68 9.23
5/27/2022 3:30:00 AM 16.02 60.836 0.156 7.17 35.81 9.23
5/27/2022 3:45:00 AM 16.01 60.818 0.156 7.15 39.21 9.24
5/27/2022 4:00:00 AM 15.99 60.782 0.156 7.16 33.1 9.25
5/27/2022 4:15:00 AM 15.97 60.746 0.156 7.16 35.37 9.25
5/27/2022 4:30:00 AM 15.95 60.71 0.156 7.16 34 9.25
5/27/2022 4:45:00 AM 15.93 60.674 0.156 7.15 33.29 9.25
5/27/2022 5:00:00 AM 15.91 60.638 0.156 7.15 30.87 9.25
5/27/2022 5:15:00 AM 15.9 60.62 0.157 7.16 34.67 9.26
5/27/2022 5:30:00 AM 15.88 60.584 0.156 7.14 31.94 9.26
5/27/2022 5:45:00 AM 15.86 60.548 0.156 7.15 35.59 9.28
5/27/2022 6:00:00 AM 15.85 60.53 0.156 7.16 32.42 9.27
5/27/2022 6:15:00 AM 15.83 60.494 0.156 7.15 29.53 9.27
5/27/2022 6:30:00 AM 15.82 60.476 0.156 7.16 29.14 9.28
5/27/2022 6:45:00 AM 15.81 60.458 0.156 7.16 27.74 9.3
5/27/2022 7:00:00 AM 15.8 60.44 0.156 7.16 27.03 9.31
5/27/2022 7:15:00 AM 15.79 60.422 0.156 7.18 29.49 9.33
5/27/2022 7:30:00 AM 15.78 60.404 0.156 7.17 30.8 9.34
5/27/2022 7:45:00 AM 15.78 60.404 0.156 7.19 30 9.36
5/27/2022 8:00:00 AM 15.79 60.422 0.156 7.19 27.16 9.39
5/27/2022 8:15:00 AM 15.78 60.404 0.156 7.21 31 9.41
5/27/2022 8:30:00 AM 15.8 60.44 0.156 7.21 31.23 9.42
5/27/2022 8:45:00 AM 15.81 60.458 0.156 7.22 30.74 9.47
5/27/2022 9:00:00 AM 15.82 60.476 0.156 7.23 33.45 9.49
5/27/2022 9:15:00 AM 15.83 60.494 0.156 7.23 30.36 9.5
5/27/2022 9:30:00 AM 15.85 60.53 0.156 7.24 30.57 9.53
5/27/2022 9:45:00 AM 15.88 60.584 0.156 7.25 30.56 9.57
5/27/2022 10:00:00 AM 15.91 60.638 0.156 7.26 30.91 9.62
5/27/2022 10:15:00 AM 15.94 60.692 0.156 7.27 30.98 9.63
5/27/2022 10:30:00 AM 15.97 60.746 0.156 7.28 24.53 9.66
5/27/2022 10:45:00 AM 16.01 60.818 0.156 7.29 24.54 9.67
5/27/2022 11:00:00 AM 16.04 60.872 0.156 7.31 26.05 9.67
5/27/2022 11:15:00 AM 16.06 60.908 0.156 7.32 25.84 9.69
5/27/2022 11:30:00 AM 16.09 60.962 0.156 7.32 21.72 9.7
5/27/2022 11:45:00 AM 16.11 60.998 0.156 7.32 24.56 9.67
5/27/2022 12:00:00 PM 16.14 61.052 0.156 7.33 24.56 9.68
5/27/2022 12:15:00 PM 16.18 61.124 0.156 7.33 25.34 9.68
5/27/2022 12:30:00 PM 16.23 61.214 0.156 7.33 24.21 9.75
5/27/2022 12:45:00 PM 16.28 61.304 0.156 7.35 25.03 9.78
5/27/2022 1:00:00 PM 16.35 61.43 0.156 7.35 23.14 9.78
5/27/2022 1:15:00 PM 16.4 61.52 0.156 7.36 23.92 9.79
5/27/2022 1:30:00 PM 16.43 61.574 0.156 7.37 22.11 9.77
5/27/2022 1:45:00 PM 16.46 61.628 0.153 7.37 34.87 9.64
5/27/2022 2:00:00 PM 16.45 61.61 0.15 7.35 35.71 9.58
5/27/2022 2:15:00 PM 16.45 61.61 0.149 7.32 37.88 9.52
5/27/2022 2:30:00 PM 16.44 61.592 0.15 7.32 36.78 9.53
5/27/2022 2:45:00 PM 16.44 61.592 0.151 7.32 41 9.51
5/27/2022 3:00:00 PM 16.46 61.628 0.15 7.31 44.24 9.52
5/27/2022 3:15:00 PM 16.48 61.664 0.15 7.31 50.04 9.51
5/27/2022 3:30:00 PM 16.52 61.736 0.149 7.31 49.65 9.5
5/27/2022 3:45:00 PM 16.54 61.772 0.147 7.28 212.6 9.39
5/27/2022 4:00:00 PM 16.54 61.772 0.146 7.16 849.3 9.2
5/27/2022 4:15:00 PM 16.58 61.844 0.148 7.12 1108 9.15
5/27/2022 4:30:00 PM 16.6 61.88 0.149 7.14 729.9 9.13
5/27/2022 4:45:00 PM 16.63 61.934 0.148 7.18 326.4 9.08
5/27/2022 5:00:00 PM 16.65 61.97 0.147 7.19 211.7 9.08
5/27/2022 5:15:00 PM 16.66 61.988 0.148 7.2 163.2 9.13
5/27/2022 5:30:00 PM 16.65 61.97 0.148 7.22 135.8 9.1
5/27/2022 5:45:00 PM 16.67 62.006 0.147 7.23 106.6 9.12
5/27/2022 6:00:00 PM 16.71 62.078 0.147 7.22 105.2 9.1
5/27/2022 6:15:00 PM 16.73 62.114 0.147 7.23 88.08 9.05
5/27/2022 6:30:00 PM 16.73 62.114 0.147 7.22 100.5 9.07
5/27/2022 6:45:00 PM 16.71 62.078 0.148 7.23 77.93 9.05
5/27/2022 7:00:00 PM 16.69 62.042 0.148 7.23 100 9.06
5/27/2022 7:15:00 PM 16.67 62.006 0.149 7.24 125.4 9.02
5/27/2022 7:30:00 PM 16.65 61.97 0.15 7.25 123.8 9.01
5/27/2022 7:45:00 PM 16.63 61.934 0.149 7.23 130.8 8.98
5/27/2022 8:00:00 PM 16.62 61.916 0.148 7.23 140.2 8.98
5/27/2022 8:15:00 PM 16.6 61.88 0.147 7.22 125.8 8.96
5/27/2022 8:30:00 PM 16.59 61.862 0.147 7.21 127.7 8.95
5/27/2022 8:45:00 PM 16.57 61.826 0.147 7.2 150.7 8.95
5/27/2022 9:00:00 PM 16.55 61.79 0.147 7.2 121.1 8.94
5/27/2022 9:15:00 PM 16.53 61.754 0.147 7.19 104 8.96
5/27/2022 9:30:00 PM 16.52 61.736 0.148 7.19 112.2 8.92
5/27/2022 9:45:00 PM 16.51 61.718 0.148 7.18 88.12 8.94
5/27/2022 10:00:00 PM 16.5 61.7 0.149 7.18 85.6 8.91
5/27/2022 10:15:00 PM 16.49 61.682 0.151 7.18 86.84 8.92
5/27/2022 10:30:00 PM 16.48 61.664 0.15 7.18 79.91 8.91
5/27/2022 10:45:00 PM 16.46 61.628 0.149 7.17 79.67 8.93
5/27/2022 11:00:00 PM 16.45 61.61 0.149 7.17 78.59 8.91
5/27/2022 11:15:00 PM 16.44 61.592 0.15 7.17 76.25 8.93
5/27/2022 11:30:00 PM 16.42 61.556 0.149 7.17 75.3 8.92
5/27/2022 11:45:00 PM 16.41 61.538 0.149 7.15 80.81 8.92
5/28/2022 12:00:00 AM 16.39 61.502 0.149 7.15 78.96 8.94
5/28/2022 12:15:00 AM 16.37 61.466 0.149 7.15 80.73 8.92
5/28/2022 12:30:00 AM 16.35 61.43 0.148 7.15 116.8 8.92
5/28/2022 12:45:00 AM 16.32 61.376 0.148 7.15 75.28 8.9
5/28/2022 1:00:00 AM 16.3 61.34 0.148 7.15 62.13 8.94
5/28/2022 1:15:00 AM 16.27 61.286 0.148 7.14 78.47 8.95
5/28/2022 1:30:00 AM 16.24 61.232 0.148 7.15 62.04 8.95
5/28/2022 1:45:00 AM 16.21 61.178 0.148 7.15 64.27 8.97
5/28/2022 2:00:00 AM 16.17 61.106 0.148 7.15 59.28 8.94
5/28/2022 2:15:00 AM 16.14 61.052 0.149 7.15 68.5 8.97
5/28/2022 2:30:00 AM 16.1 60.98 0.149 7.16 59.74 8.95
5/28/2022 2:45:00 AM 16.07 60.926 0.149 7.16 62.68 8.97
5/28/2022 3:00:00 AM 16.04 60.872 0.149 7.16 61.36 8.98
5/28/2022 3:15:00 AM 16.01 60.818 0.15 7.17 54.43 9
5/28/2022 3:30:00 AM 15.98 60.764 0.15 7.17 54.75 9.01
5/28/2022 3:45:00 AM 15.95 60.71 0.15 7.17 55.08 9
5/28/2022 4:00:00 AM 15.92 60.656 0.151 7.17 58.92 9.02
5/28/2022 4:15:00 AM 15.89 60.602 0.151 7.18 60.89 9.05
5/28/2022 4:30:00 AM 15.87 60.566 0.151 7.18 58.79 9.07
5/28/2022 4:45:00 AM 15.84 60.512 0.151 7.19 52.81 9.1
5/28/2022 5:00:00 AM 15.82 60.476 0.151 7.19 56.65 9.11
5/28/2022 5:15:00 AM 15.79 60.422 0.151 7.2 56.69 9.12
5/28/2022 5:30:00 AM 15.76 60.368 0.151 7.2 58.34 9.13
5/28/2022 5:45:00 AM 15.74 60.332 0.151 7.2 68.01 9.14
5/28/2022 6:00:00 AM 15.7 60.26 0.151 7.21 65.59 9.16
5/28/2022 6:15:00 AM 15.67 60.206 0.151 7.21 58.46 9.18
5/28/2022 6:30:00 AM 15.64 60.152 0.151 7.21 61.95 9.18
5/28/2022 6:45:00 AM 15.6 60.08 0.151 7.23 54.36 9.2
5/28/2022 7:00:00 AM 15.56 60.008 0.151 7.23 64.14 9.22
5/28/2022 7:15:00 AM 15.53 59.954 0.151 7.23 61.04 9.24
5/28/2022 7:30:00 AM 15.5 59.9 0.151 7.24 78.49 9.26
5/28/2022 7:45:00 AM 15.48 59.864 0.151 7.25 54.52 9.29
5/28/2022 8:00:00 AM 15.47 59.846 0.152 7.25 57.81 9.3
5/28/2022 8:15:00 AM 15.46 59.828 0.152 7.26 67.49 9.33
5/28/2022 8:30:00 AM 15.46 59.828 0.152 7.26 66.32 9.36
5/28/2022 8:45:00 AM 15.49 59.882 0.152 7.27 79.48 9.36
5/28/2022 9:00:00 AM 15.51 59.918 0.152 7.28 63.17 9.47
5/28/2022 9:15:00 AM 15.55 59.99 0.152 7.29 61.76 9.52
5/28/2022 9:30:00 AM 15.6 60.08 0.152 7.3 60.66 9.55
5/28/2022 9:45:00 AM 15.67 60.206 0.152 7.31 57.56 9.59
5/28/2022 10:00:00 AM 15.72 60.296 0.152 7.32 54.15 9.6
5/28/2022 10:15:00 AM 15.81 60.458 0.152 7.32 58.12 9.6
5/28/2022 10:30:00 AM 15.93 60.674 0.152 7.33 57.69 9.61
5/28/2022 10:45:00 AM 16.08 60.944 0.153 7.34 64.28 9.61
5/28/2022 11:00:00 AM 16.26 61.268 0.153 7.34 60.86 9.62
5/28/2022 11:15:00 AM 16.46 61.628 0.153 7.35 68.48 9.66
5/28/2022 11:30:00 AM 16.68 62.024 0.153 7.37 54.64 9.66
5/28/2022 11:45:00 AM 16.94 62.492 0.153 7.38 55.67 9.68
5/28/2022 12:00:00 PM 17.17 62.906 0.153 7.39 62.71 9.67
5/28/2022 12:15:00 PM 17.37 63.266 0.154 7.4 57.67 9.66
5/28/2022 12:30:00 PM 17.57 63.626 0.153 7.4 62.22 9.64
5/28/2022 12:45:00 PM 17.82 64.076 0.153 7.41 62.75 9.65
5/28/2022 1:00:00 PM 18.1 64.58 0.153 7.41 60.19 9.64
5/28/2022 1:15:00 PM 18.37 65.066 0.153 7.43 63.97 9.63
5/28/2022 1:30:00 PM 18.62 65.516 0.154 7.43 58.47 9.58
5/28/2022 1:45:00 PM 18.78 65.804 0.154 7.44 64.73 9.54
5/28/2022 2:00:00 PM 18.92 66.056 0.154 7.44 62.56 9.49
5/28/2022 2:15:00 PM 19.2 66.56 0.155 7.45 70.02 9.51
5/28/2022 2:30:00 PM 19.39 66.902 0.155 7.46 59.15 9.46
5/28/2022 2:45:00 PM 19.55 67.19 0.155 7.45 65.19 9.39
5/28/2022 3:00:00 PM 19.56 67.208 0.155 7.47 64.01 9.31
5/28/2022 3:15:00 PM 19.67 67.406 0.155 7.46 65.47 9.33
5/28/2022 3:30:00 PM 19.65 67.37 0.155 7.47 61.35 9.32
5/28/2022 3:45:00 PM 19.64 67.352 0.155 7.46 58.21 9.26
5/28/2022 4:00:00 PM 19.67 67.406 0.155 7.45 79.37 9.24
5/28/2022 4:15:00 PM 19.55 67.19 0.155 7.44 62.3 9.23
5/28/2022 4:30:00 PM 19.48 67.064 0.155 7.44 56.91 9.13
5/28/2022 4:45:00 PM 19.48 67.064 0.155 7.43 75.48 9.07
5/28/2022 5:00:00 PM 19.5 67.1 0.155 7.42 62.9 9.04
5/28/2022 5:15:00 PM 19.48 67.064 0.155 7.42 61.79 9.04
5/28/2022 5:30:00 PM 19.43 66.974 0.155 7.41 62.83 9.03
5/28/2022 5:45:00 PM 19.4 66.92 0.155 7.4 69.22 9.01
5/28/2022 6:00:00 PM 19.35 66.83 0.155 7.39 69.21 8.96
5/28/2022 6:15:00 PM 19.3 66.74 0.155 7.39 96.06 8.87
5/28/2022 6:30:00 PM 19.27 66.686 0.154 7.38 73.49 8.84
5/28/2022 6:45:00 PM 19.22 66.596 0.154 7.36 68.36 8.83
5/28/2022 7:00:00 PM 19.15 66.47 0.154 7.36 98.28 8.81
5/28/2022 7:15:00 PM 19.05 66.29 0.154 7.34 69.31 8.76
5/28/2022 7:30:00 PM 18.96 66.128 0.154 7.33 60.41 8.75
5/28/2022 7:45:00 PM 18.89 66.002 0.154 7.32 99.5 8.73
5/28/2022 8:00:00 PM 18.83 65.894 0.154 7.31 104.3 8.69
5/28/2022 8:15:00 PM 18.77 65.786 0.153 7.29 69.94 8.69
5/28/2022 8:30:00 PM 18.7 65.66 0.154 7.29 112.7 8.66
5/28/2022 8:45:00 PM 18.63 65.534 0.154 7.29 120.9 8.68
5/28/2022 9:00:00 PM 18.55 65.39 0.154 7.28 113.4 8.69
5/28/2022 9:15:00 PM 18.47 65.246 0.154 7.27 105 8.63
5/28/2022 9:30:00 PM 18.4 65.12 0.154 7.26 74.53 8.64
5/28/2022 9:45:00 PM 18.34 65.012 0.154 7.26 70.37 8.63
5/28/2022 10:00:00 PM 18.28 64.904 0.154 7.26 77.8 8.63
5/28/2022 10:15:00 PM 18.22 64.796 0.154 7.25 79.96 8.64
5/28/2022 10:30:00 PM 18.16 64.688 0.154 7.25 112.4 8.62
5/28/2022 10:45:00 PM 18.1 64.58 0.155 7.25 94.08 8.64
5/28/2022 11:00:00 PM 18.04 64.472 0.155 7.24 80.25 8.65
5/28/2022 11:15:00 PM 17.98 64.364 0.155 7.24 147.1 8.62
5/28/2022 11:30:00 PM 17.92 64.256 0.155 7.24 134.5 8.64
5/28/2022 11:45:00 PM 17.86 64.148 0.155 7.24 133.9 8.61
5/29/2022 12:00:00 AM 17.8 64.04 0.155 7.24 66.86 8.63
5/29/2022 12:15:00 AM 17.73 63.914 0.155 7.23 84.22 8.66
5/29/2022 12:30:00 AM 17.67 63.806 0.156 7.23 69.63 8.65
5/29/2022 12:45:00 AM 17.6 63.68 0.156 7.23 86.21 8.68
5/29/2022 1:00:00 AM 17.54 63.572 0.156 7.23 106 8.67
5/29/2022 1:15:00 AM 17.47 63.446 0.156 7.23 95.9 8.73
5/29/2022 1:30:00 AM 17.39 63.302 0.156 7.23 84.82 8.72
5/29/2022 1:45:00 AM 17.32 63.176 0.156 7.23 95.23 8.78
5/29/2022 2:00:00 AM 17.25 63.05 0.156 7.23 115.7 8.79
5/29/2022 2:15:00 AM 17.19 62.942 0.157 7.22 118.5 8.79
5/29/2022 2:30:00 AM 17.11 62.798 0.157 7.23 92.65 8.79
5/29/2022 2:45:00 AM 17.04 62.672 0.157 7.22 94.13 8.83
5/29/2022 3:00:00 AM 16.97 62.546 0.157 7.23 116.3 8.84
5/29/2022 3:15:00 AM 16.9 62.42 0.157 7.23 88.69 8.82
5/29/2022 3:30:00 AM 16.82 62.276 0.157 7.23 153.3 8.89
5/29/2022 3:45:00 AM 16.75 62.15 0.157 7.24 98.67 8.9
5/29/2022 4:00:00 AM 16.68 62.024 0.157 7.24 124.3 8.92
5/29/2022 4:15:00 AM 16.6 61.88 0.157 7.24 110 8.95
5/29/2022 4:30:00 AM 16.52 61.736 0.157 7.24 173.7 8.94
5/29/2022 4:45:00 AM 16.44 61.592 0.157 7.23 97.22 8.97
5/29/2022 5:00:00 AM 16.36 61.448 0.157 7.24 199.2 8.98
5/29/2022 5:15:00 AM 16.29 61.322 0.157 7.23 85.24 9.02
5/29/2022 5:30:00 AM 16.23 61.214 0.157 7.24 96.25 9.05
5/29/2022 5:45:00 AM 16.16 61.088 0.158 7.23 84.9 9.06
5/29/2022 6:00:00 AM 16.1 60.98 0.158 7.24 91.02 9.09
5/29/2022 6:15:00 AM 16.03 60.854 0.158 7.24 184.5 9.12
5/29/2022 6:30:00 AM 15.98 60.764 0.158 7.24 103.4 9.1
5/29/2022 6:45:00 AM 15.93 60.674 0.158 7.24 121.5 9.17
5/29/2022 7:00:00 AM 15.89 60.602 0.158 7.25 150.6 9.23
5/29/2022 7:15:00 AM 15.85 60.53 0.157 7.25 114.2 9.26
5/29/2022 7:30:00 AM 15.81 60.458 0.157 7.25 151.2 9.29
5/29/2022 7:45:00 AM 15.78 60.404 0.158 7.26 133.7 9.32
5/29/2022 8:00:00 AM 15.75 60.35 0.157 7.27 170 9.36
5/29/2022 8:15:00 AM 15.73 60.314 0.157 7.28 89.99 9.37
5/29/2022 8:30:00 AM 15.72 60.296 0.158 7.28 127.6 9.41
5/29/2022 8:45:00 AM 15.72 60.296 0.157 7.28 158.3 9.43
5/29/2022 9:00:00 AM 15.73 60.314 0.157 7.29 105.3 9.49
5/29/2022 9:15:00 AM 15.75 60.35 0.157 7.29 113.5 9.52
5/29/2022 9:30:00 AM 15.79 60.422 0.157 7.31 101.9 9.55
5/29/2022 9:45:00 AM 15.84 60.512 0.157 7.31 106.4 9.59
5/29/2022 10:00:00 AM 15.94 60.692 0.157 7.33 92.57 9.66
5/29/2022 10:15:00 AM 16.02 60.836 0.157 7.34 107.2 9.68
5/29/2022 10:30:00 AM 16.07 60.926 0.157 7.34 109.3 9.66
5/29/2022 10:45:00 AM 16.14 61.052 0.158 7.35 96.38 9.69
5/29/2022 11:00:00 AM 16.33 61.394 0.157 7.36 122.4 9.74
5/29/2022 11:15:00 AM 16.53 61.754 0.157 7.37 118 9.76
5/29/2022 11:30:00 AM 16.73 62.114 0.158 7.38 125.9 9.78
5/29/2022 11:45:00 AM 16.95 62.51 0.157 7.4 160.6 9.78
5/29/2022 12:00:00 PM 17.19 62.942 0.157 7.41 137.4 9.75
5/29/2022 12:15:00 PM 17.48 63.464 0.157 7.42 129.2 9.74
5/29/2022 12:30:00 PM 17.76 63.968 0.157 7.43 121.8 9.78
5/29/2022 12:45:00 PM 18.03 64.454 0.157 7.44 123.2 9.77
5/29/2022 1:00:00 PM 18.16 64.688 0.157 7.45 119.2 9.71
5/29/2022 1:15:00 PM 18.29 64.922 0.157 7.46 142.4 9.7
5/29/2022 1:30:00 PM 18.41 65.138 0.157 7.46 107.2 9.67
5/29/2022 1:45:00 PM 18.49 65.282 0.157 7.46 124.2 9.64
5/29/2022 2:00:00 PM 18.63 65.534 0.157 7.47 89.08 9.65
5/29/2022 2:15:00 PM 18.83 65.894 0.157 7.47 93.78 9.66
5/29/2022 2:30:00 PM 19.17 66.506 0.157 7.48 100.2 9.67
5/29/2022 2:45:00 PM 19.25 66.65 0.157 7.48 97.74 9.66
5/29/2022 3:00:00 PM 19.34 66.812 0.157 7.48 95.28 9.61
5/29/2022 3:15:00 PM 19.53 67.154 0.157 7.49 106.8 9.57
5/29/2022 3:30:00 PM 19.53 67.154 0.158 7.49 96.69 9.48
5/29/2022 3:45:00 PM 19.66 67.388 0.157 7.48 104 9.41
5/29/2022 4:00:00 PM 19.74 67.532 0.158 7.48 98.9 9.37
5/29/2022 4:15:00 PM 19.83 67.694 0.158 7.49 98.8 9.36
5/29/2022 4:30:00 PM 19.88 67.784 0.158 7.48 116.4 9.31
5/29/2022 4:45:00 PM 19.85 67.73 0.158 7.47 120.4 9.21
5/29/2022 5:00:00 PM 19.85 67.73 0.158 7.47 106.8 9.2
5/29/2022 5:15:00 PM 19.73 67.514 0.158 7.45 117.8 9.16
5/29/2022 5:30:00 PM 19.68 67.424 0.158 7.44 131.9 9.11
5/29/2022 5:45:00 PM 19.65 67.37 0.158 7.43 153.1 9.1
5/29/2022 6:00:00 PM 19.58 67.244 0.158 7.42 136.7 9.07
5/29/2022 6:15:00 PM 19.48 67.064 0.158 7.41 132.2 9.03
5/29/2022 6:30:00 PM 19.38 66.884 0.158 7.41 131.5 8.99
5/29/2022 6:45:00 PM 19.3 66.74 0.158 7.38 146.3 8.96
5/29/2022 7:00:00 PM 19.26 66.668 0.158 7.37 126 8.95
5/29/2022 7:15:00 PM 19.22 66.596 0.158 7.36 107.5 8.87
5/29/2022 7:30:00 PM 19.2 66.56 0.158 7.36 105.4 8.83
5/29/2022 7:45:00 PM 19.17 66.506 0.158 7.34 119.7 8.78
5/29/2022 8:00:00 PM 19.11 66.398 0.158 7.32 155.6 8.7
5/29/2022 8:15:00 PM 19.04 66.272 0.159 7.31 113.4 8.7
5/29/2022 8:30:00 PM 18.97 66.146 0.159 7.31 119 8.67
5/29/2022 8:45:00 PM 18.89 66.002 0.159 7.29 121.9 8.65
5/29/2022 9:00:00 PM 18.79 65.82201 0.159 7.28 133.4 8.59
5/29/2022 9:15:00 PM 18.7 65.66 0.159 7.27 144.1 8.57
5/29/2022 9:30:00 PM 18.61 65.498 0.159 7.27 146.7 8.6
5/29/2022 9:45:00 PM 18.53 65.354 0.159 7.26 135.6 8.63
5/29/2022 10:00:00 PM 18.46 65.228 0.159 7.25 156.3 8.61
5/29/2022 10:15:00 PM 18.39 65.102 0.159 7.25 158.5 8.61
5/29/2022 10:30:00 PM 18.33 64.994 0.159 7.25 153.7 8.6
5/29/2022 10:45:00 PM 18.27 64.886 0.159 7.23 154.5 8.62
5/29/2022 11:00:00 PM 18.21 64.778 0.159 7.23 157.5 8.61
5/29/2022 11:15:00 PM 18.15 64.67 0.16 7.23 151.6 8.67
5/29/2022 11:30:00 PM 18.1 64.58 0.159 7.23 170 8.65
5/29/2022 11:45:00 PM 18.04 64.472 0.158 7.23 140.4 8.67
5/30/2022 12:00:00 AM 17.99 64.382 0.159 7.22 155.3 8.68
5/30/2022 12:15:00 AM 17.94 64.292 0.159 7.22 156.2 8.71
5/30/2022 12:30:00 AM 17.9 64.22 0.159 7.22 156.7 8.69
5/30/2022 12:45:00 AM 17.85 64.13 0.16 7.22 165.7 8.71
5/30/2022 1:00:00 AM 17.8 64.04 0.159 7.22 147.6 8.73
5/30/2022 1:15:00 AM 17.75 63.95 0.159 7.22 161.9 8.71
5/30/2022 1:30:00 AM 17.7 63.86 0.159 7.23 152.7 8.75
5/30/2022 1:45:00 AM 17.65 63.77 0.159 7.23 160.4 8.74
5/30/2022 2:00:00 AM 17.6 63.68 0.159 7.22 173.6 8.76
5/30/2022 2:15:00 AM 17.54 63.572 0.159 7.23 177 8.79
5/30/2022 2:30:00 AM 17.48 63.464 0.159 7.23 171.6 8.81
5/30/2022 2:45:00 AM 17.42 63.356 0.159 7.23 199.7 8.82
5/30/2022 3:00:00 AM 17.36 63.248 0.159 7.23 186.3 8.86
5/30/2022 3:15:00 AM 17.3 63.14 0.159 7.23 187.6 8.86
5/30/2022 3:30:00 AM 17.23 63.014 0.159 7.23 205.8 8.86
5/30/2022 3:45:00 AM 17.16 62.888 0.159 7.23 226.8 8.88
5/30/2022 4:00:00 AM 17.09 62.762 0.159 7.22 207.3 8.88
5/30/2022 4:15:00 AM 17.02 62.636 0.159 7.22 226.6 8.91
5/30/2022 4:30:00 AM 16.94 62.492 0.159 7.23 243.1 8.92
5/30/2022 4:45:00 AM 16.87 62.366 0.159 7.23 202.2 8.92
5/30/2022 5:00:00 AM 16.8 62.24 0.159 7.23 182.9 8.97
5/30/2022 5:15:00 AM 16.72 62.096 0.159 7.22 207.6 8.98
5/30/2022 5:30:00 AM 16.65 61.97 0.159 7.22 202.9 8.99
5/30/2022 5:45:00 AM 16.58 61.844 0.159 7.23 199.9 9.02
5/30/2022 6:00:00 AM 16.51 61.718 0.159 7.22 222 9.04
5/30/2022 6:15:00 AM 16.44 61.592 0.159 7.22 229.1 9.07
5/30/2022 6:30:00 AM 16.38 61.484 0.159 7.22 224.3 9.11
5/30/2022 6:45:00 AM 16.32 61.376 0.159 7.22 225.7 9.11
5/30/2022 7:00:00 AM 16.26 61.268 0.159 7.22 229.1 9.16
5/30/2022 7:15:00 AM 16.21 61.178 0.159 7.22 242.8 9.2
5/30/2022 7:30:00 AM 16.16 61.088 0.159 7.23 223.7 9.23
5/30/2022 7:45:00 AM 16.12 61.016 0.159 7.23 230.7 9.26
5/30/2022 8:00:00 AM 16.09 60.962 0.159 7.24 217.7 9.29
5/30/2022 8:15:00 AM 16.07 60.926 0.159 7.24 229.1 9.32
5/30/2022 8:30:00 AM 16.07 60.926 0.159 7.25 222.8 9.38
5/30/2022 8:45:00 AM 16.07 60.926 0.159 7.25 243 9.4
5/30/2022 9:00:00 AM 16.08 60.944 0.159 7.26 196.7 9.43
5/30/2022 9:15:00 AM 16.11 60.998 0.159 7.26 221.3 9.45
5/30/2022 9:30:00 AM 16.16 61.088 0.159 7.27 210.2 9.5
5/30/2022 9:45:00 AM 16.23 61.214 0.159 7.29 300.3 9.53
5/30/2022 10:00:00 AM 16.32 61.376 0.159 7.3 224.4 9.56
5/30/2022 10:15:00 AM 16.44 61.592 0.159 7.31 232.4 9.56
5/30/2022 10:30:00 AM 16.59 61.862 0.159 7.32 221.9 9.62
5/30/2022 10:45:00 AM 16.76 62.168 0.159 7.34 206.9 9.62
5/30/2022 11:00:00 AM 16.94 62.492 0.159 7.36 219.4 9.66
5/30/2022 11:15:00 AM 17.16 62.888 0.159 7.36 210.7 9.7
5/30/2022 11:30:00 AM 17.4 63.32 0.159 7.37 200.2 9.69
5/30/2022 11:45:00 AM 17.66 63.788 0.159 7.39 245.4 9.72
5/30/2022 12:00:00 PM 17.96 64.328 0.159 7.41 262.2 9.72
5/30/2022 12:15:00 PM 18.27 64.886 0.159 7.42 232 9.69
5/30/2022 12:30:00 PM 18.59 65.462 0.159 7.44 227.3 9.71
5/30/2022 12:45:00 PM 18.91 66.038 0.159 7.45 211.7 9.69
5/30/2022 1:00:00 PM 19.25 66.65 0.159 7.46 225.4 9.67
5/30/2022 1:15:00 PM 19.6 67.28 0.159 7.47 234.6 9.61
5/30/2022 1:30:00 PM 19.93 67.874 0.159 7.49 225.7 9.63
5/30/2022 1:45:00 PM 20.27 68.486 0.159 7.5 222 9.62
5/30/2022 2:00:00 PM 20.56 69.008 0.159 7.51 223.4 9.56
5/30/2022 2:15:00 PM 20.8 69.44 0.16 7.52 208.8 9.53
5/30/2022 2:30:00 PM 21.02 69.836 0.16 7.52 248.1 9.48
5/30/2022 2:45:00 PM 21.2 70.16 0.16 7.53 234.2 9.42
5/30/2022 3:00:00 PM 21.34 70.412 0.16 7.53 192.8 9.38
5/30/2022 3:15:00 PM 21.46 70.628 0.16 7.53 244.8 9.36
5/30/2022 3:30:00 PM 21.56 70.808 0.16 7.53 217.8 9.33
5/30/2022 3:45:00 PM 21.59 70.862 0.16 7.52 228.6 9.24
5/30/2022 4:00:00 PM 21.57 70.826 0.16 7.53 228 9.19
5/30/2022 4:15:00 PM 21.56 70.808 0.16 7.52 260.8 9.14
5/30/2022 4:30:00 PM 21.49 70.682 0.16 7.51 242.7 9.08
5/30/2022 4:45:00 PM 21.47 70.646 0.16 7.5 258.9 9.03
5/30/2022 5:00:00 PM 21.43 70.574 0.16 7.49 242.3 8.98
5/30/2022 5:15:00 PM 21.41 70.538 0.16 7.47 250.9 8.94
5/30/2022 5:30:00 PM 21.4 70.52 0.16 7.47 224.2 8.89
5/30/2022 5:45:00 PM 21.37 70.466 0.16 7.45 244.1 8.86
5/30/2022 6:00:00 PM 21.33 70.394 0.16 7.45 226.6 8.79
5/30/2022 6:15:00 PM 21.26 70.268 0.16 7.43 211.8 8.73
5/30/2022 6:30:00 PM 21.17 70.106 0.16 7.41 211.4 8.69
5/30/2022 6:45:00 PM 21.08 69.944 0.16 7.39 207.2 8.63
5/30/2022 7:00:00 PM 21 69.8 0.16 7.38 196.5 8.58
5/30/2022 7:15:00 PM 20.93 69.674 0.16 7.36 189 8.54
5/30/2022 7:30:00 PM 20.86 69.548 0.16 7.34 220.7 8.5
5/30/2022 7:45:00 PM 20.79 69.422 0.16 7.32 212.1 8.47
5/30/2022 8:00:00 PM 20.72 69.296 0.16 7.31 230 8.43
5/30/2022 8:15:00 PM 20.65 69.17 0.159 7.3 210.1 8.43
5/30/2022 8:30:00 PM 20.58 69.044 0.16 7.28 215.5 8.38
5/30/2022 8:45:00 PM 20.5 68.9 0.16 7.27 237.6 8.31
5/30/2022 9:00:00 PM 20.42 68.756 0.16 7.25 204.8 8.34
5/30/2022 9:15:00 PM 20.33 68.594 0.161 7.23 234.2 8.3
5/30/2022 9:30:00 PM 20.25 68.45 0.16 7.22 215.9 8.36
5/30/2022 9:45:00 PM 20.17 68.306 0.161 7.22 224.5 8.29
5/30/2022 10:00:00 PM 20.1 68.18 0.161 7.21 218.4 8.3
5/30/2022 10:15:00 PM 20.03 68.054 0.161 7.21 224 8.3
5/30/2022 10:30:00 PM 19.96 67.92799 0.161 7.21 235.2 8.27
5/30/2022 10:45:00 PM 19.9 67.82 0.161 7.19 255.1 8.29
5/30/2022 11:00:00 PM 19.83 67.694 0.161 7.19 184.4 8.3
5/30/2022 11:15:00 PM 19.77 67.586 0.161 7.19 287.7 8.3
5/30/2022 11:30:00 PM 19.71 67.478 0.16 7.17 364.6 8.31
5/30/2022 11:45:00 PM 19.65 67.37 0.161 7.17 505.1 8.3
5/31/2022 12:00:00 AM 19.6 67.28 0.161 7.18 224.2 8.31
5/31/2022 12:15:00 AM 19.54 67.172 0.161 7.18 231.5 8.32
5/31/2022 12:30:00 AM 19.49 67.082 0.161 7.18 256.9 8.34
5/31/2022 12:45:00 AM 19.44 66.992 0.161 7.18 258 8.36
5/31/2022 1:00:00 AM 19.39 66.902 0.161 7.18 253.8 8.36
5/31/2022 1:15:00 AM 19.34 66.812 0.161 7.18 360.7 8.38
5/31/2022 1:30:00 AM 19.29 66.722 0.161 7.19 272.8 8.37
5/31/2022 1:45:00 AM 19.24 66.632 0.161 7.17 271.6 8.38
5/31/2022 2:00:00 AM 19.19 66.542 0.161 7.18 238.1 8.39
5/31/2022 2:15:00 AM 19.13 66.434 0.16 7.18 240.5 8.42
5/31/2022 2:30:00 AM 19.07 66.326 0.16 7.18 255.8 8.38
5/31/2022 2:45:00 AM 19.02 66.236 0.159 7.18 216.1 8.39
5/31/2022 3:00:00 AM 18.96 66.128 0.161 7.18 166.2 8.43
5/31/2022 3:15:00 AM 18.9 66.02 0.161 7.18 190.4 8.41
5/31/2022 3:30:00 AM 18.84 65.912 0.161 7.18 200 8.43
5/31/2022 3:45:00 AM 18.78 65.804 0.162 7.19 208.4 8.45
5/31/2022 4:00:00 AM 18.71 65.67799 0.161 7.18 194 8.47
5/31/2022 4:15:00 AM 18.64 65.552 0.162 7.19 196.2 8.5
5/31/2022 4:30:00 AM 18.57 65.426 0.162 7.18 203.9 8.5
5/31/2022 4:45:00 AM 18.51 65.318 0.162 7.19 178.3 8.53
5/31/2022 5:00:00 AM 18.44 65.192 0.162 7.18 184.7 8.52
5/31/2022 5:15:00 AM 18.36 65.048 0.162 7.18 205.2 8.55
5/31/2022 5:30:00 AM 18.29 64.922 0.162 7.18 151.4 8.58
5/31/2022 5:45:00 AM 18.22 64.796 0.162 7.18 174.5 8.59
5/31/2022 6:00:00 AM 18.15 64.67 0.162 7.18 159.9 8.62
5/31/2022 6:15:00 AM 18.08 64.544 0.162 7.18 201.4 8.63
5/31/2022 6:30:00 AM 18.02 64.436 0.162 7.18 220 8.65
5/31/2022 6:45:00 AM 17.95 64.31 0.162 7.18 215.3 8.67
5/31/2022 7:00:00 AM 17.89 64.202 0.162 7.2 215.3 8.72
5/31/2022 7:15:00 AM 17.83 64.094 0.162 7.2 197.8 8.75
5/31/2022 7:30:00 AM 17.78 64.004 0.162 7.2 204.9 8.77
5/31/2022 7:45:00 AM 17.74 63.932 0.162 7.2 222.5 8.82
5/31/2022 8:00:00 AM 17.7 63.86 0.162 7.21 193.8 8.84
5/31/2022 8:15:00 AM 17.67 63.806 0.162 7.21 247.7 8.87
5/31/2022 8:30:00 AM 17.66 63.788 0.162 7.22 246.7 8.91
5/31/2022 8:45:00 AM 17.65 63.77 0.162 7.22 284.9 8.95
5/31/2022 9:00:00 AM 17.66 63.788 0.162 7.22 205.2 8.97
5/31/2022 9:15:00 AM 17.68 63.824 0.162 7.23 180.2 9.01
5/31/2022 9:30:00 AM 17.72 63.896 0.162 7.24 160.3 9.06
5/31/2022 9:45:00 AM 17.79 64.022 0.162 7.27 196.4 9.11
5/31/2022 10:00:00 AM 17.88 64.184 0.162 7.28 202.9 9.15
5/31/2022 10:15:00 AM 17.99 64.382 0.161 7.29 203.9 9.19
5/31/2022 10:30:00 AM 18.12 64.616 0.161 7.31 123.4 9.19
5/31/2022 10:45:00 AM 18.29 64.922 0.161 7.32 163.8 9.28
5/31/2022 11:00:00 AM 18.47 65.246 0.162 7.34 163.9 9.28
5/31/2022 11:15:00 AM 18.68 65.624 0.161 7.36 181.3 9.33
5/31/2022 11:30:00 AM 18.9 66.02 0.161 7.37 190.6 9.35
5/31/2022 11:45:00 AM 19.16 66.488 0.161 7.39 201.7 9.34
5/31/2022 12:00:00 PM 19.44 66.992 0.161 7.41 203.5 9.38
5/31/2022 12:15:00 PM 19.77 67.586 0.161 7.41 264.4 9.36
5/31/2022 12:30:00 PM 20.1 68.18 0.161 7.44 151.2 9.35
5/31/2022 12:45:00 PM 20.41 68.738 0.161 7.45 209.9 9.33
5/31/2022 1:00:00 PM 20.72 69.296 0.161 7.46 192.3 9.34
5/31/2022 1:15:00 PM 21.06 69.908 0.161 7.47 124.8 9.37
5/31/2022 1:30:00 PM 21.37 70.466 0.161 7.5 166.6 9.3
5/31/2022 1:45:00 PM 21.69 71.042 0.161 7.5 195.5 9.3
5/31/2022 2:00:00 PM 21.98 71.564 0.161 7.51 149.3 9.27
5/31/2022 2:15:00 PM 22.25 72.05 0.161 7.52 151.1 9.22
5/31/2022 2:30:00 PM 22.44 72.392 0.161 7.52 158.2 9.2
5/31/2022 2:45:00 PM 22.61 72.698 0.161 7.52 155.9 9.14
5/31/2022 3:00:00 PM 22.81 73.058 0.162 7.53 149.6 9.11
5/31/2022 3:15:00 PM 22.92 73.256 0.162 7.55 156.8 9.1
5/31/2022 3:30:00 PM 23 73.4 0.162 7.55 154 9.08
5/31/2022 3:45:00 PM 22.96 73.328 0.162 7.55 147.2 9.03
5/31/2022 4:00:00 PM 22.97 73.346 0.162 7.54 141.2 8.95
5/31/2022 4:15:00 PM 22.91 73.238 0.162 7.54 185.6 8.88
5/31/2022 4:30:00 PM 22.87 73.166 0.162 7.52 129.5 8.85
5/31/2022 4:45:00 PM 22.81 73.058 0.162 7.51 133.5 8.73
5/31/2022 5:00:00 PM 22.71 72.878 0.162 7.5 138.2 8.75
5/31/2022 5:15:00 PM 22.65 72.77 0.162 7.5 150.8 8.7
5/31/2022 5:30:00 PM 22.6 72.68 0.162 7.49 149.3 8.67
5/31/2022 5:45:00 PM 22.56 72.608 0.162 7.47 145.5 8.66
5/31/2022 6:00:00 PM 22.52 72.536 0.162 7.46 144.8 8.59
5/31/2022 6:15:00 PM 22.45 72.41 0.162 7.44 138 8.52
5/31/2022 6:30:00 PM 22.36 72.248 0.162 7.44 150.5 8.48
5/31/2022 6:45:00 PM 22.25 72.05 0.163 7.41 141.6 8.41
5/31/2022 7:00:00 PM 22.14 71.852 0.162 7.39 147 8.37
5/31/2022 7:15:00 PM 22.03 71.654 0.162 7.37 152.2 8.3
5/31/2022 7:30:00 PM 21.93 71.474 0.162 7.34 147.3 8.35
5/31/2022 7:45:00 PM 21.84 71.312 0.162 7.33 143 8.23
5/31/2022 8:00:00 PM 21.75 71.15 0.162 7.32 150.1 8.21
5/31/2022 8:15:00 PM 21.67 71.006 0.162 7.3 142.4 8.22
5/31/2022 8:30:00 PM 21.6 70.88 0.162 7.27 154.9 8.14
5/31/2022 8:45:00 PM 21.52 70.736 0.162 7.27 136.6 8.11
5/31/2022 9:00:00 PM 21.44 70.592 0.162 7.24 143.2 8.1
5/31/2022 9:15:00 PM 21.35 70.43 0.162 7.23 160.7 8.08
5/31/2022 9:30:00 PM 21.27 70.286 0.162 7.22 158.5 8.06
5/31/2022 9:45:00 PM 21.19 70.142 0.163 7.2 169.5 8.03
5/31/2022 10:00:00 PM 21.11 69.998 0.162 7.2 147.2 7.96
5/31/2022 10:15:00 PM 21.03 69.854 0.162 7.19 163.4 7.97
5/31/2022 10:30:00 PM 20.95 69.71 0.162 7.19 148.7 7.97
5/31/2022 10:45:00 PM 20.88 69.584 0.162 7.18 146.5 7.99
5/31/2022 11:00:00 PM 20.8 69.44 0.162 7.18 143.3 7.98
5/31/2022 11:15:00 PM 20.73 69.314 0.162 7.18 152.7 7.96
5/31/2022 11:30:00 PM 20.66 69.188 0.162 7.17 151.8 7.98
5/31/2022 11:45:00 PM 20.59 69.062 0.161 7.17 149.7 7.99
6/1/2022 12:00:00 AM 20.53 68.954 0.162 7.17 152.1 7.95
6/1/2022 12:15:00 AM 20.46 68.828 0.162 7.15 172.8 8.01
6/1/2022 12:30:00 AM 20.39 68.702 0.162 7.15 175.9 8.02
6/1/2022 12:45:00 AM 20.33 68.594 0.162 7.16 154.6 8.03
6/1/2022 1:00:00 AM 20.27 68.486 0.162 7.16 155.2 8.04
6/1/2022 1:15:00 AM 20.21 68.378 0.162 7.15 167.3 8.04
6/1/2022 1:30:00 AM 20.14 68.252 0.162 7.17 165.6 8.03
6/1/2022 1:45:00 AM 20.09 68.162 0.162 7.13 179.3 7.97
6/1/2022 2:00:00 AM 20.03 68.054 0.162 7.15 173.6 8.06
6/1/2022 2:15:00 AM 19.97 67.946 0.162 7.16 158.1 8.09
6/1/2022 2:30:00 AM 19.91 67.838 0.162 7.14 182.6 8.02
6/1/2022 2:45:00 AM 19.85 67.73 0.162 7.15 188 8.1
6/1/2022 3:00:00 AM 19.79 67.622 0.163 7.15 200.6 8.11
6/1/2022 3:15:00 AM 19.73 67.514 0.163 7.15 198.5 8.12
6/1/2022 3:30:00 AM 19.67 67.406 0.163 7.15 205.4 8.15
6/1/2022 3:45:00 AM 19.61 67.298 0.163 7.15 214.1 8.14
6/1/2022 4:00:00 AM 19.55 67.19 0.163 7.15 197.7 8.19
6/1/2022 4:15:00 AM 19.48 67.064 0.163 7.15 180.6 8.08
6/1/2022 4:30:00 AM 19.42 66.956 0.163 7.15 172.2 8.17
6/1/2022 4:45:00 AM 19.35 66.83 0.163 7.15 206 8.16
6/1/2022 5:00:00 AM 19.28 66.704 0.163 7.16 219.3 8.15
6/1/2022 5:15:00 AM 19.22 66.596 0.163 7.16 204.9 8.26
6/1/2022 5:30:00 AM 19.14 66.452 0.163 7.15 228.9 8.23
6/1/2022 5:45:00 AM 19.07 66.326 0.163 7.16 210 8.28
6/1/2022 6:00:00 AM 19.01 66.218 0.163 7.16 216.2 8.23
6/1/2022 6:15:00 AM 18.95 66.11 0.163 7.15 209.9 8.24
6/1/2022 6:30:00 AM 18.89 66.002 0.163 7.16 236 8.33
6/1/2022 6:45:00 AM 18.83 65.894 0.163 7.16 231.3 8.31
6/1/2022 7:00:00 AM 18.77 65.786 0.163 7.17 234.7 8.38
6/1/2022 7:15:00 AM 18.72 65.696 0.163 7.18 275.3 8.36
6/1/2022 7:30:00 AM 18.67 65.606 0.163 7.17 316.5 8.35
6/1/2022 7:45:00 AM 18.63 65.534 0.163 7.18 217.2 8.63
6/1/2022 8:00:00 AM 18.59 65.462 0.163 7.19 205.7 8.42
6/1/2022 8:15:00 AM 18.56 65.408 0.163 7.18 201.8 8.49
6/1/2022 8:30:00 AM 18.55 65.39 0.163 7.2 204.7 8.6
6/1/2022 8:45:00 AM 18.54 65.372 0.163 7.18 213.3 8.58
6/1/2022 9:00:00 AM 18.55 65.39 0.163 7.19 230.3 8.55
6/1/2022 9:15:00 AM 18.57 65.426 0.163 7.21 218.4 8.61
6/1/2022 9:30:00 AM 18.61 65.498 0.163 7.23 221 8.7
6/1/2022 9:45:00 AM 18.66 65.588 0.163 7.24 230.7 8.66
6/1/2022 10:00:00 AM 18.74 65.732 0.163 7.26 235.3 8.76
6/1/2022 10:15:00 AM 18.84 65.912 0.161 7.26 249.8 8.83
6/1/2022 10:30:00 AM 18.97 66.146 0.163 7.28 237.1 8.88
6/1/2022 10:45:00 AM 19.13 66.434 0.163 7.3 243.7 8.98
6/1/2022 11:00:00 AM 19.29 66.722 0.162 7.32 231.6 8.92
6/1/2022 11:15:00 AM 19.49 67.082 0.162 7.33 250.5 9.01
6/1/2022 11:30:00 AM 19.7 67.46 0.162 7.34 253.3 9.05
6/1/2022 11:45:00 AM 19.93 67.874 0.162 7.36 205 9.07
6/1/2022 12:00:00 PM 20.22 68.396 0.162 7.38 244.3 9.08
6/1/2022 12:15:00 PM 20.5 68.9 0.162 7.4 209.4 9.07
6/1/2022 12:30:00 PM 20.8 69.44 0.162 7.42 222.2 9.07
6/1/2022 12:45:00 PM 21.04 69.872 0.162 7.44 212 9.07
6/1/2022 1:00:00 PM 21.29 70.32201 0.162 7.45 217.3 9.09
6/1/2022 1:15:00 PM 21.57 70.826 0.162 7.46 219.1 9.1
6/1/2022 1:30:00 PM 21.86 71.348 0.162 7.47 221.6 9.03
6/1/2022 1:45:00 PM 22.18 71.924 0.162 7.51 216.6 8.96
6/1/2022 2:00:00 PM 22.44 72.392 0.162 7.51 216.5 9.09
6/1/2022 2:15:00 PM 22.56 72.608 0.162 7.51 228.1 8.97
6/1/2022 2:30:00 PM 22.75 72.95 0.162 7.52 240.8 8.95
6/1/2022 2:45:00 PM 22.97 73.346 0.163 7.52 238.9 8.91
6/1/2022 3:00:00 PM 23.12 73.616 0.162 7.54 216.2 8.9
6/1/2022 3:15:00 PM 23.22 73.796 0.163 7.54 195.5 8.83
6/1/2022 3:30:00 PM 23.29 73.922 0.154 7.55 202.9 8.85
6/1/2022 3:45:00 PM 23.29 73.922 0.163 7.54 224.6 8.77
6/1/2022 4:00:00 PM 23.22 73.796 0.163 7.56 199.5 8.74
6/1/2022 4:15:00 PM 23.15 73.67 0.162 7.54 229.9 8.73
6/1/2022 4:30:00 PM 23.1 73.58 0.162 7.54 227.7 8.65
6/1/2022 4:45:00 PM 22.98 73.364 0.163 7.54 213.8 8.58
6/1/2022 5:00:00 PM 22.92 73.256 0.162 7.52 214 8.58
6/1/2022 5:15:00 PM 22.92 73.256 0.161 7.51 216.8 8.57
6/1/2022 5:30:00 PM 22.86 73.148 0.165 7.5 229.6 8.55
6/1/2022 5:45:00 PM 22.81 73.058 0.161 7.49 571.2 8.49
6/1/2022 6:00:00 PM 22.75 72.95 0.161 7.48 230.2 8.44
6/1/2022 6:15:00 PM 22.67 72.806 0.161 7.47 224.3 8.36
6/1/2022 6:30:00 PM 22.58 72.644 0.161 7.44 213.9 8.32
6/1/2022 6:45:00 PM 22.51 72.518 0.161 7.43 218.3 8.24
6/1/2022 7:00:00 PM 22.43 72.374 0.162 7.42 205.3 8.17
6/1/2022 7:15:00 PM 22.38 72.284 0.161 7.39 219 8.16
6/1/2022 7:30:00 PM 22.31 72.158 0.162 7.38 217.2 8.12
6/1/2022 7:45:00 PM 22.24 72.032 0.163 7.35 220.5 8.09
6/1/2022 8:00:00 PM 22.15 71.87 0.163 7.34 206.4 7.89
6/1/2022 8:15:00 PM 22.07 71.726 0.163 7.32 207 7.95
6/1/2022 8:30:00 PM 21.98 71.564 0.163 7.3 202 7.93
6/1/2022 8:45:00 PM 21.91 71.438 0.163 7.28 210.1 7.85
6/1/2022 9:00:00 PM 21.83 71.294 0.163 7.27 231.1 7.79
6/1/2022 9:15:00 PM 21.75 71.15 0.163 7.26 221.4 7.81
6/1/2022 9:30:00 PM 21.67 71.006 0.163 7.24 214.3 7.81
6/1/2022 9:45:00 PM 21.59 70.862 0.163 7.23 230.2 7.76
6/1/2022 10:00:00 PM 21.51 70.718 0.164 7.21 233.4 7.74
6/1/2022 10:15:00 PM 21.43 70.574 0.163 7.2 199.2 7.75
6/1/2022 10:30:00 PM 21.35 70.43 0.163 7.19 199.3 7.65
6/1/2022 10:45:00 PM 21.28 70.304 0.163 7.17 192.9 7.59
6/1/2022 11:00:00 PM 21.21 70.17799 0.163 7.14 221.5 7.65
6/1/2022 11:15:00 PM 21.15 70.07 0.163 7.16 201.7 7.72
6/1/2022 11:30:00 PM 21.09 69.962 0.163 7.15 196.8 7.66
6/1/2022 11:45:00 PM 21.03 69.854 0.163 7.17 203.3 7.73
6/2/2022 12:00:00 AM 20.98 69.764 0.164 7.18 205.6 7.7
6/2/2022 12:15:00 AM 20.94 69.692 0.163 7.19 216.1 7.68
6/2/2022 12:30:00 AM 20.89 69.602 0.163 7.18 213.8 7.74
6/2/2022 12:45:00 AM 20.83 69.494 0.163 7.2 266 7.61
6/2/2022 1:00:00 AM 20.78 69.404 0.163 7.21 209.5 7.77
6/2/2022 1:15:00 AM 20.73 69.314 0.163 7.21 227 7.77
6/2/2022 1:30:00 AM 20.68 69.224 0.163 7.21 316.2 7.8
6/2/2022 1:45:00 AM 20.64 69.152 0.163 7.21 195.3 7.78
6/2/2022 2:00:00 AM 20.59 69.062 0.163 7.21 189.5 7.81
6/2/2022 2:15:00 AM 20.54 68.972 0.164 7.21 210.3 7.83
6/2/2022 2:30:00 AM 20.5 68.9 0.165 7.21 199.3 7.8
6/2/2022 2:45:00 AM 20.45 68.81 0.163 7.21 210.1 7.84
6/2/2022 3:00:00 AM 20.4 68.72 0.163 7.22 241.1 7.8
6/2/2022 3:15:00 AM 20.35 68.63 0.163 7.21 214.7 7.87
6/2/2022 3:30:00 AM 20.3 68.54 0.163 7.22 197.6 7.86
6/2/2022 3:45:00 AM 20.25 68.45 0.166 7.22 199.2 7.9
6/2/2022 4:00:00 AM 20.2 68.36 0.163 7.22 230.7 7.93
6/2/2022 4:15:00 AM 20.14 68.252 0.163 7.22 223 7.9
6/2/2022 4:30:00 AM 20.08 68.144 0.164 7.23 215.3 7.92
6/2/2022 4:45:00 AM 20.03 68.054 0.164 7.21 218.8 7.9
6/2/2022 5:00:00 AM 19.97 67.946 0.163 7.22 214.5 7.94
6/2/2022 5:15:00 AM 19.92 67.856 0.164 7.22 204.9 7.94
6/2/2022 5:30:00 AM 19.86 67.748 0.164 7.22 210.6 8.04
6/2/2022 5:45:00 AM 19.8 67.64 0.164 7.22 235.3 7.98
6/2/2022 6:00:00 AM 19.74 67.532 0.163 7.23 187.1 8.01
6/2/2022 6:15:00 AM 19.69 67.442 0.164 7.24 195.2 8.01
6/2/2022 6:30:00 AM 19.64 67.352 0.164 7.23 222.6 8
6/2/2022 6:45:00 AM 19.58 67.244 0.166 7.24 193.2 8.11
6/2/2022 7:00:00 AM 19.53 67.154 0.162 7.24 236.8 8.15
6/2/2022 7:15:00 AM 19.49 67.082 0.163 7.25 229.5 8.15
6/2/2022 7:30:00 AM 19.45 67.01 0.163 7.27 217.7 8.23
6/2/2022 7:45:00 AM 19.42 66.956 0.165 7.26 215.1 8.24
6/2/2022 8:00:00 AM 19.39 66.902 0.163 7.27 227.4 8.23
6/2/2022 8:15:00 AM 19.37 66.866 0.163 7.28 239.6 8.29
6/2/2022 8:30:00 AM 19.36 66.848 0.163 7.29 243.7 8.43
6/2/2022 8:45:00 AM 19.34 66.812 0.156 7.3 269.8 8.41
6/2/2022 9:00:00 AM 19.34 66.812 0.153 7.31 318.2 8.52
6/2/2022 9:15:00 AM 19.35 66.83 0.163 7.33 407.7 8.51
6/2/2022 9:30:00 AM 19.35 66.83 0.163 7.33 325.5 8.69
6/2/2022 9:45:00 AM 19.38 66.884 0.163 7.34 247.9 8.64
6/2/2022 10:00:00 AM 19.43 66.974 0.164 7.35 283.5 8.47
6/2/2022 10:15:00 AM 19.5 67.1 0.163 7.37 278.3 8.57
6/2/2022 10:30:00 AM 19.61 67.298 0.163 7.38 245.8 8.54
6/2/2022 10:45:00 AM 19.72 67.496 0.163 7.39 230.4 8.67
6/2/2022 11:00:00 AM 19.86 67.748 0.161 7.41 226.2 8.79
6/2/2022 11:15:00 AM 19.97 67.946 0.163 7.43 210.8 8.76
6/2/2022 11:30:00 AM 20.13 68.234 0.163 7.44 248.2 8.76
6/2/2022 11:45:00 AM 20.28 68.504 0.163 7.47 210.3 8.83
6/2/2022 12:00:00 PM 20.45 68.81 0.165 7.47 206.7 8.91
6/2/2022 12:15:00 PM 20.56 69.008 0.163 7.49 222.1 8.86
6/2/2022 12:30:00 PM 20.68 69.224 0.163 7.5 245.5 8.86
6/2/2022 12:45:00 PM 20.85 69.53 0.161 7.51 334.8 8.84
6/2/2022 1:00:00 PM 20.96 69.728 0.161 7.5 281.3 8.8
6/2/2022 1:15:00 PM 21.05 69.89 0.163 7.51 247 8.78
6/2/2022 1:30:00 PM 21.12 70.016 0.162 7.52 289.2 8.81
6/2/2022 1:45:00 PM 21.21 70.17799 0.162 7.53 183.6 8.86
6/2/2022 2:00:00 PM 21.4 70.52 0.162 7.56 151.9 8.89
6/2/2022 2:15:00 PM 21.4 70.52 0.16 7.57 135.9 8.84
6/2/2022 2:30:00 PM 21.39 70.502 0.162 7.56 163.7 8.79
6/2/2022 2:45:00 PM 21.42 70.556 0.162 7.56 165.5 8.8
6/2/2022 3:00:00 PM 21.42 70.556 0.161 7.57 169 8.81
6/2/2022 3:15:00 PM 21.49 70.682 0.162 7.58 206.7 8.8
6/2/2022 3:30:00 PM 21.6 70.88 0.162 7.59 184.2 8.85
6/2/2022 3:45:00 PM 21.73 71.114 0.162 7.6 181.9 8.85
6/2/2022 4:00:00 PM 21.73 71.114 0.162 7.59 175.4 8.77
6/2/2022 4:15:00 PM 21.72 71.096 0.162 7.61 205.9 8.8
6/2/2022 4:30:00 PM 21.65 70.97 0.162 7.62 203.4 8.72
6/2/2022 4:45:00 PM 21.6 70.88 0.162 7.59 185.4 8.62
6/2/2022 5:00:00 PM 21.59 70.862 0.162 7.57 217.2 8.57
6/2/2022 5:15:00 PM 21.54 70.772 0.162 7.55 270.2 8.45
6/2/2022 5:30:00 PM 21.5 70.7 0.163 7.52 185.4 8.46
6/2/2022 5:45:00 PM 21.45 70.61 0.162 7.5 171.4 8.36
6/2/2022 6:00:00 PM 21.39 70.502 0.163 7.49 157.4 8.25
6/2/2022 6:15:00 PM 21.32 70.376 0.163 7.47 197.1 8.26
6/2/2022 6:30:00 PM 21.24 70.232 0.163 7.46 163.2 8.22
6/2/2022 6:45:00 PM 21.16 70.088 0.162 7.43 181.2 8.29
6/2/2022 7:00:00 PM 21.09 69.962 0.162 7.41 182.9 8.16
6/2/2022 7:15:00 PM 21.02 69.836 0.161 7.4 3699 8.07
6/2/2022 7:30:00 PM 20.97 69.746 0.162 7.38 144.7 7.99
6/2/2022 7:45:00 PM 20.92 69.656 0.162 7.38 182.4 7.98
6/2/2022 8:00:00 PM 20.86 69.548 0.162 7.36 181.9 8.03
6/2/2022 8:15:00 PM 20.8 69.44 0.162 7.35 211.6 7.84
6/2/2022 8:30:00 PM 20.73 69.314 0.162 7.33 213.5 7.78
6/2/2022 8:45:00 PM 20.65 69.17 0.162 7.32 227.3 7.79
6/2/2022 9:00:00 PM 20.58 69.044 0.162 7.29 200.6 7.77
6/2/2022 9:15:00 PM 20.5 68.9 0.163 7.28 193.5 7.68
6/2/2022 9:30:00 PM 20.43 68.774 0.162 7.25 218.2 7.63
6/2/2022 9:45:00 PM 20.35 68.63 0.162 7.25 203.7 7.73
6/2/2022 10:00:00 PM 20.27 68.486 0.173 7.24 206.7 7.78
6/2/2022 10:15:00 PM 20.2 68.36 0.162 7.25 180.7 7.66
6/2/2022 10:30:00 PM 20.12 68.216 0.162 7.22 183.6 7.95
6/2/2022 10:45:00 PM 20.06 68.108 0.163 7.21 186.1 7.89
6/2/2022 11:00:00 PM 20 68 0.163 7.22 182.5 7.9
6/2/2022 11:15:00 PM 19.95 67.91 0.163 7.21 171.1 7.76
6/2/2022 11:30:00 PM 19.9 67.82 0.163 7.19 206.7 7.91
6/2/2022 11:45:00 PM 19.86 67.748 0.163 7.2 199.5 7.82
6/3/2022 12:00:00 AM 19.81 67.658 0.163 7.18 168.2 7.94
6/3/2022 12:15:00 AM 19.76 67.568 0.163 7.18 212.7 7.9
6/3/2022 12:30:00 AM 19.71 67.478 0.163 7.18 524.6 7.89
6/3/2022 12:45:00 AM 19.66 67.388 0.163 7.18 299.6 7.88
6/3/2022 1:00:00 AM 19.62 67.316 0.163 7.18 541.8 7.86
6/3/2022 1:15:00 AM 19.58 67.244 0.163 7.19 330 7.84
6/3/2022 1:30:00 AM 19.53 67.154 0.163 7.17 295.3 7.87
6/3/2022 1:45:00 AM 19.49 67.082 0.163 7.18 3065 7.96
6/3/2022 2:00:00 AM 19.44 66.992 0.163 7.18 239.2 7.87
6/3/2022 2:15:00 AM 19.39 66.902 0.163 7.18 334.2 8
6/3/2022 2:30:00 AM 19.33 66.794 0.163 7.18 246.9 7.96
6/3/2022 2:45:00 AM 19.27 66.686 0.163 7.18 239 7.99
6/3/2022 3:00:00 AM 19.22 66.596 0.163 7.17 216.9 8.08
6/3/2022 3:15:00 AM 19.16 66.488 0.163 7.18 205.1 8.07
6/3/2022 3:30:00 AM 19.11 66.398 0.163 7.18 215.7 7.97
6/3/2022 3:45:00 AM 19.04 66.272 0.163 7.17 206.5 7.92
6/3/2022 4:00:00 AM 18.98 66.164 0.168 7.19 225 7.95
6/3/2022 4:15:00 AM 18.92 66.056 0.163 7.18 207.8 7.98
6/3/2022 4:30:00 AM 18.85 65.93 0.163 7.18 224.7 8.04
6/3/2022 4:45:00 AM 18.78 65.804 0.163 7.17 242.6 8.05
6/3/2022 5:00:00 AM 18.73 65.714 0.163 7.18 239.6 7.91
6/3/2022 5:15:00 AM 18.68 65.624 0.163 7.17 250.9 8.02
6/3/2022 5:30:00 AM 18.63 65.534 0.167 7.17 219.6 8.06
6/3/2022 5:45:00 AM 18.59 65.462 0.164 7.17 218.5 8.07
6/3/2022 6:00:00 AM 18.54 65.372 0.163 7.19 222.8 8.08
6/3/2022 6:15:00 AM 18.5 65.3 0.163 7.18 225 8.16
6/3/2022 6:30:00 AM 18.45 65.21 0.163 7.19 216 8.19
6/3/2022 6:45:00 AM 18.41 65.138 0.163 7.21 221.1 8.23
6/3/2022 7:00:00 AM 18.36 65.048 0.163 7.22 208 8.26
6/3/2022 7:15:00 AM 18.3 64.94 0.164 7.22 196.5 8.33
6/3/2022 7:30:00 AM 18.24 64.832 0.164 7.22 210 8.34
6/3/2022 7:45:00 AM 18.19 64.742 0.164 7.24 199.1 8.45
6/3/2022 8:00:00 AM 18.15 64.67 0.164 7.25 190.6 8.39
6/3/2022 8:15:00 AM 18.13 64.634 0.163 7.26 194.9 8.43
6/3/2022 8:30:00 AM 18.1 64.58 0.163 7.27 217.7 8.47
6/3/2022 8:45:00 AM 18.08 64.544 0.163 7.27 204.3 8.49
6/3/2022 9:00:00 AM 18.06 64.508 0.163 7.29 199.8 8.55
6/3/2022 9:15:00 AM 18.06 64.508 0.163 7.29 212.2 8.56
6/3/2022 9:30:00 AM 18.07 64.526 0.163 7.31 208 8.57
6/3/2022 9:45:00 AM 18.08 64.544 0.163 7.31 214.3 8.64
6/3/2022 10:00:00 AM 18.11 64.598 0.163 7.32 206.7 8.75
6/3/2022 10:15:00 AM 18.17 64.706 0.163 7.35 205.4 8.8
6/3/2022 10:30:00 AM 18.24 64.832 0.163 7.36 199.3 8.91
6/3/2022 10:45:00 AM 18.33 64.994 0.163 7.38 206.6 8.89
6/3/2022 11:00:00 AM 18.44 65.192 0.163 7.39 211.8 8.91
6/3/2022 11:15:00 AM 18.58 65.444 0.163 7.41 204.4 8.99
6/3/2022 11:30:00 AM 18.73 65.714 0.163 7.44 203.5 8.99
6/3/2022 11:45:00 AM 18.89 66.002 0.163 7.45 216 9.04
6/3/2022 12:00:00 PM 19.06 66.308 0.163 7.48 218.4 9.1
6/3/2022 12:15:00 PM 19.24 66.632 0.163 7.51 224.2 9.03
6/3/2022 12:30:00 PM 19.48 67.064 0.163 7.52 235 9.15
6/3/2022 12:45:00 PM 19.72 67.496 0.162 7.54 272.5 9.02
6/3/2022 1:00:00 PM 19.96 67.92799 0.163 7.54 261.4 9.09
6/3/2022 1:15:00 PM 20.22 68.396 0.162 7.56 253.9 9.17
6/3/2022 1:30:00 PM 20.5 68.9 0.162 7.58 283 9.13
6/3/2022 1:45:00 PM 20.66 69.188 0.163 7.6 279.9 9
6/3/2022 2:00:00 PM 20.77 69.386 0.163 7.61 282.7 9.07
6/3/2022 2:15:00 PM 20.87 69.566 0.162 7.62 249.5 9.01
6/3/2022 2:30:00 PM 20.98 69.764 0.163 7.65 236.6 9.03
6/3/2022 2:45:00 PM 21.07 69.926 0.163 7.66 261.5 9.01
6/3/2022 3:00:00 PM 21.16 70.088 0.163 7.66 229.7 8.99
6/3/2022 3:15:00 PM 21.28 70.304 0.163 7.67 235.7 9.03
6/3/2022 3:30:00 PM 21.34 70.412 0.163 7.68 222.5 9.03
6/3/2022 3:45:00 PM 21.32 70.376 0.163 7.68 220.7 8.95
6/3/2022 4:00:00 PM 21.26 70.268 0.163 7.68 219.4 8.98
6/3/2022 4:15:00 PM 21.19 70.142 0.163 7.67 219.7 8.85
6/3/2022 4:30:00 PM 21.12 70.016 0.163 7.67 222.7 8.87
6/3/2022 4:45:00 PM 21.08 69.944 0.163 7.66 220.8 8.87
6/3/2022 5:00:00 PM 21.02 69.836 0.163 7.66 241.8 8.79
6/3/2022 5:15:00 PM 20.96 69.728 0.163 7.65 213.7 8.83
6/3/2022 5:30:00 PM 20.92 69.656 0.163 7.65 211.1 8.75
6/3/2022 5:45:00 PM 20.87 69.566 0.163 7.63 268.8 8.75
6/3/2022 6:00:00 PM 20.79 69.422 0.163 7.62 215 8.74
6/3/2022 6:15:00 PM 20.71 69.278 0.163 7.59 218.7 8.68
6/3/2022 6:30:00 PM 20.64 69.152 0.163 7.58 219.4 8.61
6/3/2022 6:45:00 PM 20.55 68.99 0.163 7.56 229 8.57
6/3/2022 7:00:00 PM 20.48 68.864 0.163 7.55 228.1 8.42
6/3/2022 7:15:00 PM 20.4 68.72 0.163 7.52 223.2 8.49
6/3/2022 7:30:00 PM 20.32 68.576 0.163 7.5 219.1 8.4
6/3/2022 7:45:00 PM 20.24 68.432 0.163 7.48 206.9 8.39
6/3/2022 8:00:00 PM 20.16 68.288 0.163 7.47 212.2 8.3
6/3/2022 8:15:00 PM 20.06 68.108 0.163 7.43 204.7 8.27
6/3/2022 8:30:00 PM 19.96 67.92799 0.163 7.41 206.2 8.21
6/3/2022 8:45:00 PM 19.87 67.766 0.163 7.4 189.4 8.19
6/3/2022 9:00:00 PM 19.77 67.586 0.166 7.38 195.1 8.18
6/3/2022 9:15:00 PM 19.68 67.424 0.164 7.37 196.8 8.16
6/3/2022 9:30:00 PM 19.57 67.226 0.164 7.36 200.6 8.11
6/3/2022 9:45:00 PM 19.46 67.028 0.164 7.33 205.3 8.05
6/3/2022 10:00:00 PM 19.35 66.83 0.156 7.32 194 8.13
6/3/2022 10:15:00 PM 19.25 66.65 0.161 7.32 199.2 8.03
6/3/2022 10:30:00 PM 19.15 66.47 0.156 7.3 187.7 8.09
6/3/2022 10:45:00 PM 19.06 66.308 0.153 7.3 215.7 8.12
6/3/2022 11:00:00 PM 18.97 66.146 0.153 7.29 208.4 8.13
6/3/2022 11:15:00 PM 18.87 65.966 0.161 7.28 209.2 8.12
6/3/2022 11:30:00 PM 18.78 65.804 0.16 7.29 211.3 8.17
6/3/2022 11:45:00 PM 18.69 65.642 0.161 7.28 211.2 8.09
6/4/2022 12:00:00 AM 18.61 65.498 0.164 7.28 209.4 8.03
6/4/2022 12:15:00 AM 18.52 65.336 0.156 7.27 218.9 8.16
6/4/2022 12:30:00 AM 18.44 65.192 0.16 7.27 213.5 8.3
6/4/2022 12:45:00 AM 18.35 65.03 0.163 7.25 201.5 8.18
6/4/2022 1:00:00 AM 18.26 64.868 0.157 7.24 201 8.18
6/4/2022 1:15:00 AM 18.18 64.724 0.161 7.25 212 8.18
6/4/2022 1:30:00 AM 18.09 64.562 0.161 7.24 198.9 8.24
6/4/2022 1:45:00 AM 18.01 64.418 0.161 7.24 200.2 8.21
6/4/2022 2:00:00 AM 17.93 64.274 0.157 7.24 249.9 8.23
6/4/2022 2:15:00 AM 17.85 64.13 0.149 7.24 227.7 8.21
6/4/2022 2:30:00 AM 17.76 63.968 0.15 7.25 217.6 8.21
6/4/2022 2:45:00 AM 17.67 63.806 0.159 7.25 219.8 8.3
6/4/2022 3:00:00 AM 17.6 63.68 0.158 7.25 219.8 8.33
6/4/2022 3:15:00 AM 17.51 63.518 0.158 7.25 212.7 8.35
6/4/2022 3:30:00 AM 17.43 63.374 0.158 7.25 202.9 8.31
6/4/2022 3:45:00 AM 17.36 63.248 0.162 7.26 279.8 8.36
6/4/2022 4:00:00 AM 17.26 63.068 0.16 7.26 211.1 8.27
6/4/2022 4:15:00 AM 17.17 62.906 0.16 7.26 211.7 8.46
6/4/2022 4:30:00 AM 17.09 62.762 0.161 7.25 206.3 8.43
6/4/2022 4:45:00 AM 17.01 62.618 0.161 7.26 213.7 8.41
6/4/2022 5:00:00 AM 16.92 62.456 0.164 7.26 216.6 8.36
6/4/2022 5:15:00 AM 16.83 62.294 0.164 7.25 216.2 8.48
6/4/2022 5:30:00 AM 16.75 62.15 0.164 7.26 211.2 8.45
6/4/2022 5:45:00 AM 16.66 61.988 0.164 7.26 201.8 8.59
6/4/2022 6:00:00 AM 16.57 61.826 0.164 7.26 206.3 8.61
6/4/2022 6:15:00 AM 16.49 61.682 0.164 7.27 199.7 8.64
6/4/2022 6:30:00 AM 16.41 61.538 0.164 7.27 191.3 8.63
6/4/2022 6:45:00 AM 16.33 61.394 0.164 7.27 189 8.6
6/4/2022 7:00:00 AM 16.25 61.25 0.164 7.28 186.9 8.86
6/4/2022 7:15:00 AM 16.19 61.142 0.164 7.28 177.5 8.65
6/4/2022 7:30:00 AM 16.13 61.034 0.164 7.28 182.7 8.78
6/4/2022 7:45:00 AM 16.09 60.962 0.164 7.29 178.3 8.85
6/4/2022 8:00:00 AM 16.05 60.89 0.164 7.29 181.8 8.85
6/4/2022 8:15:00 AM 16.03 60.854 0.164 7.3 167.8 8.89
6/4/2022 8:30:00 AM 16.02 60.836 0.164 7.31 167.4 8.95
6/4/2022 8:45:00 AM 16.02 60.836 0.164 7.32 163 8.94
6/4/2022 9:00:00 AM 16.04 60.872 0.164 7.32 176 8.94
6/4/2022 9:15:00 AM 16.07 60.926 0.164 7.33 168.3 9.02
6/4/2022 9:30:00 AM 16.12 61.016 0.164 7.33 161.8 9.08
6/4/2022 9:45:00 AM 16.18 61.124 0.164 7.34 161.8 9.09
6/4/2022 10:00:00 AM 16.26 61.268 0.152 7.35 158.1 9.15
6/4/2022 10:15:00 AM 16.37 61.466 0.161 7.36 155 9.18
6/4/2022 10:30:00 AM 16.51 61.718 0.159 7.37 149.6 9.31
6/4/2022 10:45:00 AM 16.67 62.006 0.16 7.38 155.7 9.26
6/4/2022 11:00:00 AM 16.86 62.348 0.161 7.39 159.8 9.31
6/4/2022 11:15:00 AM 17.07 62.726 0.16 7.41 175 9.4
6/4/2022 11:30:00 AM 17.29 63.122 0.159 7.43 169.9 9.32
6/4/2022 11:45:00 AM 17.56 63.608 0.158 7.43 171.5 9.33
6/4/2022 12:00:00 PM 17.84 64.112 0.158 7.45 166.8 9.31
6/4/2022 12:15:00 PM 18.14 64.652 0.158 7.46 166.7 9.35
6/4/2022 12:30:00 PM 18.43 65.174 0.16 7.48 165.9 8.82
6/4/2022 12:45:00 PM 18.69 65.642 0.157 7.51 164.2 9.36
6/4/2022 1:00:00 PM 18.91 66.038 0.161 7.51 165.1 9.31
6/4/2022 1:15:00 PM 19.23 66.614 0.16 7.53 160.6 9.3
6/4/2022 1:30:00 PM 19.62 67.316 0.159 7.54 163.3 9.33
6/4/2022 1:45:00 PM 19.9 67.82 0.158 7.56 160 9.31
6/4/2022 2:00:00 PM 20.21 68.378 0.158 7.56 145.1 9.31
6/4/2022 2:15:00 PM 20.5 68.9 0.158 7.58 142 9.07
6/4/2022 2:30:00 PM 20.78 69.404 0.158 7.58 148.5 9.15
6/4/2022 2:45:00 PM 21.03 69.854 0.157 7.59 143 9.23
6/4/2022 3:00:00 PM 21.15 70.07 0.158 7.59 141.3 9.16
6/4/2022 3:15:00 PM 21.25 70.25 0.158 7.61 137.4 9.09
6/4/2022 3:30:00 PM 21.32 70.376 0.157 7.6 145.3 8.99
6/4/2022 3:45:00 PM 21.38 70.484 0.154 7.61 140 8.85
6/4/2022 4:00:00 PM 21.33 70.394 0.156 7.61 152.3 9.01
6/4/2022 4:15:00 PM 21.32 70.376 0.154 7.59 135.9 8.95
6/4/2022 4:30:00 PM 21.26 70.268 0.156 7.59 139 8.82
6/4/2022 4:45:00 PM 21.15 70.07 0.156 7.59 141.6 8.75
6/4/2022 5:00:00 PM 21.08 69.944 0.151 7.56 148 8.71
6/4/2022 5:15:00 PM 21.03 69.854 0.15 7.56 138.4 8.74
6/4/2022 5:30:00 PM 20.96 69.728 0.151 7.55 142.3 8.67
6/4/2022 5:45:00 PM 20.89 69.602 0.152 7.53 146.2 8.61
6/4/2022 6:00:00 PM 20.83 69.494 0.151 7.53 138.6 8.57
6/4/2022 6:15:00 PM 20.73 69.314 0.153 7.51 152.5 8.57
6/4/2022 6:30:00 PM 20.59 69.062 0.152 7.5 148.1 8.52
6/4/2022 6:45:00 PM 20.47 68.846 0.164 7.47 147.9 8.42
6/4/2022 7:00:00 PM 20.36 68.648 0.164 7.46 160.9 8.27
6/4/2022 7:15:00 PM 20.24 68.432 0.164 7.44 158.6 8.31
6/4/2022 7:30:00 PM 20.14 68.252 0.158 7.41 150.8 8.29
6/4/2022 7:45:00 PM 20.04 68.07201 0.158 7.4 152.2 8.18
6/4/2022 8:00:00 PM 19.93 67.874 0.152 7.38 154.9 8.1
6/4/2022 8:15:00 PM 19.82 67.676 0.151 7.38 152.5 8.2
6/4/2022 8:30:00 PM 19.73 67.514 0.15 7.37 153.7 8.17
6/4/2022 8:45:00 PM 19.63 67.334 0.148 7.35 160.8 8.1
6/4/2022 9:00:00 PM 19.52 67.136 0.149 7.33 160.6 8.12
6/4/2022 9:15:00 PM 19.4 66.92 0.163 7.32 167.6 8.03
6/4/2022 9:30:00 PM 19.29 66.722 0.164 7.31 162.4 8.07
6/4/2022 9:45:00 PM 19.18 66.524 0.164 7.3 168.6 8
6/4/2022 10:00:00 PM 19.06 66.308 0.164 7.3 166.6 8.02
6/4/2022 10:15:00 PM 18.95 66.11 0.164 7.28 170.2 7.94
6/4/2022 10:30:00 PM 18.84 65.912 0.165 7.29 180.3 7.97
6/4/2022 10:45:00 PM 18.73 65.714 0.165 7.28 154 8.07
6/4/2022 11:00:00 PM 18.62 65.516 0.165 7.28 171.3 8.02
6/4/2022 11:15:00 PM 18.52 65.336 0.165 7.27 172.2 8.1
6/4/2022 11:30:00 PM 18.41 65.138 0.165 7.27 177.7 8.14
6/4/2022 11:45:00 PM 18.31 64.958 0.165 7.27 173.7 8.17
6/5/2022 12:00:00 AM 18.21 64.778 0.165 7.26 172.5 8.15
6/5/2022 12:15:00 AM 18.11 64.598 0.165 7.27 174 7.99
6/5/2022 12:30:00 AM 18.01 64.418 0.165 7.26 175.1 8.05
6/5/2022 12:45:00 AM 17.92 64.256 0.165 7.26 171.6 8.15
6/5/2022 1:00:00 AM 17.83 64.094 0.165 7.26 182.5 8.17
6/5/2022 1:15:00 AM 17.74 63.932 0.165 7.26 176 8.33
6/5/2022 1:30:00 AM 17.66 63.788 0.165 7.24 174.7 8.16
6/5/2022 1:45:00 AM 17.58 63.644 0.165 7.24 176.9 8.17
6/5/2022 2:00:00 AM 17.49 63.482 0.165 7.25 179.1 8.26
6/5/2022 2:15:00 AM 17.41 63.338 0.165 7.23 182.7 8.32
6/5/2022 2:30:00 AM 17.34 63.212 0.165 7.22 178.7 8.2
6/5/2022 2:45:00 AM 17.26 63.068 0.165 7.22 181.4 8.22
6/5/2022 3:00:00 AM 17.18 62.924 0.165 7.25 183.7 8.06
6/5/2022 3:15:00 AM 17.1 62.78 0.165 7.24 166.6 8.37
6/5/2022 3:30:00 AM 17.01 62.618 0.165 7.22 178.1 8.43
6/5/2022 3:45:00 AM 16.94 62.492 0.165 7.24 178.8 8.43
6/5/2022 4:00:00 AM 16.87 62.366 0.165 7.24 184 7.99
6/5/2022 4:15:00 AM 16.79 62.222 0.165 7.23 177.4 8.47
6/5/2022 4:30:00 AM 16.7 62.06 0.165 7.24 224.1 8.45
6/5/2022 4:45:00 AM 16.62 61.916 0.165 7.23 187.4 8.32
6/5/2022 5:00:00 AM 16.54 61.772 0.165 7.22 183 8.46
6/5/2022 5:15:00 AM 16.46 61.628 0.165 7.25 181.6 8.35
6/5/2022 5:30:00 AM 16.38 61.484 0.165 7.25 186.2 8.51
6/5/2022 5:45:00 AM 16.28 61.304 0.165 7.24 184.2 8.56
6/5/2022 6:00:00 AM 16.2 61.16 0.165 7.24 191 8.72
6/5/2022 6:15:00 AM 16.12 61.016 0.165 7.24 187.2 8.55
6/5/2022 6:30:00 AM 16.02 60.836 0.165 7.24 191.6 8.68
6/5/2022 6:45:00 AM 15.94 60.692 0.165 7.25 189.3 8.79
6/5/2022 7:00:00 AM 15.86 60.548 0.165 7.26 192.6 8.8
6/5/2022 7:15:00 AM 15.77 60.386 0.165 7.25 191.6 8.81
6/5/2022 7:30:00 AM 15.7 60.26 0.165 7.25 185.7 8.98
6/5/2022 7:45:00 AM 15.65 60.17 0.165 7.27 184.3 8.8
6/5/2022 8:00:00 AM 15.6 60.08 0.165 7.26 184.2 8.95
6/5/2022 8:15:00 AM 15.57 60.026 0.165 7.28 188.8 8.91
6/5/2022 8:30:00 AM 15.55 59.99 0.165 7.28 192 8.92
6/5/2022 8:45:00 AM 15.54 59.972 0.165 7.27 190.9 8.85
6/5/2022 9:00:00 AM 15.55 59.99 0.165 7.29 197.3 9.05
6/5/2022 9:15:00 AM 15.56 60.008 0.165 7.3 182.4 8.93
6/5/2022 9:30:00 AM 15.58 60.044 0.165 7.32 189.8 9.11
6/5/2022 9:45:00 AM 15.63 60.134 0.165 7.33 241.6 9.04
6/5/2022 10:00:00 AM 15.68 60.224 0.165 7.32 184.5 9.07
6/5/2022 10:15:00 AM 15.77 60.386 0.165 7.33 183.8 8.88
6/5/2022 10:30:00 AM 15.88 60.584 0.164 7.35 187.6 8.98
6/5/2022 10:45:00 AM 16.02 60.836 0.165 7.36 190.1 9.19
6/5/2022 11:00:00 AM 16.18 61.124 0.164 7.37 180.8 8.49
6/5/2022 11:15:00 AM 16.37 61.466 0.164 7.38 188.2 8.57
6/5/2022 11:30:00 AM 16.57 61.826 0.164 7.39 227 9.35
6/5/2022 11:45:00 AM 16.81 62.258 0.164 7.41 175 9.02
6/5/2022 12:00:00 PM 17.08 62.744 0.164 7.41 177.8 9.33
6/5/2022 12:15:00 PM 17.38 63.284 0.164 7.43 177.5 9.26
6/5/2022 12:30:00 PM 17.7 63.86 0.164 7.44 181 8.74
6/5/2022 12:45:00 PM 18.03 64.454 0.164 7.46 177.8 9.22
6/5/2022 1:00:00 PM 18.34 65.012 0.164 7.48 178.8 9.13
6/5/2022 1:15:00 PM 18.67 65.606 0.164 7.48 180.9 9.43
6/5/2022 1:30:00 PM 19.05 66.29 0.164 7.5 175.3 9.03
6/5/2022 1:45:00 PM 19.37 66.866 0.164 7.51 172.5 9.3
6/5/2022 2:00:00 PM 19.69 67.442 0.164 7.54 172.5 9.1
6/5/2022 2:15:00 PM 19.96 67.92799 0.164 7.55 184 9.3
6/5/2022 2:30:00 PM 20.26 68.468 0.164 7.55 173.8 9.03
6/5/2022 2:45:00 PM 20.47 68.846 0.164 7.57 176.1 9.08
6/5/2022 3:00:00 PM 20.57 69.026 0.164 7.58 175.5 9
6/5/2022 3:15:00 PM 20.68 69.224 0.164 7.57 176.3 9.04
6/5/2022 3:30:00 PM 20.75 69.35 0.164 7.58 179.2 9.16
6/5/2022 3:45:00 PM 20.81 69.458 0.164 7.58 166.7 9.11
6/5/2022 4:00:00 PM 20.79 69.422 0.164 7.58 171 8.95
6/5/2022 4:15:00 PM 20.72 69.296 0.165 7.58 176.3 8.88
6/5/2022 4:30:00 PM 20.64 69.152 0.165 7.57 169.2 8.81
6/5/2022 4:45:00 PM 20.53 68.954 0.165 7.57 175.4 8.98
6/5/2022 5:00:00 PM 20.43 68.774 0.165 7.56 176.2 8.9
6/5/2022 5:15:00 PM 20.35 68.63 0.164 7.55 172.3 8.85
6/5/2022 5:30:00 PM 20.28 68.504 0.164 7.54 174.5 8.75
6/5/2022 5:45:00 PM 20.2 68.36 0.164 7.52 169.5 8.69
6/5/2022 6:00:00 PM 20.11 68.198 0.164 7.52 185.5 8.67
6/5/2022 6:15:00 PM 20.02 68.036 0.164 7.5 174.6 8.67
6/5/2022 6:30:00 PM 19.89 67.802 0.164 7.49 168.6 8.56
6/5/2022 6:45:00 PM 19.78 67.604 0.165 7.48 175.9 8.52
6/5/2022 7:00:00 PM 19.66 67.388 0.165 7.46 176.5 8.51
6/5/2022 7:15:00 PM 19.55 67.19 0.165 7.42 178.6 8.53
6/5/2022 7:30:00 PM 19.43 66.974 0.165 7.42 189.8 8.45
6/5/2022 7:45:00 PM 19.33 66.794 0.165 7.4 182.5 8.43
6/5/2022 8:00:00 PM 19.22 66.596 0.165 7.39 190.2 8.28
6/5/2022 8:15:00 PM 19.11 66.398 0.165 7.37 166.3 8.36
6/5/2022 8:30:00 PM 19 66.2 0.165 7.36 162.4 8.23
6/5/2022 8:45:00 PM 18.9 66.02 0.165 7.35 186 8.3
6/5/2022 9:00:00 PM 18.79 65.82201 0.165 7.34 178.9 8.33
6/5/2022 9:15:00 PM 18.69 65.642 0.165 7.32 172.6 8.34
6/5/2022 9:30:00 PM 18.58 65.444 0.165 7.33 194.1 8.21
6/5/2022 9:45:00 PM 18.48 65.264 0.165 7.31 184.5 8.24
6/5/2022 10:00:00 PM 18.37 65.066 0.165 7.31 192.3 8.26
6/5/2022 10:15:00 PM 18.26 64.868 0.165 7.27 192.9 8.27
6/5/2022 10:30:00 PM 18.15 64.67 0.165 7.29 203.1 8.32
6/5/2022 10:45:00 PM 18.04 64.472 0.165 7.28 190.3 8.26
6/5/2022 11:00:00 PM 17.93 64.274 0.165 7.28 188.6 8.23
6/5/2022 11:15:00 PM 17.83 64.094 0.165 7.26 206.9 8.33
6/5/2022 11:30:00 PM 17.73 63.914 0.165 7.28 199.4 8.3
6/5/2022 11:45:00 PM 17.63 63.734 0.164 7.26 192.1 8.4
6/6/2022 12:00:00 AM 17.53 63.554 0.162 7.26 195.4 8.23
6/6/2022 12:15:00 AM 17.44 63.392 0.162 7.25 218.8 8.27
6/6/2022 12:30:00 AM 17.35 63.23 0.161 7.24 217.1 8.19
6/6/2022 12:45:00 AM 17.26 63.068 0.161 7.25 208.1 8.31
6/6/2022 1:00:00 AM 17.17 62.906 0.162 7.25 202.5 8.34
6/6/2022 1:15:00 AM 17.09 62.762 0.161 7.24 195.8 8.35
6/6/2022 1:30:00 AM 17.01 62.618 0.161 7.24 187.7 8.24
6/6/2022 1:45:00 AM 16.93 62.474 0.161 7.25 184.6 8.37
6/6/2022 2:00:00 AM 16.85 62.33 0.16 7.25 191.2 8.37
6/6/2022 2:15:00 AM 16.78 62.204 0.16 7.24 198.1 8.38
6/6/2022 2:30:00 AM 16.71 62.078 0.161 7.25 177.6 8.39
6/6/2022 2:45:00 AM 16.64 61.952 0.163 7.24 189.8 8.23
6/6/2022 3:00:00 AM 16.58 61.844 0.162 7.24 187.2 8.34
6/6/2022 3:15:00 AM 16.5 61.7 0.162 7.24 186.9 8.37
6/6/2022 3:30:00 AM 16.43 61.574 0.163 7.24 182.2 8.46
6/6/2022 3:45:00 AM 16.36 61.448 0.163 7.23 181.4 8.58
6/6/2022 4:00:00 AM 16.29 61.322 0.163 7.24 186.7 8.45
6/6/2022 4:15:00 AM 16.22 61.196 0.15 7.25 188.7 8.46
6/6/2022 4:30:00 AM 16.15 61.07 0.151 7.24 185.8 8.45
6/6/2022 4:45:00 AM 16.08 60.944 0.15 7.25 201.9 8.38
6/6/2022 5:00:00 AM 16 60.8 0.151 7.22 192.1 8.44
6/6/2022 5:15:00 AM 15.93 60.674 0.152 7.25 171.5 8.54
6/6/2022 5:30:00 AM 15.85 60.53 0.152 7.23 176.8 8.47
6/6/2022 5:45:00 AM 15.78 60.404 0.152 7.24 170 8.62
6/6/2022 6:00:00 AM 15.7 60.26 0.16 7.23 172.4 8.55
6/6/2022 6:15:00 AM 15.63 60.134 0.16 7.24 172.5 8.51
6/6/2022 6:30:00 AM 15.56 60.008 0.16 7.24 176.3 8.5
6/6/2022 6:45:00 AM 15.48 59.864 0.16 7.23 173.2 8.35
6/6/2022 7:00:00 AM 15.41 59.738 0.161 7.25 175.2 8.77
6/6/2022 7:15:00 AM 15.35 59.63 0.161 7.24 177.6 8.49
6/6/2022 7:30:00 AM 15.29 59.522 0.16 7.25 171.7 8.66
6/6/2022 7:45:00 AM 15.24 59.432 0.161 7.25 184.7 8.67
6/6/2022 8:00:00 AM 15.22 59.396 0.161 7.26 172.4 8.71
6/6/2022 8:15:00 AM 15.2 59.36 0.161 7.26 170.6 8.42
6/6/2022 8:30:00 AM 15.19 59.342 0.162 7.28 172.9 8.65
6/6/2022 8:45:00 AM 15.2 59.36 0.162 7.28 173.2 9.15
6/6/2022 9:00:00 AM 15.22 59.396 0.162 7.29 166.6 9.08
6/6/2022 9:15:00 AM 15.25 59.45 0.155 7.29 175.1 8.96
6/6/2022 9:30:00 AM 15.29 59.522 0.154 7.28 168.6 9
6/6/2022 9:45:00 AM 15.35 59.63 0.154 7.3 165.4 9.08
6/6/2022 10:00:00 AM 15.43 59.774 0.154 7.3 169 9.08
6/6/2022 10:15:00 AM 15.53 59.954 0.154 7.32 166.9 9.03
6/6/2022 10:30:00 AM 15.67 60.206 0.158 7.34 171.9 9.13
6/6/2022 10:45:00 AM 15.83 60.494 0.159 7.35 171 9.19
6/6/2022 11:00:00 AM 16.03 60.854 0.158 7.36 172.5 9.09
6/6/2022 11:15:00 AM 16.23 61.214 0.159 7.34 170.4 9.35
6/6/2022 11:30:00 AM 16.46 61.628 0.159 7.39 182.5 9.28
6/6/2022 11:45:00 AM 16.7 62.06 0.16 7.41 168.3 9.26
6/6/2022 12:00:00 PM 17 62.6 0.16 7.41 166.5 9.39
6/6/2022 12:15:00 PM 17.31 63.158 0.16 7.43 172.1 9.29
6/6/2022 12:30:00 PM 17.64 63.752 0.16 7.43 166.6 9.42
6/6/2022 12:45:00 PM 17.97 64.346 0.16 7.45 173.1 9.33
6/6/2022 1:00:00 PM 18.35 65.03 0.16 7.47 167.4 9.38
6/6/2022 1:15:00 PM 18.7 65.66 0.16 7.46 163.1 9.4
6/6/2022 1:30:00 PM 19.06 66.308 0.159 7.49 175.8 9.32
6/6/2022 1:45:00 PM 19.42 66.956 0.159 7.51 159.9 9.37
6/6/2022 2:00:00 PM 19.76 67.568 0.159 7.52 159.1 9.43
6/6/2022 2:15:00 PM 20.08 68.144 0.159 7.52 160.7 9.21
6/6/2022 2:30:00 PM 20.34 68.612 0.159 7.54 163.5 9.39
6/6/2022 2:45:00 PM 20.57 69.026 0.16 7.54 163.1 9.38
6/6/2022 3:00:00 PM 20.73 69.314 0.159 7.56 159.4 9.35
6/6/2022 3:15:00 PM 20.84 69.512 0.159 7.56 163.1 9.22
6/6/2022 3:30:00 PM 20.92 69.656 0.158 7.56 195.6 9.29
6/6/2022 3:45:00 PM 20.98 69.764 0.16 7.56 163.3 9.2
6/6/2022 4:00:00 PM 20.97 69.746 0.16 7.55 154.7 9.21
6/6/2022 4:15:00 PM 20.93 69.674 0.16 7.56 158.8 8.94
6/6/2022 4:30:00 PM 20.86 69.548 0.159 7.55 158.5 8.88
6/6/2022 4:45:00 PM 20.75 69.35 0.16 7.55 162.4 8.93
6/6/2022 5:00:00 PM 20.66 69.188 0.159 7.54 156.9 8.51
6/6/2022 5:15:00 PM 20.58 69.044 0.159 7.54 167.2 8.36
6/6/2022 5:30:00 PM 20.49 68.882 0.159 7.52 161.4 8.84
6/6/2022 5:45:00 PM 20.39 68.702 0.159 7.51 166 8.77
6/6/2022 6:00:00 PM 20.3 68.54 0.158 7.47 165.6 8.58
6/6/2022 6:15:00 PM 20.19 68.342 0.159 7.48 171.6 8.66
6/6/2022 6:30:00 PM 20.09 68.162 0.157 7.47 176.3 8.58
6/6/2022 6:45:00 PM 19.97 67.946 0.157 7.46 179.7 8.61
6/6/2022 7:00:00 PM 19.86 67.748 0.157 7.45 183.4 8.57
6/6/2022 7:15:00 PM 19.74 67.532 0.157 7.43 190.4 8.51
6/6/2022 7:30:00 PM 19.63 67.334 0.15 7.42 200.3 8.39
6/6/2022 7:45:00 PM 19.53 67.154 0.15 7.4 216.8 8.48
6/6/2022 8:00:00 PM 19.44 66.992 0.15 7.38 190.4 8.31
6/6/2022 8:15:00 PM 19.33 66.794 0.149 7.37 193.6 8.3
6/6/2022 8:30:00 PM 19.22 66.596 0.149 7.34 196.6 8.18
6/6/2022 8:45:00 PM 19.12 66.416 0.149 7.34 194.5 8.15
6/6/2022 9:00:00 PM 19.02 66.236 0.164 7.33 201.7 8.18
6/6/2022 9:15:00 PM 18.91 66.038 0.16 7.33 201.6 8.18
6/6/2022 9:30:00 PM 18.81 65.858 0.162 7.31 202.8 8.23
6/6/2022 9:45:00 PM 18.7 65.66 0.161 7.32 203.8 8.25
6/6/2022 10:00:00 PM 18.59 65.462 0.161 7.3 227.8 8.17
6/6/2022 10:15:00 PM 18.49 65.282 0.162 7.29 231.5 8.16
6/6/2022 10:30:00 PM 18.38 65.084 0.162 7.27 272.7 8.17
6/6/2022 10:45:00 PM 18.28 64.904 0.165 7.25 216.7 8.14
6/6/2022 11:00:00 PM 18.18 64.724 0.164 7.27 217.2 8.25
6/6/2022 11:15:00 PM 18.08 64.544 0.166 7.26 219 8.25
6/6/2022 11:30:00 PM 17.99 64.382 0.166 7.27 223.3 8.26
6/6/2022 11:45:00 PM 17.91 64.238 0.166 7.25 224.5 8.29
6/7/2022 12:00:00 AM 17.82 64.076 0.166 7.23 242 8.21
6/7/2022 12:15:00 AM 17.74 63.932 0.163 7.26 225.7 8.14
6/7/2022 12:30:00 AM 17.65 63.77 0.162 7.24 253.5 8.14
6/7/2022 12:45:00 AM 17.58 63.644 0.162 7.23 221.7 8.26
6/7/2022 1:00:00 AM 17.51 63.518 0.161 7.24 224.6 8.18
6/7/2022 1:15:00 AM 17.44 63.392 0.161 7.22 216.4 8.08
6/7/2022 1:30:00 AM 17.37 63.266 0.16 7.24 215.1 8.29
6/7/2022 1:45:00 AM 17.3 63.14 0.161 7.22 221.4 8.29
6/7/2022 2:00:00 AM 17.23 63.014 0.162 7.23 219 8.38
6/7/2022 2:15:00 AM 17.18 62.924 0.164 7.23 226.7 8.31
6/7/2022 2:30:00 AM 17.11 62.798 0.161 7.21 221.6 8.4
6/7/2022 2:45:00 AM 17.06 62.708 0.166 7.23 211.7 8.31
6/7/2022 3:00:00 AM 17 62.6 0.166 7.24 226.9 8.34
6/7/2022 3:15:00 AM 16.95 62.51 0.166 7.21 208.7 8.35
6/7/2022 3:30:00 AM 16.89 62.402 0.166 7.23 217.6 8.27
6/7/2022 3:45:00 AM 16.84 62.312 0.166 7.21 234 8.45
6/7/2022 4:00:00 AM 16.79 62.222 0.166 7.23 307.8 8.41
6/7/2022 4:15:00 AM 16.73 62.114 0.166 7.23 268.3 8.44
6/7/2022 4:30:00 AM 16.67 62.006 0.166 7.24 226.6 8.36
6/7/2022 4:45:00 AM 16.62 61.916 0.166 7.22 220.6 8.42
6/7/2022 5:00:00 AM 16.56 61.808 0.165 7.23 200 8.36
6/7/2022 5:15:00 AM 16.5 61.7 0.163 7.23 194.9 8.38
6/7/2022 5:30:00 AM 16.44 61.592 0.16 7.24 188.9 8.32
6/7/2022 5:45:00 AM 16.38 61.484 0.161 7.23 183.7 8.4
6/7/2022 6:00:00 AM 16.32 61.376 0.162 7.25 182.8 8.31
6/7/2022 6:15:00 AM 16.26 61.268 0.162 7.23 182.3 8.44
6/7/2022 6:30:00 AM 16.21 61.178 0.166 7.26 178.1 8.43
6/7/2022 6:45:00 AM 16.17 61.106 0.158 7.23 181.5 8.52
6/7/2022 7:00:00 AM 16.15 61.07 0.158 7.25 182.4 8.46
6/7/2022 7:15:00 AM 16.13 61.034 0.159 7.25 192.7 8.44
6/7/2022 7:30:00 AM 16.12 61.016 0.158 7.25 204.7 8.6
6/7/2022 7:45:00 AM 16.12 61.016 0.159 7.25 193.8 8.51
6/7/2022 8:00:00 AM 16.12 61.016 0.158 7.29 196.1 8.71
6/7/2022 8:15:00 AM 16.13 61.034 0.159 7.29 230.8 8.77
6/7/2022 8:30:00 AM 16.15 61.07 0.159 7.29 204.9 8.78
6/7/2022 8:45:00 AM 16.18 61.124 0.16 7.31 189.8 9
6/7/2022 9:00:00 AM 16.22 61.196 0.16 7.31 199.2 8.87
6/7/2022 9:15:00 AM 16.26 61.268 0.16 7.33 211.1 8.79
6/7/2022 9:30:00 AM 16.34 61.412 0.16 7.34 189 8.96
6/7/2022 9:45:00 AM 16.42 61.556 0.16 7.34 195.4 9.24
6/7/2022 10:00:00 AM 16.5 61.7 0.16 7.36 193.7 8.79
6/7/2022 10:15:00 AM 16.6 61.88 0.159 7.38 191.4 9.23
6/7/2022 10:30:00 AM 16.71 62.078 0.159 7.4 196.6 9.26
6/7/2022 10:45:00 AM 16.81 62.258 0.16 7.41 195 9.3
6/7/2022 11:00:00 AM 16.97 62.546 0.159 7.43 179.5 9.19
6/7/2022 11:15:00 AM 17.15 62.87 0.159 7.46 155.1 9.02
6/7/2022 11:30:00 AM 17.3 63.14 0.159 7.46 169.3 9.38
6/7/2022 11:45:00 AM 17.42 63.356 0.159 7.48 160.2 9.11
6/7/2022 12:00:00 PM 17.55 63.59 0.159 7.51 145 9.1
6/7/2022 12:15:00 PM 17.67 63.806 0.158 7.5 158.3 9.33
6/7/2022 12:30:00 PM 17.81 64.058 0.158 7.52 154.7 9.26
6/7/2022 12:45:00 PM 17.96 64.328 0.157 7.53 147.2 9.32
6/7/2022 1:00:00 PM 18.1 64.58 0.157 7.55 145.9 9.52
6/7/2022 1:15:00 PM 18.22 64.796 0.157 7.58 153.1 9.58
6/7/2022 1:30:00 PM 18.29 64.922 0.157 7.58 150.1 9.45
6/7/2022 1:45:00 PM 18.33 64.994 0.157 7.59 143.9 9.45
6/7/2022 2:00:00 PM 18.35 65.03 0.157 7.61 153.6 9.45
6/7/2022 2:15:00 PM 18.37 65.066 0.157 7.59 149.1 9.42
6/7/2022 2:30:00 PM 18.4 65.12 0.157 7.59 148.7 9.18
6/7/2022 2:45:00 PM 18.43 65.174 0.157 7.6 154.5 9.39
6/7/2022 3:00:00 PM 18.44 65.192 0.155 7.6 142 9.33
6/7/2022 3:15:00 PM 18.42 65.156 0.155 7.57 135.1 9.2
6/7/2022 3:30:00 PM 18.42 65.156 0.155 7.54 135.5 9.25
6/7/2022 3:45:00 PM 18.41 65.138 0.156 7.56 143.8 9.1
6/7/2022 4:00:00 PM 18.4 65.12 0.155 7.53 151.5 9.19
6/7/2022 4:15:00 PM 18.39 65.102 0.155 7.53 148 9.15
6/7/2022 4:30:00 PM 18.39 65.102 0.155 7.55 157.8 9.04
6/7/2022 4:45:00 PM 18.37 65.066 0.155 7.53 160.7 9.07
6/7/2022 5:00:00 PM 18.34 65.012 0.155 7.51 169.6 8.99
6/7/2022 5:15:00 PM 18.3 64.94 0.154 7.51 156.8 8.91
6/7/2022 5:30:00 PM 18.28 64.904 0.153 7.47 168.3 8.83
6/7/2022 5:45:00 PM 18.24 64.832 0.154 7.45 179.9 8.72
6/7/2022 6:00:00 PM 18.21 64.778 0.154 7.44 146.5 8.66
6/7/2022 6:15:00 PM 18.19 64.742 0.154 7.4 149.1 8.52
6/7/2022 6:30:00 PM 18.15 64.67 0.163 7.38 178.2 8.62
6/7/2022 6:45:00 PM 18.12 64.616 0.163 7.38 151.3 8.51
6/7/2022 7:00:00 PM 18.1 64.58 0.163 7.36 155.4 8.42
6/7/2022 7:15:00 PM 18.07 64.526 0.163 7.36 159.6 8.39
6/7/2022 7:30:00 PM 18.04 64.472 0.151 7.34 153.1 8.41
6/7/2022 7:45:00 PM 18 64.4 0.149 7.33 139.6 8.35
6/7/2022 8:00:00 PM 17.97 64.346 0.163 7.32 142.7 8.42
6/7/2022 8:15:00 PM 17.95 64.31 0.162 7.3 134.1 8.32
6/7/2022 8:30:00 PM 17.92 64.256 0.162 7.29 138.3 8.47
6/7/2022 8:45:00 PM 17.9 64.22 0.161 7.27 152 8.42
6/7/2022 9:00:00 PM 17.87 64.166 0.161 7.28 154.8 8.42
6/7/2022 9:15:00 PM 17.86 64.148 0.16 7.26 137.4 8.4
6/7/2022 9:30:00 PM 17.84 64.112 0.16 7.25 144.6 8.37
6/7/2022 9:45:00 PM 17.82 64.076 0.16 7.24 140.2 8.37
6/7/2022 10:00:00 PM 17.81 64.058 0.16 7.24 132.8 8.39
6/7/2022 10:15:00 PM 17.79 64.022 0.161 7.24 142 8.32
6/7/2022 10:30:00 PM 17.77 63.986 0.161 7.22 135.3 8.3
6/7/2022 10:45:00 PM 17.75 63.95 0.161 7.22 124.6 8.34
6/7/2022 11:00:00 PM 17.73 63.914 0.161 7.22 124.4 8.27
6/7/2022 11:15:00 PM 17.71 63.878 0.161 7.21 122.8 8.25
6/7/2022 11:30:00 PM 17.69 63.842 0.161 7.2 121.4 8.23
6/7/2022 11:45:00 PM 17.67 63.806 0.158 7.19 120.7 8.08
6/8/2022 12:00:00 AM 17.64 63.752 0.157 7.19 119.1 8.29
6/8/2022 12:15:00 AM 17.62 63.716 0.157 7.19 122.8 8.28
6/8/2022 12:30:00 AM 17.6 63.68 0.146 7.19 129.4 8.28
6/8/2022 12:45:00 AM 17.58 63.644 0.148 7.19 122.5 8.16
6/8/2022 1:00:00 AM 17.56 63.608 0.148 7.18 141 8.2
6/8/2022 1:15:00 AM 17.54 63.572 0.148 7.18 141.9 8.12
6/8/2022 1:30:00 AM 17.51 63.518 0.16 7.18 143 8.24
6/8/2022 1:45:00 AM 17.49 63.482 0.16 7.18 128.8 8.26
6/8/2022 2:00:00 AM 17.47 63.446 0.145 7.17 111.7 8.1
6/8/2022 2:15:00 AM 17.45 63.41 0.155 7.18 120.5 8.21
6/8/2022 2:30:00 AM 17.44 63.392 0.156 7.18 127.9 8.23
6/8/2022 2:45:00 AM 17.42 63.356 0.155 7.18 130.4 8.27
6/8/2022 3:00:00 AM 17.4 63.32 0.154 7.18 136.2 8.22
6/8/2022 3:15:00 AM 17.38 63.284 0.154 7.16 167.5 8.32
6/8/2022 3:30:00 AM 17.37 63.266 0.154 7.17 153.8 8.12
6/8/2022 3:45:00 AM 17.36 63.248 0.155 7.16 129.6 8.29
6/8/2022 4:00:00 AM 17.34 63.212 0.154 7.17 121.8 8.25
6/8/2022 4:15:00 AM 17.33 63.194 0.157 7.17 140.3 8.24
6/8/2022 4:30:00 AM 17.32 63.176 0.157 7.17 120.5 8.19
6/8/2022 4:45:00 AM 17.3 63.14 0.157 7.16 133.7 8.27
6/8/2022 5:00:00 AM 17.28 63.104 0.157 7.16 136.8 8.19
6/8/2022 5:15:00 AM 17.26 63.068 0.158 7.17 148.9 8.06
6/8/2022 5:30:00 AM 17.24 63.032 0.158 7.16 316 8.24
6/8/2022 5:45:00 AM 17.22 62.996 0.156 7.17 123.7 8.23
6/8/2022 6:00:00 AM 17.2 62.96 0.155 7.17 122.2 8.29
6/8/2022 6:15:00 AM 17.18 62.924 0.155 7.17 114.1 8.26
6/8/2022 6:30:00 AM 17.16 62.888 0.156 7.17 122.2 8.5
6/8/2022 6:45:00 AM 17.14 62.852 0.156 7.18 123.7 8.31
6/8/2022 7:00:00 AM 17.11 62.798 0.156 7.18 652 8.41
6/8/2022 7:15:00 AM 17.09 62.762 0.156 7.18 1247 8.23
6/8/2022 7:30:00 AM 17.07 62.726 0.157 7.18 142.3 8.51
6/8/2022 7:45:00 AM 17.07 62.726 0.157 7.19 177.2 8.31
6/8/2022 8:00:00 AM 17.08 62.744 0.158 7.2 800.4 8.43
6/8/2022 8:15:00 AM 17.1 62.78 0.156 7.21 741.2 8.54
6/8/2022 8:30:00 AM 17.13 62.834 0.159 7.23 813.8 8.54
6/8/2022 8:45:00 AM 17.17 62.906 0.159 7.25 1121 8.59
6/8/2022 9:00:00 AM 17.23 63.014 0.159 7.27 712.3 8.83
6/8/2022 9:15:00 AM 17.29 63.122 0.158 7.29 453.9 8.7
6/8/2022 9:30:00 AM 17.33 63.194 0.158 7.32 500.3 8.79
6/8/2022 9:45:00 AM 17.41 63.338 0.164 7.32 319.3 8.87
6/8/2022 10:00:00 AM 17.51 63.518 0.163 7.34 269.9 8.89
6/8/2022 10:15:00 AM 17.58 63.644 0.164 7.36 1030 8.97
6/8/2022 10:30:00 AM 17.68 63.824 0.163 7.38 204 8.97
6/8/2022 10:45:00 AM 17.79 64.022 0.163 7.41 97.32 9.15
6/8/2022 11:00:00 AM 17.87 64.166 0.163 7.44 86.7 9.17
6/8/2022 11:15:00 AM 18 64.4 0.163 7.45 74.09 9.22
6/8/2022 11:30:00 AM 18.12 64.616 0.163 7.47 58.83 9.16
6/8/2022 11:45:00 AM 18.26 64.868 0.163 7.5 56.8 9.11
6/8/2022 12:00:00 PM 18.36 65.048 0.163 7.52 57.15 9.23
6/8/2022 12:15:00 PM 18.49 65.282 0.163 7.54 54.88 9.25
6/8/2022 12:30:00 PM 18.83 65.894 0.163 7.54 56.85 9.26
6/8/2022 12:45:00 PM 19.16 66.488 0.164 7.57 55.57 9.08
6/8/2022 1:00:00 PM 19.47 67.046 0.164 7.6 437 9.24
6/8/2022 1:15:00 PM 19.8 67.64 0.164 7.61 3016 9.26
6/8/2022 1:30:00 PM 20.15 68.27 0.164 7.62 2342 9.32
6/8/2022 1:45:00 PM 20.35 68.63 0.164 7.64 4581 9.32
6/8/2022 2:00:00 PM 20.59 69.062 0.164 7.64 3354 9.17
6/8/2022 2:15:00 PM 20.91 69.638 0.164 7.66 2972 9.22
6/8/2022 2:30:00 PM 21.2 70.16 0.164 7.69 3085 9.11
6/8/2022 2:45:00 PM 21.42 70.556 0.164 7.69 2344 9.17
6/8/2022 3:00:00 PM 21.49 70.682 0.164 7.71 1532 8.97
6/8/2022 3:15:00 PM 21.64 70.952 0.164 7.7 1656 9
6/8/2022 3:30:00 PM 21.8 71.24 0.164 7.71 1784 8.92
6/8/2022 3:45:00 PM 22.01 71.618 0.164 7.71 846.1 8.95
6/8/2022 4:00:00 PM 22.1 71.78 0.164 7.71 524.7 8.89
6/8/2022 4:15:00 PM 22.11 71.798 0.165 7.73 406 8.85
6/8/2022 4:30:00 PM 22.07 71.726 0.165 7.72 365.9 8.77
6/8/2022 4:45:00 PM 21.96 71.528 0.165 7.71 526.8 8.68
6/8/2022 5:00:00 PM 21.85 71.33 0.165 7.7 586.1 8.67
6/8/2022 5:15:00 PM 21.76 71.168 0.165 7.68 1115 8.6
6/8/2022 5:30:00 PM 21.68 71.024 0.165 7.66 608.2 8.58
6/8/2022 5:45:00 PM 21.62 70.916 0.165 7.63 1136 8.4
6/8/2022 6:00:00 PM 21.57 70.826 0.165 7.62 1440 8.47
6/8/2022 6:15:00 PM 21.5 70.7 0.165 7.59 1418 8.52
6/8/2022 6:30:00 PM 21.42 70.556 0.165 7.58 1383 8.51
6/8/2022 6:45:00 PM 21.33 70.394 0.165 7.57 1155 8.4
6/8/2022 7:00:00 PM 21.24 70.232 0.165 7.54 442.9 8.27
6/8/2022 7:15:00 PM 21.14 70.052 0.165 7.53 713.9 8.08
6/8/2022 7:30:00 PM 21.07 69.926 0.165 7.48 722.2 8.17
6/8/2022 7:45:00 PM 20.99 69.782 0.165 7.46 636.6 8.07
6/8/2022 8:00:00 PM 20.91 69.638 0.166 7.43 561.7 7.97
6/8/2022 8:15:00 PM 20.85 69.53 0.166 7.41 921.1 7.87
6/8/2022 8:30:00 PM 20.8 69.44 0.166 7.37 650.7 7.8
6/8/2022 8:45:00 PM 20.75 69.35 0.166 7.36 864.6 7.84
6/8/2022 9:00:00 PM 20.7 69.26 0.166 7.33 849.2 7.82
6/8/2022 9:15:00 PM 20.64 69.152 0.166 7.3 575.5 7.69
6/8/2022 9:30:00 PM 20.59 69.062 0.166 7.3 385.5 7.74
6/8/2022 9:45:00 PM 20.53 68.954 0.166 7.29 318.4 7.74
6/8/2022 10:00:00 PM 20.47 68.846 0.166 7.29 1886 7.71
6/8/2022 10:15:00 PM 20.41 68.738 0.166 7.26 2373 7.68
6/8/2022 10:30:00 PM 20.35 68.63 0.166 7.26 2008 7.71
6/8/2022 10:45:00 PM 20.28 68.504 0.166 7.25 2439 7.68
6/8/2022 11:00:00 PM 20.22 68.396 0.166 7.24 3331 7.68
6/8/2022 11:15:00 PM 20.15 68.27 0.166 7.24 3871 7.7
6/8/2022 11:30:00 PM 20.09 68.162 0.166 7.21 3882 7.46
6/8/2022 11:45:00 PM 20.02 68.036 0.166 7.23 4528 7.72
6/9/2022 12:00:00 AM 19.97 67.946 0.166 7.22 4580 7.68
6/9/2022 12:15:00 AM 19.92 67.856 0.166 7.22 2286 7.71
6/9/2022 12:30:00 AM 19.88 67.784 0.166 7.22 99.89 7.59
6/9/2022 12:45:00 AM 19.83 67.694 0.166 7.22 100.8 7.71
6/9/2022 1:00:00 AM 19.8 67.64 0.166 7.2 89.24 7.67
6/9/2022 1:15:00 AM 19.76 67.568 0.165 7.23 77.89 7.66
6/9/2022 1:30:00 AM 19.73 67.514 0.165 7.23 66.61 7.73
6/9/2022 1:45:00 AM 19.7 67.46 0.165 7.23 70.75 7.72
6/9/2022 2:00:00 AM 19.67 67.406 0.165 7.22 61.32 7.79
6/9/2022 2:15:00 AM 19.65 67.37 0.162 7.22 60.62 7.8
6/9/2022 2:30:00 AM 19.62 67.316 0.161 7.22 58.49 7.69
6/9/2022 2:45:00 AM 19.6 67.28 0.16 7.22 53.56 7.75
6/9/2022 3:00:00 AM 19.58 67.244 0.159 7.21 53.45 7.83
6/9/2022 3:15:00 AM 19.55 67.19 0.158 7.2 65.56 7.5
6/9/2022 3:30:00 AM 19.53 67.154 0.159 7.21 51.24 7.62
6/9/2022 3:45:00 AM 19.5 67.1 0.16 7.2 51.22 7.01
6/9/2022 4:00:00 AM 19.47 67.046 0.159 7.22 81.92 7.68
6/9/2022 4:15:00 AM 19.44 66.992 0.162 7.21 54.2 7.67
6/9/2022 4:30:00 AM 19.41 66.938 0.161 7.23 79.41 7.71
6/9/2022 4:45:00 AM 19.38 66.884 0.162 7.21 54.39 7.67
6/9/2022 5:00:00 AM 19.35 66.83 0.161 7.21 54.65 7.64
6/9/2022 5:15:00 AM 19.31 66.758 0.165 7.2 63.55 7.76
6/9/2022 5:30:00 AM 19.28 66.704 0.161 7.22 55.62 7.78
6/9/2022 5:45:00 AM 19.23 66.614 0.165 7.21 72.48 7.81
6/9/2022 6:00:00 AM 19.2 66.56 0.165 7.21 64.18 7.8
6/9/2022 6:15:00 AM 19.15 66.47 0.165 7.21 54.06 7.76
6/9/2022 6:30:00 AM 19.11 66.398 0.165 7.23 57.74 7.79
6/9/2022 6:45:00 AM 19.07 66.326 0.165 7.21 74.19 7.79
6/9/2022 7:00:00 AM 19.03 66.254 0.164 7.22 61.14 7.94
6/9/2022 7:15:00 AM 18.99 66.182 0.165 7.21 82.87 7.87
6/9/2022 7:30:00 AM 18.96 66.128 0.165 7.22 74.33 8
6/9/2022 7:45:00 AM 18.92 66.056 0.165 7.22 54.41 7.87
6/9/2022 8:00:00 AM 18.9 66.02 0.165 7.24 78.5 8.05
6/9/2022 8:15:00 AM 18.88 65.984 0.165 7.25 60.35 8.03
6/9/2022 8:30:00 AM 18.87 65.966 0.165 7.26 56.28 8.04
6/9/2022 8:45:00 AM 18.86 65.948 0.165 7.27 52.74 8.15
6/9/2022 9:00:00 AM 18.86 65.948 0.165 7.27 75.38 7.97
6/9/2022 9:15:00 AM 18.87 65.966 0.165 7.27 62.92 8.17
6/9/2022 9:30:00 AM 18.9 66.02 0.165 7.27 49.04 8.24
6/9/2022 9:45:00 AM 18.95 66.11 0.165 7.29 53.55 8.33
6/9/2022 10:00:00 AM 19.02 66.236 0.165 7.31 79.91 8.37
6/9/2022 10:15:00 AM 19.09 66.362 0.165 7.32 53.97 8.39
6/9/2022 10:30:00 AM 19.15 66.47 0.165 7.34 52.41 8.5
6/9/2022 10:45:00 AM 19.24 66.632 0.165 7.37 64.35 8.58
6/9/2022 11:00:00 AM 19.36 66.848 0.165 7.38 57.28 8.61
6/9/2022 11:15:00 AM 19.52 67.136 0.165 7.4 105.3 8.7
6/9/2022 11:30:00 AM 19.64 67.352 0.165 7.41 57.82 8.75
6/9/2022 11:45:00 AM 19.81 67.658 0.165 7.43 51.43 8.79
6/9/2022 12:00:00 PM 20.02 68.036 0.165 7.44 50.62 8.74
6/9/2022 12:15:00 PM 20.25 68.45 0.165 7.47 56.58 8.86
6/9/2022 12:30:00 PM 20.5 68.9 0.165 7.49 51.27 9
6/9/2022 12:45:00 PM 20.82 69.476 0.165 7.51 49.81 8.92
6/9/2022 1:00:00 PM 21.09 69.962 0.164 7.52 64.27 8.91
6/9/2022 1:15:00 PM 21.36 70.448 0.165 7.55 41.87 8.89
6/9/2022 1:30:00 PM 21.65 70.97 0.165 7.56 46.95 8.92
6/9/2022 1:45:00 PM 21.98 71.564 0.165 7.59 41.43 8.93
6/9/2022 2:00:00 PM 22.24 72.032 0.165 7.59 70.98 8.95
6/9/2022 2:15:00 PM 22.44 72.392 0.165 7.62 65.84 8.91
6/9/2022 2:30:00 PM 22.57 72.626 0.165 7.65 38.92 8.83
6/9/2022 2:45:00 PM 22.57 72.626 0.165 7.65 41.17 8.88
6/9/2022 3:00:00 PM 22.56 72.608 0.165 7.65 52.96 8.74
6/9/2022 3:15:00 PM 22.72 72.896 0.165 7.64 54.79 8.71
6/9/2022 3:30:00 PM 22.9 73.22 0.165 7.66 46.99 8.61
6/9/2022 3:45:00 PM 22.93 73.274 0.165 7.68 66.88 8.7
6/9/2022 4:00:00 PM 22.83 73.094 0.165 7.67 48.76 8.67
6/9/2022 4:15:00 PM 22.76 72.968 0.165 7.68 57.01 8.58
6/9/2022 4:30:00 PM 22.64 72.752 0.165 7.68 60.38 8.61
6/9/2022 4:45:00 PM 22.42 72.356 0.165 7.7 46.25 8.56
6/9/2022 5:00:00 PM 22.23 72.014 0.165 7.66 47.87 8.5
6/9/2022 5:15:00 PM 22.09 71.762 0.146 7.63 58.36 8.5
6/9/2022 5:30:00 PM 21.97 71.546 0.165 7.63 1565 8.42
6/9/2022 5:45:00 PM 21.87 71.366 0.165 7.62 56.51 8.31
6/9/2022 6:00:00 PM 21.73 71.114 0.17 7.62 54.83 8.26
6/9/2022 6:15:00 PM 21.59 70.862 0.166 7.59 62.88 8.3
6/9/2022 6:30:00 PM 21.47 70.646 0.166 7.56 91.23 8.12
6/9/2022 6:45:00 PM 21.35 70.43 0.166 7.55 68.38 8.16
6/9/2022 7:00:00 PM 21.21 70.17799 0.153 7.54 73.45 8.15
6/9/2022 7:15:00 PM 21.07 69.926 0.149 7.49 68.16 8.04
6/9/2022 7:30:00 PM 20.94 69.692 0.152 7.49 55.78 8.1
6/9/2022 7:45:00 PM 20.83 69.494 0.166 7.46 55.23 7.99
6/9/2022 8:00:00 PM 20.7 69.26 0.166 7.44 54.78 7.96
6/9/2022 8:15:00 PM 20.58 69.044 0.166 7.43 45.77 7.92
6/9/2022 8:30:00 PM 20.46 68.828 0.166 7.39 53.08 7.82
6/9/2022 8:45:00 PM 20.36 68.648 0.166 7.39 54.55 7.85
6/9/2022 9:00:00 PM 20.26 68.468 0.166 7.37 65.89 7.82
6/9/2022 9:15:00 PM 20.17 68.306 0.166 7.37 55.34 7.76
6/9/2022 9:30:00 PM 20.07 68.126 0.166 7.33 49.87 7.75
6/9/2022 9:45:00 PM 19.96 67.92799 0.166 7.33 65.16 7.69
6/9/2022 10:00:00 PM 19.86 67.748 0.166 7.33 47.46 7.78
6/9/2022 10:15:00 PM 19.76 67.568 0.166 7.32 48.25 7.79
6/9/2022 10:30:00 PM 19.65 67.37 0.166 7.32 43.77 7.81
6/9/2022 10:45:00 PM 19.54 67.172 0.167 7.31 47.7 7.79
6/9/2022 11:00:00 PM 19.42 66.956 0.167 7.29 74.57 7.84
6/9/2022 11:15:00 PM 19.33 66.794 0.167 7.29 63.9 7.8
6/9/2022 11:30:00 PM 19.21 66.578 0.167 7.29 44.53 7.88
6/9/2022 11:45:00 PM 19.1 66.38 0.167 7.29 49.72 7.88
6/10/2022 12:00:00 AM 19 66.2 0.167 7.3 40.78 7.94
6/10/2022 12:15:00 AM 18.88 65.984 0.167 7.28 51.39 7.91
6/10/2022 12:30:00 AM 18.78 65.804 0.167 7.29 45 7.91
6/10/2022 12:45:00 AM 18.66 65.588 0.167 7.27 61.03 7.97
6/10/2022 1:00:00 AM 18.55 65.39 0.167 7.28 42.39 7.89
6/10/2022 1:15:00 AM 18.44 65.192 0.167 7.28 41.46 7.92
6/10/2022 1:30:00 AM 18.34 65.012 0.167 7.27 108.1 8.1
6/10/2022 1:45:00 AM 18.25 64.85 0.167 7.28 67.49 8.1
6/10/2022 2:00:00 AM 18.15 64.67 0.167 7.3 68.72 8.09
6/10/2022 2:15:00 AM 18.05 64.49 0.167 7.28 176.7 8.09
6/10/2022 2:30:00 AM 17.97 64.346 0.167 7.3 68.33 8.17
6/10/2022 2:45:00 AM 17.89 64.202 0.167 7.28 44.24 7.97
6/10/2022 3:00:00 AM 17.79 64.022 0.167 7.28 48.67 7.87
6/10/2022 3:15:00 AM 17.71 63.878 0.167 7.26 58.09 7.98
6/10/2022 3:30:00 AM 17.62 63.716 0.167 7.28 57 8
6/10/2022 3:45:00 AM 17.54 63.572 0.167 7.27 113.1 8.03
6/10/2022 4:00:00 AM 17.45 63.41 0.167 7.28 51.79 8.03
6/10/2022 4:15:00 AM 17.36 63.248 0.167 7.27 52 8.18
6/10/2022 4:30:00 AM 17.27 63.086 0.167 7.26 75.89 8.18
6/10/2022 4:45:00 AM 17.19 62.942 0.167 7.28 61.58 8.18
6/10/2022 5:00:00 AM 17.1 62.78 0.167 7.28 69.92 8.21
6/10/2022 5:15:00 AM 17.01 62.618 0.167 7.29 82.2 8.26
6/10/2022 5:30:00 AM 16.93 62.474 0.167 7.27 106 8.35
6/10/2022 5:45:00 AM 16.85 62.33 0.167 7.28 96.77 8.34
6/10/2022 6:00:00 AM 16.77 62.186 0.167 7.29 109 8.39
6/10/2022 6:15:00 AM 16.69 62.042 0.167 7.27 110.1 8.36
6/10/2022 6:30:00 AM 16.6 61.88 0.166 7.28 100.7 8.42
6/10/2022 6:45:00 AM 16.53 61.754 0.166 7.29 71.59 8.29
6/10/2022 7:00:00 AM 16.46 61.628 0.166 7.29 84.84 8.24
6/10/2022 7:15:00 AM 16.39 61.502 0.166 7.29 78.65 8.44
6/10/2022 7:30:00 AM 16.33 61.394 0.166 7.3 113.3 8.34
6/10/2022 7:45:00 AM 16.3 61.34 0.166 7.3 93.99 8.32
6/10/2022 8:00:00 AM 16.27 61.286 0.166 7.31 129.1 8.41
6/10/2022 8:15:00 AM 16.26 61.268 0.166 7.31 62.23 8.35
6/10/2022 8:30:00 AM 16.25 61.25 0.166 7.35 83.92 8.51
6/10/2022 8:45:00 AM 16.27 61.286 0.166 7.33 78.47 8.57
6/10/2022 9:00:00 AM 16.29 61.322 0.166 7.34 112.1 8.53
6/10/2022 9:15:00 AM 16.32 61.376 0.166 7.35 204 8.58
6/10/2022 9:30:00 AM 16.36 61.448 0.166 7.36 120.9 8.69
6/10/2022 9:45:00 AM 16.41 61.538